Provisional Data: Marsh Creek near Blanchard, PA


Please select a monitoring station.
Please select start date.
Please select start date.

Toggle Unit: C/F Toggle Unit: C/F
Sample Time Temperature (C) Temperature (F) Specific Conductivity (mS/cm) pH   Turbidity (NTU+) DO (mg/L)
6/29/2021 12:00:00 AM 24.1 75.38 0.103 7.19 332.75 7.51
6/29/2021 12:15:00 AM 24.01 75.218 0.103 7.18 5.2 7.53
6/29/2021 12:30:00 AM 23.92 75.056 0.103 7.16 10.73 7.53
6/29/2021 12:45:00 AM 23.84 74.912 0.103 7.16 11 7.55
6/29/2021 1:00:00 AM 23.76 74.768 0.103 7.16 5.2 7.56
6/29/2021 1:15:00 AM 23.68 74.624 0.102 7.15 1.5 7.57
6/29/2021 1:30:00 AM 23.6 74.48 0.056 7.14 12.71 7.59
6/29/2021 1:45:00 AM 23.52 74.336 0.104 7.13 10.14 7.59
6/29/2021 2:00:00 AM 23.46 74.228 0.054 7.12 11.76 7.61
6/29/2021 2:15:00 AM 23.39 74.102 0.104 7.11 5.38 7.63
6/29/2021 2:30:00 AM 23.32 73.976 0.104 7.1 10.85 7.63
6/29/2021 2:45:00 AM 23.25 73.85 0.104 7.1 11.2 7.66
6/29/2021 3:00:00 AM 23.2 73.76 0.104 7.1 10.91 7.68
6/29/2021 3:15:00 AM 23.14 73.652 0.103 7.09 11.13 7.69
6/29/2021 3:30:00 AM 23.07 73.526 0.104 7.09 4.95 7.7
6/29/2021 3:45:00 AM 23 73.4 0.104 7.09 12.7 7.72
6/29/2021 4:00:00 AM 22.94 73.292 0.104 7.08 10.39 7.72
6/29/2021 4:15:00 AM 22.87 73.166 0.103 7.07 5.37 7.75
6/29/2021 4:30:00 AM 22.8 73.04 0.104 7.07 5.58 7.76
6/29/2021 4:45:00 AM 22.73 72.914 0.104 7.07 5.45 7.76
6/29/2021 5:00:00 AM 22.66 72.788 0.104 7.07 10.67 7.77
6/29/2021 5:15:00 AM 22.59 72.662 0.104 7.06 11.24 7.8
6/29/2021 5:30:00 AM 22.52 72.536 0.104 7.06 5.81 7.81
6/29/2021 5:45:00 AM 22.45 72.41 0.105 7.06 5.99 7.82
6/29/2021 6:00:00 AM 22.38 72.284 0.105 7.05 11.39 7.84
6/29/2021 6:15:00 AM 22.33 72.194 0.105 7.06 6.05 7.88
6/29/2021 6:30:00 AM 22.28 72.104 0.105 7.07 5.84 7.9
6/29/2021 6:45:00 AM 22.23 72.014 0.103 7.07 14.74 7.96
6/29/2021 7:00:00 AM 22.19 71.942 0.105 7.07 5.35 7.98
6/29/2021 7:15:00 AM 22.16 71.888 0.104 7.09 16.1 8.05
6/29/2021 7:30:00 AM 22.13 71.834 0.105 7.1 4.81 8.1
6/29/2021 7:45:00 AM 22.1 71.78 0.105 7.13 5.79 8.1
6/29/2021 8:00:00 AM 22.09 71.762 0.105 7.14 5.54 8.21
6/29/2021 8:15:00 AM 22.08 71.744 0.104 7.15 12.44 8.28
6/29/2021 8:30:00 AM 22.08 71.744 0.105 7.16 5.43 8.33
6/29/2021 8:45:00 AM 22.08 71.744 0.104 7.18 15.18 8.4
6/29/2021 9:00:00 AM 22.11 71.798 0.105 7.2 5.4 8.46
6/29/2021 9:15:00 AM 22.14 71.852 0.105 7.22 4.59 8.52
6/29/2021 9:30:00 AM 22.19 71.942 0.105 7.25 12.03 8.6
6/29/2021 9:45:00 AM 22.25 72.05 0.105 7.28 10.62 8.68
6/29/2021 10:00:00 AM 22.33 72.194 0.102 7.31 11.43 8.76
6/29/2021 10:15:00 AM 22.42 72.356 0.104 7.36 5.75 8.8
6/29/2021 10:30:00 AM 22.53 72.554 0.104 7.38 11.09 8.91
6/29/2021 10:45:00 AM 22.65 72.77 0.104 7.43 5.19 9.01
6/29/2021 11:00:00 AM 22.8 73.04 0.104 7.47 12.73 9.06
6/29/2021 11:15:00 AM 22.96 73.328 0.104 7.5 5.06 9.11
6/29/2021 11:30:00 AM 23.11 73.598 0.104 7.54 12.15 9.14
6/29/2021 11:45:00 AM 23.29 73.922 0.104 7.55 11.14 9.15
6/29/2021 12:00:00 PM 23.49 74.282 0.104 7.6 10.94 9.23
6/29/2021 12:15:00 PM 23.68 74.624 0.104 7.64 5.72 9.24
6/29/2021 12:30:00 PM 23.9 75.02 0.104 7.66 5.23 9.29
6/29/2021 12:45:00 PM 24.15 75.47 0.103 7.72 10.73 9.35
6/29/2021 1:00:00 PM 24.36 75.848 0.072 7.76 10.24 9.37
6/29/2021 1:15:00 PM 24.49 76.082 0.055 7.8 11.32 9.35
6/29/2021 1:30:00 PM 24.68 76.424 0.103 7.82 11.9 9.32
6/29/2021 1:45:00 PM 24.95 76.91 0.103 7.86 4.97 9.32
6/29/2021 2:00:00 PM 25.22 77.396 0.103 7.9 5.07 9.33
6/29/2021 2:15:00 PM 25.5 77.9 0.102 7.95 12.45 9.31
6/29/2021 2:30:00 PM 25.75 78.35 0.102 7.97 5.16 9.27
6/29/2021 2:45:00 PM 26.01 78.818 0.102 8.01 15.52 9.23
6/29/2021 3:00:00 PM 26.23 79.214 0.102 8.03 4.93 9.17
6/29/2021 3:15:00 PM 26.46 79.628 0.102 8.06 4.95 9.1
6/29/2021 3:30:00 PM 26.68 80.024 0.102 8.07 10.85 9.05
6/29/2021 3:45:00 PM 26.89 80.402 0.102 8.09 11.25 8.98
6/29/2021 4:00:00 PM 27.07 80.726 0.102 8.1 5.07 8.9
6/29/2021 4:15:00 PM 27.2 80.96 0.102 8.09 12.32 8.81
6/29/2021 4:30:00 PM 27.29 81.122 0.102 8.08 12.9 8.72
6/29/2021 4:45:00 PM 27.32 81.176 0.102 8.06 4.97 8.6
6/29/2021 5:00:00 PM 27.35 81.23 0.101 8.03 2.71 8.55
6/29/2021 5:15:00 PM 27.34 81.212 0.102 8 5.27 8.47
6/29/2021 5:30:00 PM 27.31 81.158 0.102 7.96 5.23 8.4
6/29/2021 5:45:00 PM 27.28 81.104 0.102 7.91 14.11 8.31
6/29/2021 6:00:00 PM 27.24 81.032 0.102 7.86 33.47 8.22
6/29/2021 6:15:00 PM 27.18 80.924 0.103 7.79 5.18 8.1
6/29/2021 6:30:00 PM 27.12 80.816 0.102 7.75 6.42 8.02
6/29/2021 6:45:00 PM 27.05 80.69 0.103 7.7 5.34 7.95
6/29/2021 7:00:00 PM 26.99 80.582 0.103 7.66 5.58 7.84
6/29/2021 7:15:00 PM 26.93 80.474 0.103 7.61 5.39 7.79
6/29/2021 7:30:00 PM 26.88 80.384 0.103 7.57 270.24 7.76
6/29/2021 7:45:00 PM 26.81 80.258 0.07 7.53 15.85 7.66
6/29/2021 8:00:00 PM 26.75 80.15 0.068 7.48 17.79 7.56
6/29/2021 8:15:00 PM 26.7 80.06 0.068 7.45 21.17 7.48
6/29/2021 8:30:00 PM 26.64 79.952 0.052 7.41 6.51 7.42
6/29/2021 8:45:00 PM 26.58 79.844 0.103 7.38 5.04 7.37
6/29/2021 9:00:00 PM 26.52 79.736 0.103 7.35 5.53 7.33
6/29/2021 9:15:00 PM 26.45 79.61 0.103 7.33 5.38 7.26
6/29/2021 9:30:00 PM 26.38 79.484 0.098 7.3 2.24 7.24
6/29/2021 9:45:00 PM 26.3 79.34 0.103 7.28 10.47 7.2
6/29/2021 10:00:00 PM 26.19 79.142 0.103 7.26 10.87 7.19
6/29/2021 10:15:00 PM 26.03 78.854 0.103 7.26 5.47 7.17
6/29/2021 10:30:00 PM 25.89 78.602 0.103 7.25 5.49 7.17
6/29/2021 10:45:00 PM 25.79 78.422 0.104 7.24 5.83 7.15
6/29/2021 11:00:00 PM 25.7 78.26 0.104 7.22 5.7 7.11
6/29/2021 11:15:00 PM 25.6 78.08 0.061 7.21 12.3 7.15
6/29/2021 11:30:00 PM 25.5 77.9 0.104 7.2 5.75 7.11
6/29/2021 11:45:00 PM 25.38 77.684 0.104 7.19 5.68 7.17
6/30/2021 12:00:00 AM 25.27 77.486 0.104 7.19 5.5 7.18
6/30/2021 12:15:00 AM 25.16 77.288 0.104 7.19 5.69 7.2
6/30/2021 12:30:00 AM 25.04 77.07201 0.104 7.18 5.24 7.17
6/30/2021 12:45:00 AM 24.93 76.874 0.104 7.16 5.89 7.19
6/30/2021 1:00:00 AM 24.82 76.676 0.104 7.16 6.01 7.23
6/30/2021 1:15:00 AM 24.72 76.496 0.105 7.15 5.87 7.19
6/30/2021 1:30:00 AM 24.62 76.316 0.105 7.14 4.8 7.25
6/30/2021 1:45:00 AM 24.51 76.118 0.105 7.14 27.45 7.24
6/30/2021 2:00:00 AM 24.42 75.956 0.105 7.12 5.16 7.26
6/30/2021 2:15:00 AM 24.31 75.758 0.105 7.12 5.8 7.3
6/30/2021 2:30:00 AM 24.22 75.596 0.075 7.11 6.13 7.32
6/30/2021 2:45:00 AM 24.13 75.434 0.102 7.1 5.53 7.37
6/30/2021 3:00:00 AM 24.04 75.272 0.103 7.1 5.34 7.4
6/30/2021 3:15:00 AM 23.95 75.11 0.103 7.1 4.78 7.42
6/30/2021 3:30:00 AM 23.87 74.966 0.104 7.09 5.88 7.44
6/30/2021 3:45:00 AM 23.8 74.84 0.104 7.09 5.52 7.44
6/30/2021 4:00:00 AM 23.72 74.696 0.104 7.08 5.59 7.49
6/30/2021 4:15:00 AM 23.65 74.57 0.104 7.09 5.9 7.51
6/30/2021 4:30:00 AM 23.58 74.444 0.104 7.08 5.38 7.53
6/30/2021 4:45:00 AM 23.51 74.318 0.104 7.08 6.18 7.56
6/30/2021 5:00:00 AM 23.43 74.174 0.104 7.09 6.42 7.53
6/30/2021 5:15:00 AM 23.37 74.066 0.104 7.08 6.34 7.59
6/30/2021 5:30:00 AM 23.3 73.94 0.104 7.09 6.36 7.58
6/30/2021 5:45:00 AM 23.23 73.814 0.104 7.08 5.67 7.62
6/30/2021 6:00:00 AM 23.17 73.706 0.104 7.09 6.19 7.65
6/30/2021 6:15:00 AM 23.11 73.598 0.104 7.1 6.54 7.61
6/30/2021 6:30:00 AM 23.04 73.472 0.104 7.1 6.02 7.7
6/30/2021 6:45:00 AM 22.99 73.382 0.104 7.1 6.44 7.72
6/30/2021 7:00:00 AM 22.93 73.274 0.104 7.12 5.95 7.78
6/30/2021 7:15:00 AM 22.88 73.184 0.104 7.12 12.84 7.83
6/30/2021 7:30:00 AM 22.84 73.112 0.104 7.14 5.87 7.89
6/30/2021 7:45:00 AM 22.8 73.04 0.104 7.15 6.33 7.97
6/30/2021 8:00:00 AM 22.77 72.986 0.104 7.16 6.25 8.01
6/30/2021 8:15:00 AM 22.74 72.932 0.104 7.18 5.76 8.09
6/30/2021 8:30:00 AM 22.73 72.914 0.104 7.21 11.8 8.14
6/30/2021 8:45:00 AM 22.73 72.914 0.104 7.22 6.41 8.23
6/30/2021 9:00:00 AM 22.73 72.914 0.104 7.23 12.09 8.27
6/30/2021 9:15:00 AM 22.74 72.932 0.104 7.25 14.28 8.32
6/30/2021 9:30:00 AM 22.77 72.986 0.096 7.29 5.47 8.41
6/30/2021 9:45:00 AM 22.82 73.076 0.085 7.31 27.14 8.49
6/30/2021 10:00:00 AM 22.88 73.184 0.095 7.34 5.77 8.56
6/30/2021 10:15:00 AM 22.96 73.328 0.103 7.37 5.84 8.64
6/30/2021 10:30:00 AM 23.05 73.49 0.103 7.41 5.77 8.66
6/30/2021 10:45:00 AM 23.18 73.724 0.103 7.44 4.75 8.75
6/30/2021 11:00:00 AM 23.32 73.976 0.103 7.49 66.52 8.84
6/30/2021 11:15:00 AM 23.48 74.264 0.102 7.52 11.4 8.9
6/30/2021 11:30:00 AM 23.63 74.534 0.102 7.57 5.71 8.88
6/30/2021 11:45:00 AM 23.78 74.804 0.102 7.59 12.49 9
6/30/2021 12:00:00 PM 23.96 75.128 0.102 7.62 13.05 9.04
6/30/2021 12:15:00 PM 24.16 75.488 0.102 7.67 14.58 9.11
6/30/2021 12:30:00 PM 24.37 75.866 0.101 7.71 6.88 9.13
6/30/2021 12:45:00 PM 24.42 75.956 0.102 7.71 5.37 9.11
6/30/2021 1:00:00 PM 24.45 76.01 0.102 7.71 14.68 9.02
6/30/2021 1:15:00 PM 24.46 76.028 0.102 7.7 53.88 8.94
6/30/2021 1:30:00 PM 24.48 76.064 0.102 7.67 6.1 8.78
6/30/2021 1:45:00 PM 24.8 76.64 0.102 7.68 5.11 8.83
6/30/2021 2:00:00 PM 25.11 77.198 0.101 7.71 14.78 8.91
6/30/2021 2:15:00 PM 25.42 77.756 0.099 7.76 5.3 8.94
6/30/2021 2:30:00 PM 25.59 78.062 0.101 7.8 15.47 8.9
6/30/2021 2:45:00 PM 25.6 78.08 0.101 7.79 5.56 8.75
6/30/2021 3:00:00 PM 25.65 78.17 0.097 7.76 2.36 8.66
6/30/2021 3:15:00 PM 25.75 78.35 0.101 7.75 5.42 8.58
6/30/2021 3:30:00 PM 25.8 78.44 0.101 7.73 11.11 8.49
6/30/2021 3:45:00 PM 25.82 78.476 0.066 7.69 7.82 8.36
6/30/2021 4:00:00 PM 25.82 78.476 0.098 7.64 5.6 8.15
6/30/2021 4:15:00 PM 25.79 78.422 0.102 7.59 13.44 8.07
6/30/2021 4:30:00 PM 25.76 78.368 0.092 7.57 5.22 7.97
6/30/2021 4:45:00 PM 25.74 78.332 0.102 7.53 5.61 7.92
6/30/2021 5:00:00 PM 25.73 78.314 0.102 7.52 5.63 7.88
6/30/2021 5:15:00 PM 25.71 78.278 0.07 7.49 11.84 7.78
6/30/2021 5:30:00 PM 25.68 78.224 0.102 7.47 5.4 7.74
6/30/2021 5:45:00 PM 25.62 78.116 0.102 7.44 5.68 7.69
6/30/2021 6:00:00 PM 25.54 77.972 0.102 7.43 5.86 7.68
6/30/2021 6:15:00 PM 25.44 77.792 0.102 7.4 5.42 7.63
6/30/2021 6:30:00 PM 25.36 77.648 0.102 7.39 7.87 7.61
6/30/2021 6:45:00 PM 25.25 77.45 0.102 7.37 12.24 7.61
6/30/2021 7:00:00 PM 25.14 77.252 0.103 7.35 5.63 7.61
6/30/2021 7:15:00 PM 25.02 77.036 0.099 7.35 5.26 7.63
6/30/2021 7:30:00 PM 24.9 76.82 0.103 7.34 5.35 7.67
6/30/2021 7:45:00 PM 24.78 76.604 0.103 7.33 13.69 7.69
6/30/2021 8:00:00 PM 24.67 76.406 0.103 7.32 5.67 7.69
6/30/2021 8:15:00 PM 24.55 76.19 0.103 7.32 6.03 7.67
6/30/2021 8:30:00 PM 24.43 75.974 0.081 7.3 28.26 7.63
6/30/2021 8:45:00 PM 24.31 75.758 0.103 7.28 5.81 7.61
6/30/2021 9:00:00 PM 24.21 75.578 0.103 7.26 5.9 7.63
6/30/2021 9:15:00 PM 24.11 75.398 0.104 7.24 6.3 7.63
6/30/2021 9:30:00 PM 24.02 75.236 0.104 7.23 5.69 7.61
6/30/2021 9:45:00 PM 23.92 75.056 0.104 7.22 6.27 7.62
6/30/2021 10:00:00 PM 23.84 74.912 0.104 7.21 5.47 7.63
6/30/2021 10:15:00 PM 23.75 74.75 0.104 7.2 6.09 7.63
6/30/2021 10:30:00 PM 23.68 74.624 0.104 7.19 6 7.63
6/30/2021 10:45:00 PM 23.58 74.444 0.104 7.18 5.77 7.64
6/30/2021 11:00:00 PM 23.5 74.3 0.104 7.17 5.83 7.64
6/30/2021 11:15:00 PM 23.43 74.174 0.104 7.17 5.91 7.62
6/30/2021 11:30:00 PM 23.35 74.03 0.104 7.17 5.69 7.64
6/30/2021 11:45:00 PM 23.28 73.904 0.104 7.15 6.78 7.64
7/1/2021 12:00:00 AM 23.21 73.778 0.104 7.16 5.46 7.64
7/1/2021 12:15:00 AM 23.14 73.652 0.104 7.16 6.46 7.66
7/1/2021 12:30:00 AM 23.08 73.544 0.104 7.15 5.95 7.67
7/1/2021 12:45:00 AM 23.01 73.418 0.104 7.15 6.23 7.67
7/1/2021 1:00:00 AM 22.95 73.31 0.104 7.15 5.03 7.68
7/1/2021 1:15:00 AM 22.89 73.202 0.104 7.15 5.79 7.69
7/1/2021 1:30:00 AM 22.82 73.076 0.104 7.14 5.71 7.71
7/1/2021 1:45:00 AM 22.76 72.968 0.104 7.15 6.95 7.71
7/1/2021 2:00:00 AM 22.71 72.878 0.104 7.15 5.44 7.71
7/1/2021 2:15:00 AM 22.65 72.77 0.104 7.14 7.03 7.75
7/1/2021 2:30:00 AM 22.59 72.662 0.104 7.14 5.98 7.76
7/1/2021 2:45:00 AM 22.54 72.57201 0.104 7.14 5.73 7.77
7/1/2021 3:00:00 AM 22.49 72.482 0.104 7.14 6.32 7.78
7/1/2021 3:15:00 AM 22.44 72.392 0.104 7.13 6.15 7.79
7/1/2021 3:30:00 AM 22.39 72.302 0.104 7.14 5.9 7.7
7/1/2021 3:45:00 AM 22.35 72.23 0.104 7.14 6.57 7.79
7/1/2021 4:00:00 AM 22.3 72.14 0.104 7.13 5.95 7.83
7/1/2021 4:15:00 AM 22.25 72.05 0.104 7.15 5.84 7.83
7/1/2021 4:30:00 AM 22.21 71.978 0.104 7.15 6.47 7.84
7/1/2021 4:45:00 AM 22.16 71.888 0.104 7.15 6.09 7.85
7/1/2021 5:00:00 AM 22.12 71.816 0.104 7.15 6.11 7.87
7/1/2021 5:15:00 AM 22.07 71.726 0.104 7.16 6.4 7.87
7/1/2021 5:30:00 AM 22.03 71.654 0.104 7.15 6.45 7.88
7/1/2021 5:45:00 AM 21.99 71.582 0.104 7.15 6.52 7.89
7/1/2021 6:00:00 AM 21.95 71.51 0.104 7.15 6.2 7.89
7/1/2021 6:15:00 AM 21.9 71.42 0.104 7.14 6.26 7.89
7/1/2021 6:30:00 AM 21.86 71.348 0.103 7.15 6.27 7.93
7/1/2021 6:45:00 AM 21.82 71.276 0.103 7.16 6.24 7.94
7/1/2021 7:00:00 AM 21.79 71.222 0.103 7.16 6.21 7.95
7/1/2021 7:15:00 AM 21.76 71.168 0.103 7.17 6.39 8.01
7/1/2021 7:30:00 AM 21.73 71.114 0.103 7.17 5.9 7.99
7/1/2021 7:45:00 AM 21.69 71.042 0.103 7.17 6.26 7.99
7/1/2021 8:00:00 AM 21.66 70.988 0.103 7.18 5.94 8.05
7/1/2021 8:15:00 AM 21.64 70.952 0.103 7.19 6.23 8.12
7/1/2021 8:30:00 AM 21.61 70.898 0.103 7.18 19.38 8.15
7/1/2021 8:45:00 AM 21.58 70.844 0.103 7.19 23.94 8.16
7/1/2021 9:00:00 AM 21.56 70.808 0.103 7.2 6.08 8.12
7/1/2021 9:15:00 AM 21.53 70.754 0.103 7.2 1289.59 8.19
7/1/2021 9:30:00 AM 21.51 70.718 0.102 7.21 5.75 8.23
7/1/2021 9:45:00 AM 21.49 70.682 0.102 7.21 5.79 8.27
7/1/2021 10:00:00 AM 21.48 70.664 0.102 7.22 5.59 8.31
7/1/2021 10:15:00 AM 21.48 70.664 0.102 7.24 5.75 8.4
7/1/2021 10:30:00 AM 21.53 70.754 0.102 7.26 10.21 8.53
7/1/2021 10:45:00 AM 21.54 70.772 0.102 7.29 5.67 8.61
7/1/2021 11:00:00 AM 21.53 70.754 0.102 7.3 5.83 8.63
7/1/2021 11:15:00 AM 21.54 70.772 0.102 7.31 5.61 8.66
7/1/2021 11:30:00 AM 21.55 70.79 0.102 7.34 5.84 8.69
7/1/2021 11:45:00 AM 21.56 70.808 0.101 7.34 6.28 8.72
7/1/2021 12:00:00 PM 21.57 70.826 0.101 7.36 2.83 8.78
7/1/2021 12:15:00 PM 21.58 70.844 0.059 7.38 5.48 8.77
7/1/2021 12:30:00 PM 21.58 70.844 0.06 7.39 6.06 8.77
7/1/2021 12:45:00 PM 21.61 70.898 0.101 7.39 6.11 8.85
7/1/2021 1:00:00 PM 21.64 70.952 0.101 7.43 5.3 8.83
7/1/2021 1:15:00 PM 21.67 71.006 0.101 7.46 5.19 8.9
7/1/2021 1:30:00 PM 21.68 71.024 0.101 7.47 5.57 8.85
7/1/2021 1:45:00 PM 21.66 70.988 0.1 7.46 6.09 8.83
7/1/2021 2:00:00 PM 21.66 70.988 0.098 7.43 16.66 8.78
7/1/2021 2:15:00 PM 21.66 70.988 0.099 7.42 17.46 8.73
7/1/2021 2:30:00 PM 21.67 71.006 0.1 7.4 6.21 8.7
7/1/2021 2:45:00 PM 21.69 71.042 0.1 7.41 16.51 8.7
7/1/2021 3:00:00 PM 21.71 71.078 0.1 7.43 17.09 8.78
7/1/2021 3:15:00 PM 21.76 71.168 0.1 7.45 6.4 8.84
7/1/2021 3:30:00 PM 21.78 71.204 0.1 7.47 191.92 8.85
7/1/2021 3:45:00 PM 21.8 71.24 0.099 7.48 7.73 8.85
7/1/2021 4:00:00 PM 21.82 71.276 0.099 7.48 7.36 8.87
7/1/2021 4:15:00 PM 21.85 71.33 0.098 7.5 18.3 8.92
7/1/2021 4:30:00 PM 21.87 71.366 0.099 7.53 13.95 8.96
7/1/2021 4:45:00 PM 21.87 71.366 0.1 7.53 22.45 8.92
7/1/2021 5:00:00 PM 21.86 71.348 0.1 7.52 12.74 8.87
7/1/2021 5:15:00 PM 21.85 71.33 0.096 7.51 16.29 8.8
7/1/2021 5:30:00 PM 21.84 71.312 0.101 7.52 13.75 8.81
7/1/2021 5:45:00 PM 21.83 71.294 0.044 7.52 15.26 8.8
7/1/2021 6:00:00 PM 21.82 71.276 0.101 7.53 12.18 8.78
7/1/2021 6:15:00 PM 21.82 71.276 0.101 7.53 13.07 8.75
7/1/2021 6:30:00 PM 21.8 71.24 0.101 7.53 12.07 8.7
7/1/2021 6:45:00 PM 21.78 71.204 0.101 7.5 14.19 8.65
7/1/2021 7:00:00 PM 21.75 71.15 0.098 7.5 14.72 8.6
7/1/2021 7:15:00 PM 21.71 71.078 0.101 7.48 14.83 8.56
7/1/2021 7:30:00 PM 21.67 71.006 0.101 7.45 13.13 8.53
7/1/2021 7:45:00 PM 21.62 70.916 0.102 7.43 12.08 8.51
7/1/2021 8:00:00 PM 21.56 70.808 0.103 7.42 14.5 8.47
7/1/2021 8:15:00 PM 21.5 70.7 0.104 7.4 14.36 8.44
7/1/2021 8:30:00 PM 21.44 70.592 0.105 7.38 13.82 8.42
7/1/2021 8:45:00 PM 21.37 70.466 0.104 7.37 36.97 8.4
7/1/2021 9:00:00 PM 21.31 70.358 0.078 7.37 13.53 8.39
7/1/2021 9:15:00 PM 21.24 70.232 0.109 7.36 14.54 8.36
7/1/2021 9:30:00 PM 21.18 70.124 0.11 7.35 14.94 8.36
7/1/2021 9:45:00 PM 21.12 70.016 0.11 7.36 42.17 8.35
7/1/2021 10:00:00 PM 21.07 69.926 0.108 7.35 1.3 8.35
7/1/2021 10:15:00 PM 21.01 69.818 0.055 7.34 13.67 8.35
7/1/2021 10:30:00 PM 20.96 69.728 0.11 7.33 14.15 8.32
7/1/2021 10:45:00 PM 20.9 69.62 0.111 7.32 13.35 8.34
7/1/2021 11:00:00 PM 20.85 69.53 0.111 7.32 13.5 8.32
7/1/2021 11:15:00 PM 20.79 69.422 0.112 7.3 16.78 8.35
7/1/2021 11:30:00 PM 20.74 69.332 0.113 7.3 491.57 8.31
7/1/2021 11:45:00 PM 20.69 69.242 0.065 7.29 16.97 8.32
7/2/2021 12:00:00 AM 20.63 69.134 0.064 7.3 16.15 8.32
7/2/2021 12:15:00 AM 20.57 69.026 0.115 7.29 16.1 8.3
7/2/2021 12:30:00 AM 20.52 68.936 0.115 7.28 15.47 8.32
7/2/2021 12:45:00 AM 20.46 68.828 0.115 7.28 548.99 8.37
7/2/2021 1:00:00 AM 20.4 68.72 0.114 7.27 1.18 8.37
7/2/2021 1:15:00 AM 20.35 68.63 0.113 7.27 13.64 8.38
7/2/2021 1:30:00 AM 20.3 68.54 0.112 7.26 13.54 8.41
7/2/2021 1:45:00 AM 20.25 68.45 0.061 7.26 15.64 8.41
7/2/2021 2:00:00 AM 20.19 68.342 0.108 7.25 17.91 8.41
7/2/2021 2:15:00 AM 20.14 68.252 0.11 7.25 12.42 8.42
7/2/2021 2:30:00 AM 20.09 68.162 0.11 7.24 11.19 8.43
7/2/2021 2:45:00 AM 20.06 68.108 0.109 7.24 11.91 8.41
7/2/2021 3:00:00 AM 20 68 0.109 7.24 11.16 8.43
7/2/2021 3:15:00 AM 19.95 67.91 0.108 7.23 9.96 8.44
7/2/2021 3:30:00 AM 19.9 67.82 0.108 7.24 9.8 8.41
7/2/2021 3:45:00 AM 19.86 67.748 0.107 7.22 12.51 8.46
7/2/2021 4:00:00 AM 19.81 67.658 0.107 7.23 9.73 8.48
7/2/2021 4:15:00 AM 19.76 67.568 0.107 7.23 9.89 8.45
7/2/2021 4:30:00 AM 19.71 67.478 0.108 7.23 20.75 8.47
7/2/2021 4:45:00 AM 19.67 67.406 0.108 7.23 18.26 8.48
7/2/2021 5:00:00 AM 19.62 67.316 0.108 7.22 10.82 8.48
7/2/2021 5:15:00 AM 19.57 67.226 0.107 7.23 3.05 8.49
7/2/2021 5:30:00 AM 19.52 67.136 0.108 7.22 10.2 8.46
7/2/2021 5:45:00 AM 19.47 67.046 0.109 7.21 12.01 8.53
7/2/2021 6:00:00 AM 19.42 66.956 0.108 7.21 33.01 8.52
7/2/2021 6:15:00 AM 19.38 66.884 0.065 7.22 10.93 8.54
7/2/2021 6:30:00 AM 19.34 66.812 0.11 7.21 9.49 8.57
7/2/2021 6:45:00 AM 19.3 66.74 0.11 7.23 9.52 8.59
7/2/2021 7:00:00 AM 19.27 66.686 0.111 7.23 9.78 8.64
7/2/2021 7:15:00 AM 19.25 66.65 0.111 7.23 8.48 8.62
7/2/2021 7:30:00 AM 19.23 66.614 0.111 7.23 8.83 8.68
7/2/2021 7:45:00 AM 19.22 66.596 0.112 7.26 8.27 8.76
7/2/2021 8:00:00 AM 19.21 66.578 0.112 7.27 8.8 8.78
7/2/2021 8:15:00 AM 19.19 66.542 0.112 7.29 7.99 8.8
7/2/2021 8:30:00 AM 19.19 66.542 0.112 7.3 7.86 8.83
7/2/2021 8:45:00 AM 19.19 66.542 0.11 7.3 11.04 8.91
7/2/2021 9:00:00 AM 19.24 66.632 0.113 7.32 9.3 8.98
7/2/2021 9:15:00 AM 19.27 66.686 0.113 7.34 8.65 9.05
7/2/2021 9:30:00 AM 19.31 66.758 0.113 7.38 8.31 9.09
7/2/2021 9:45:00 AM 19.35 66.83 0.113 7.4 8.03 9.16
7/2/2021 10:00:00 AM 19.41 66.938 0.113 7.41 8.8 9.22
7/2/2021 10:15:00 AM 19.37 66.866 0.112 7.42 8.77 9.21
7/2/2021 10:30:00 AM 19.46 67.028 0.112 7.46 9.62 9.28
7/2/2021 10:45:00 AM 19.5 67.1 0.112 7.48 10.58 9.31
7/2/2021 11:00:00 AM 19.48 67.064 0.112 7.47 10.75 9.27
7/2/2021 11:15:00 AM 19.62 67.316 0.102 7.48 11.97 9.31
7/2/2021 11:30:00 AM 19.82 67.676 0.112 7.52 11.82 9.42
7/2/2021 11:45:00 AM 19.98 67.964 0.112 7.55 12.46 9.47
7/2/2021 12:00:00 PM 20.09 68.162 0.112 7.57 12.09 9.49
7/2/2021 12:15:00 PM 20.13 68.234 0.112 7.58 12.63 9.49
7/2/2021 12:30:00 PM 20.05 68.09 0.112 7.59 591.49 9.43
7/2/2021 12:45:00 PM 20.05 68.09 0.112 7.57 13.57 9.41
7/2/2021 1:00:00 PM 20.14 68.252 0.111 7.59 12.67 9.42
7/2/2021 1:15:00 PM 20.23 68.414 0.111 7.61 13.06 9.42
7/2/2021 1:30:00 PM 20.35 68.63 0.111 7.64 17.17 9.47
7/2/2021 1:45:00 PM 20.6 69.08 0.111 7.66 12.05 9.5
7/2/2021 2:00:00 PM 20.9 69.62 0.111 7.7 12.14 9.55
7/2/2021 2:15:00 PM 21.16 70.088 0.111 7.76 12.4 9.55
7/2/2021 2:30:00 PM 21.35 70.43 0.111 7.77 10.78 9.55
7/2/2021 2:45:00 PM 21.51 70.718 0.111 7.8 10.09 9.55
7/2/2021 3:00:00 PM 21.5 70.7 0.111 7.8 8.84 9.48
7/2/2021 3:15:00 PM 21.61 70.898 0.111 7.8 9.45 9.44
7/2/2021 3:30:00 PM 21.73 71.114 0.062 7.83 9.83 9.45
7/2/2021 3:45:00 PM 21.85 71.33 0.111 7.83 15.59 9.44
7/2/2021 4:00:00 PM 22.02 71.636 0.111 7.82 8.29 9.38
7/2/2021 4:15:00 PM 22.11 71.798 0.111 7.85 8.74 9.34
7/2/2021 4:30:00 PM 22.22 71.996 0.11 7.86 8.46 9.32
7/2/2021 4:45:00 PM 22.35 72.23 0.11 7.89 8.28 9.31
7/2/2021 5:00:00 PM 22.36 72.248 0.11 7.9 8.08 9.25
7/2/2021 5:15:00 PM 22.39 72.302 0.11 7.88 7.95 9.17
7/2/2021 5:30:00 PM 22.36 72.248 0.109 7.86 23.49 9.1
7/2/2021 5:45:00 PM 22.38 72.284 0.11 7.85 8.69 9.07
7/2/2021 6:00:00 PM 22.36 72.248 0.11 7.83 7.61 9
7/2/2021 6:15:00 PM 22.32 72.176 0.11 7.78 6.96 8.9
7/2/2021 6:30:00 PM 22.29 72.122 0.109 7.77 25.35 8.88
7/2/2021 6:45:00 PM 22.23 72.014 0.11 7.74 294.93 8.79
7/2/2021 7:00:00 PM 22.14 71.852 0.073 7.7 7.18 8.69
7/2/2021 7:15:00 PM 22.06 71.708 0.11 7.65 7.47 8.63
7/2/2021 7:30:00 PM 21.99 71.582 0.11 7.63 33.79 8.53
7/2/2021 7:45:00 PM 21.93 71.474 0.11 7.59 6.9 8.52
7/2/2021 8:00:00 PM 21.87 71.366 0.11 7.56 83.62 8.45
7/2/2021 8:15:00 PM 21.81 71.258 0.11 7.53 7.36 8.41
7/2/2021 8:30:00 PM 21.74 71.132 0.11 7.51 16.98 8.36
7/2/2021 8:45:00 PM 21.66 70.988 0.11 7.48 6.81 8.29
7/2/2021 9:00:00 PM 21.59 70.862 0.11 7.45 7.71 8.27
7/2/2021 9:15:00 PM 21.5 70.7 0.11 7.43 7.39 8.24
7/2/2021 9:30:00 PM 21.41 70.538 0.111 7.42 7.39 8.22
7/2/2021 9:45:00 PM 21.31 70.358 0.111 7.4 8.13 8.21
7/2/2021 10:00:00 PM 21.22 70.196 0.11 7.38 18.77 8.2
7/2/2021 10:15:00 PM 21.13 70.034 0.111 7.35 7.59 8.18
7/2/2021 10:30:00 PM 21.03 69.854 0.111 7.34 7.96 8.17
7/2/2021 10:45:00 PM 20.92 69.656 0.111 7.34 774.48 8.18
7/2/2021 11:00:00 PM 20.8 69.44 0.111 7.32 8.4 8.19
7/2/2021 11:15:00 PM 20.67 69.206 0.111 7.31 7.99 8.21
7/2/2021 11:30:00 PM 20.56 69.008 0.111 7.29 7.58 8.21
7/2/2021 11:45:00 PM 20.44 68.792 0.111 7.28 7.62 8.23
7/3/2021 12:00:00 AM 20.32 68.576 0.111 7.27 7.04 8.23
7/3/2021 12:15:00 AM 20.21 68.378 0.111 7.26 821.49 8.25
7/3/2021 12:30:00 AM 20.09 68.162 0.111 7.25 7.2 8.28
7/3/2021 12:45:00 AM 19.99 67.982 0.111 7.24 6.59 8.31
7/3/2021 1:00:00 AM 19.9 67.82 0.047 7.24 7.01 8.32
7/3/2021 1:15:00 AM 19.8 67.64 0.112 7.21 18.71 8.32
7/3/2021 1:30:00 AM 19.7 67.46 0.111 7.21 7.28 8.34
7/3/2021 1:45:00 AM 19.59 67.262 0.111 7.2 6.92 8.38
7/3/2021 2:00:00 AM 19.5 67.1 0.111 7.19 6.26 8.37
7/3/2021 2:15:00 AM 19.41 66.938 0.063 7.19 8.21 8.41
7/3/2021 2:30:00 AM 19.32 66.776 0.112 7.18 1.59 8.43
7/3/2021 2:45:00 AM 19.24 66.632 0.111 7.18 6.95 8.44
7/3/2021 3:00:00 AM 19.17 66.506 0.112 7.17 15.58 8.46
7/3/2021 3:15:00 AM 19.11 66.398 0.059 7.18 6.07 8.49
7/3/2021 3:30:00 AM 19.06 66.308 0.096 7.18 6.95 8.5
7/3/2021 3:45:00 AM 19 66.2 0.112 7.18 6.68 8.51
7/3/2021 4:00:00 AM 18.94 66.092 0.112 7.18 6.93 8.51
7/3/2021 4:15:00 AM 18.87 65.966 0.112 7.18 7.17 8.53
7/3/2021 4:30:00 AM 18.81 65.858 0.084 7.18 23.03 8.57
7/3/2021 4:45:00 AM 18.74 65.732 0.112 7.18 6.62 8.57
7/3/2021 5:00:00 AM 18.68 65.624 0.112 7.18 6.34 8.59
7/3/2021 5:15:00 AM 18.63 65.534 0.111 7.19 18.37 8.59
7/3/2021 5:30:00 AM 18.57 65.426 0.109 7.19 7.63 8.62
7/3/2021 5:45:00 AM 18.52 65.336 0.112 7.19 6.57 8.63
7/3/2021 6:00:00 AM 18.46 65.228 0.112 7.19 6.69 8.65
7/3/2021 6:15:00 AM 18.42 65.156 0.06 7.2 18.05 8.67
7/3/2021 6:30:00 AM 18.37 65.066 0.112 7.2 6.71 8.69
7/3/2021 6:45:00 AM 18.33 64.994 0.112 7.21 6.65 8.74
7/3/2021 7:00:00 AM 18.29 64.922 0.112 7.21 5.71 8.73
7/3/2021 7:15:00 AM 18.25 64.85 0.112 7.22 5.97 8.77
7/3/2021 7:30:00 AM 18.23 64.814 0.092 7.24 16.82 8.84
7/3/2021 7:45:00 AM 18.21 64.778 0.112 7.25 6.01 8.89
7/3/2021 8:00:00 AM 18.19 64.742 0.112 7.26 24.83 8.96
7/3/2021 8:15:00 AM 18.18 64.724 0.112 7.27 18.42 9.02
7/3/2021 8:30:00 AM 18.17 64.706 0.112 7.3 5.86 9.04
7/3/2021 8:45:00 AM 18.17 64.706 0.112 7.3 5.76 9.13
7/3/2021 9:00:00 AM 18.16 64.688 0.112 7.33 5.72 9.19
7/3/2021 9:15:00 AM 18.21 64.778 0.11 7.35 17.2 9.29
7/3/2021 9:30:00 AM 18.21 64.778 0.112 7.37 5.93 9.32
7/3/2021 9:45:00 AM 18.19 64.742 0.06 7.38 16.33 9.35
7/3/2021 10:00:00 AM 18.21 64.778 0.111 7.4 6.05 9.4
7/3/2021 10:15:00 AM 18.21 64.778 0.111 7.41 5.36 9.42
7/3/2021 10:30:00 AM 18.23 64.814 0.111 7.42 4.8 9.46
7/3/2021 10:45:00 AM 18.24 64.832 0.111 7.43 5.17 9.45
7/3/2021 11:00:00 AM 18.28 64.904 0.111 7.45 4.98 9.51
7/3/2021 11:15:00 AM 18.32 64.976 0.111 7.47 5.11 9.57
7/3/2021 11:30:00 AM 18.35 65.03 0.11 7.5 4.87 9.63
7/3/2021 11:45:00 AM 18.41 65.138 0.11 7.52 6.33 9.68
7/3/2021 12:00:00 PM 18.46 65.228 0.11 7.54 15.35 9.72
7/3/2021 12:15:00 PM 18.56 65.408 0.11 7.57 8.05 9.79
7/3/2021 12:30:00 PM 18.67 65.606 0.11 7.61 5.06 9.86
7/3/2021 12:45:00 PM 18.84 65.912 0.11 7.64 5.54 9.91
7/3/2021 1:00:00 PM 18.98 66.164 0.097 7.69 17.34 9.95
7/3/2021 1:15:00 PM 18.99 66.182 0.11 7.7 104.19 9.93
7/3/2021 1:30:00 PM 19.05 66.29 0.109 7.73 5.01 9.94
7/3/2021 1:45:00 PM 19.26 66.668 0.109 7.75 5.2 9.99
7/3/2021 2:00:00 PM 19.31 66.758 0.109 7.79 4.96 9.98
7/3/2021 2:15:00 PM 19.41 66.938 0.109 7.8 14.68 9.96
7/3/2021 2:30:00 PM 19.45 67.01 0.109 7.79 4.84 9.85
7/3/2021 2:45:00 PM 19.53 67.154 0.109 7.8 3.69 9.81
7/3/2021 3:00:00 PM 19.71 67.478 0.108 7.82 3.02 9.83
7/3/2021 3:15:00 PM 19.87 67.766 0.108 7.85 5.52 9.84
7/3/2021 3:30:00 PM 19.92 67.856 0.108 7.85 14.29 9.78
7/3/2021 3:45:00 PM 20.14 68.252 0.104 7.87 25.42 9.79
7/3/2021 4:00:00 PM 20.15 68.27 0.108 7.88 4.75 9.73
7/3/2021 4:15:00 PM 20.22 68.396 0.108 7.87 4.71 9.7
7/3/2021 4:30:00 PM 20.32 68.576 0.058 7.89 9.67 9.66
7/3/2021 4:45:00 PM 20.42 68.756 0.108 7.88 5.21 9.61
7/3/2021 5:00:00 PM 20.41 68.738 0.108 7.87 5.22 9.49
7/3/2021 5:15:00 PM 20.4 68.72 0.108 7.82 5.14 9.36
7/3/2021 5:30:00 PM 20.4 68.72 0.108 7.79 5.71 9.3
7/3/2021 5:45:00 PM 20.46 68.828 0.108 7.78 5.11 9.31
7/3/2021 6:00:00 PM 20.49 68.882 0.104 7.77 4.9 9.31
7/3/2021 6:15:00 PM 20.49 68.882 0.107 7.78 5.74 9.26
7/3/2021 6:30:00 PM 20.5 68.9 0.108 7.74 5.37 9.18
7/3/2021 6:45:00 PM 20.52 68.936 0.107 7.71 2.1 9.11
7/3/2021 7:00:00 PM 20.5 68.9 0.108 7.68 5.8 9.03
7/3/2021 7:15:00 PM 20.5 68.9 0.108 7.63 14.71 8.97
7/3/2021 7:30:00 PM 20.48 68.864 0.107 7.61 6.16 8.93
7/3/2021 7:45:00 PM 20.43 68.774 0.05 7.59 6.63 8.85
7/3/2021 8:00:00 PM 20.4 68.72 0.107 7.55 5.66 8.83
7/3/2021 8:15:00 PM 20.37 68.666 0.107 7.53 5.43 8.77
7/3/2021 8:30:00 PM 20.36 68.648 0.107 7.5 14.07 8.74
7/3/2021 8:45:00 PM 20.33 68.594 0.096 7.48 12.95 8.68
7/3/2021 9:00:00 PM 20.28 68.504 0.107 7.47 120.77 8.6
7/3/2021 9:15:00 PM 20.24 68.432 0.107 7.44 5.32 8.58
7/3/2021 9:30:00 PM 20.2 68.36 0.107 7.41 6.39 8.55
7/3/2021 9:45:00 PM 20.16 68.288 0.107 7.4 6.38 8.53
7/3/2021 10:00:00 PM 20.13 68.234 0.107 7.39 6.11 8.48
7/3/2021 10:15:00 PM 20.07 68.126 0.107 7.36 20.3 8.47
7/3/2021 10:30:00 PM 20.02 68.036 0.093 7.36 16.94 8.45
7/3/2021 10:45:00 PM 19.96 67.92799 0.107 7.34 6.08 8.43
7/3/2021 11:00:00 PM 19.92 67.856 0.108 7.32 6.11 8.41
7/3/2021 11:15:00 PM 19.87 67.766 0.108 7.31 5.36 8.4
7/3/2021 11:30:00 PM 19.83 67.694 0.108 7.3 131.54 8.41
7/3/2021 11:45:00 PM 19.77 67.586 0.108 7.3 6.62 8.41
7/4/2021 12:00:00 AM 19.71 67.478 0.108 7.3 6.07 8.41
7/4/2021 12:15:00 AM 19.64 67.352 0.109 7.29 6.03 8.38
7/4/2021 12:30:00 AM 19.6 67.28 0.109 7.28 5.85 8.39
7/4/2021 12:45:00 AM 19.55 67.19 0.109 7.28 6 8.41
7/4/2021 1:00:00 AM 19.51 67.118 0.109 7.26 10.71 8.42
7/4/2021 1:15:00 AM 19.47 67.046 0.109 7.27 5.43 8.43
7/4/2021 1:30:00 AM 19.42 66.956 0.109 7.26 386.07 8.42
7/4/2021 1:45:00 AM 19.37 66.866 0.079 7.25 6.09 8.45
7/4/2021 2:00:00 AM 19.32 66.776 0.109 7.25 5.7 8.45
7/4/2021 2:15:00 AM 19.27 66.686 0.105 7.24 6.29 8.46
7/4/2021 2:30:00 AM 19.23 66.614 0.109 7.24 18.69 8.46
7/4/2021 2:45:00 AM 19.19 66.542 0.109 7.23 5.72 8.47
7/4/2021 3:00:00 AM 19.15 66.47 0.109 7.23 878.51 8.47
7/4/2021 3:15:00 AM 19.11 66.398 0.109 7.22 6.29 8.48
7/4/2021 3:30:00 AM 19.08 66.344 0.109 7.22 15.4 8.46
7/4/2021 3:45:00 AM 19.03 66.254 0.108 7.22 17.6 8.46
7/4/2021 4:00:00 AM 18.99 66.182 0.109 7.22 32.07 8.45
7/4/2021 4:15:00 AM 18.95 66.11 0.11 7.21 5.91 8.44
7/4/2021 4:30:00 AM 18.9 66.02 0.11 7.21 5.65 8.46
7/4/2021 4:45:00 AM 18.86 65.948 0.1 7.21 6.36 8.49
7/4/2021 5:00:00 AM 18.81 65.858 0.11 7.22 6.15 8.51
7/4/2021 5:15:00 AM 18.77 65.786 0.106 7.21 6.57 8.55
7/4/2021 5:30:00 AM 18.73 65.714 0.109 7.22 5.86 8.57
7/4/2021 5:45:00 AM 18.68 65.624 0.109 7.21 1.93 8.59
7/4/2021 6:00:00 AM 18.65 65.57 0.109 7.21 30.05 8.61
7/4/2021 6:15:00 AM 18.61 65.498 0.109 7.22 6.19 8.63
7/4/2021 6:30:00 AM 18.58 65.444 0.101 7.23 5.52 8.67
7/4/2021 6:45:00 AM 18.55 65.39 0.109 7.24 5.62 8.73
7/4/2021 7:00:00 AM 18.53 65.354 0.081 7.24 31.78 8.79
7/4/2021 7:15:00 AM 18.51 65.318 0.081 7.26 33.65 8.84
7/4/2021 7:30:00 AM 18.49 65.282 0.109 7.26 5.76 8.89
7/4/2021 7:45:00 AM 18.47 65.246 0.109 7.28 16.69 8.92
7/4/2021 8:00:00 AM 18.46 65.228 0.109 7.28 16.53 8.99
7/4/2021 8:15:00 AM 18.44 65.192 0.1 7.31 5.9 9.04
7/4/2021 8:30:00 AM 18.43 65.174 0.109 7.31 3.27 9.09
7/4/2021 8:45:00 AM 18.42 65.156 0.057 7.32 5.42 9.13
7/4/2021 9:00:00 AM 18.44 65.192 0.109 7.34 233.28 9.19
7/4/2021 9:15:00 AM 18.47 65.246 0.109 7.36 5.44 9.25
7/4/2021 9:30:00 AM 18.5 65.3 0.108 7.37 16.98 9.3
7/4/2021 9:45:00 AM 18.54 65.372 0.109 7.41 54.39 9.36
7/4/2021 10:00:00 AM 18.58 65.444 0.108 7.41 52.71 9.39
7/4/2021 10:15:00 AM 18.65 65.57 0.108 7.44 6.37 9.46
7/4/2021 10:30:00 AM 18.72 65.696 0.046 7.46 5.63 9.5
7/4/2021 10:45:00 AM 18.85 65.93 0.107 7.5 5.99 9.58
7/4/2021 11:00:00 AM 18.96 66.128 0.107 7.54 6.32 9.63
7/4/2021 11:15:00 AM 19.08 66.344 0.107 7.57 5.06 9.66
7/4/2021 11:30:00 AM 19.25 66.65 0.107 7.61 6.25 9.7
7/4/2021 11:45:00 AM 19.39 66.902 0.047 7.64 5.6 9.75
7/4/2021 12:00:00 PM 19.54 67.172 0.106 7.65 6.05 9.74
7/4/2021 12:15:00 PM 19.72 67.496 0.106 7.68 6.8 9.78
7/4/2021 12:30:00 PM 19.93 67.874 0.106 7.72 5.68 9.78
7/4/2021 12:45:00 PM 20.17 68.306 0.106 7.75 5.71 9.8
7/4/2021 1:00:00 PM 20.39 68.702 0.106 7.77 34 9.79
7/4/2021 1:15:00 PM 20.63 69.134 0.105 7.79 13.88 9.78
7/4/2021 1:30:00 PM 20.87 69.566 0.095 7.81 5.44 9.76
7/4/2021 1:45:00 PM 21.14 70.052 0.105 7.85 704.37 9.74
7/4/2021 2:00:00 PM 21.39 70.502 0.105 7.88 4.85 9.72
7/4/2021 2:15:00 PM 21.66 70.988 0.104 7.89 14.37 9.7
7/4/2021 2:30:00 PM 21.9 71.42 0.104 7.93 5.39 9.66
7/4/2021 2:45:00 PM 22.11 71.798 0.104 7.94 5.23 9.62
7/4/2021 3:00:00 PM 22.31 72.158 0.104 7.94 4.59 9.56
7/4/2021 3:15:00 PM 22.52 72.536 0.104 7.99 5.47 9.52
7/4/2021 3:30:00 PM 22.69 72.842 0.104 7.99 5 9.45
7/4/2021 3:45:00 PM 22.86 73.148 0.103 8 14.71 9.43
7/4/2021 4:00:00 PM 22.98 73.364 0.103 8 4.93 9.36
7/4/2021 4:15:00 PM 23.11 73.598 0.103 8.01 18.97 9.3
7/4/2021 4:30:00 PM 23.2 73.76 0.103 8.01 18.35 9.24
7/4/2021 4:45:00 PM 23.29 73.922 0.103 8.01 5.38 9.19
7/4/2021 5:00:00 PM 23.29 73.922 0.103 7.99 5.41 9.1
7/4/2021 5:15:00 PM 23.33 73.994 0.103 7.93 5.45 9
7/4/2021 5:30:00 PM 23.34 74.012 0.103 7.92 18.13 8.93
7/4/2021 5:45:00 PM 23.35 74.03 0.103 7.89 5.34 8.87
7/4/2021 6:00:00 PM 23.34 74.012 0.095 7.85 8.19 8.82
7/4/2021 6:15:00 PM 23.32 73.976 0.103 7.83 5.91 8.77
7/4/2021 6:30:00 PM 23.29 73.922 0.103 7.78 16.7 8.69
7/4/2021 6:45:00 PM 23.24 73.832 0.103 7.73 95.45 8.62
7/4/2021 7:00:00 PM 23.21 73.778 0.103 7.7 1.9 8.54
7/4/2021 7:15:00 PM 23.16 73.688 0.061 7.66 7.23 8.49
7/4/2021 7:30:00 PM 23.11 73.598 0.103 7.61 6.03 8.41
7/4/2021 7:45:00 PM 23.04 73.472 0.103 7.58 5.73 8.36
7/4/2021 8:00:00 PM 22.97 73.346 0.104 7.54 10.3 8.31
7/4/2021 8:15:00 PM 22.9 73.22 0.104 7.52 6.12 8.26
7/4/2021 8:30:00 PM 22.83 73.094 0.104 7.49 5.48 8.2
7/4/2021 8:45:00 PM 22.74 72.932 0.105 7.46 6.19 8.16
7/4/2021 9:00:00 PM 22.68 72.824 0.094 7.43 20.18 8.13
7/4/2021 9:15:00 PM 22.61 72.698 0.106 7.41 5.55 8.09
7/4/2021 9:30:00 PM 22.52 72.536 0.107 7.39 6.13 8.05
7/4/2021 9:45:00 PM 22.44 72.392 0.108 7.37 6.18 8.03
7/4/2021 10:00:00 PM 22.34 72.212 0.106 7.36 6.21 8
7/4/2021 10:15:00 PM 22.25 72.05 0.11 7.35 11.09 8.01
7/4/2021 10:30:00 PM 22.14 71.852 0.11 7.33 16 8.01
7/4/2021 10:45:00 PM 22.03 71.654 0.061 7.32 10.19 8
7/4/2021 11:00:00 PM 21.92 71.456 0.113 7.32 3.93 7.99
7/4/2021 11:15:00 PM 21.81 71.258 0.114 7.3 17.81 7.99
7/4/2021 11:30:00 PM 21.69 71.042 0.115 7.3 6.54 8
7/4/2021 11:45:00 PM 21.57 70.826 0.116 7.29 19.59 8
7/5/2021 12:00:00 AM 21.45 70.61 0.105 7.29 7.12 8.03
7/5/2021 12:15:00 AM 21.34 70.412 0.117 7.29 59.45 8.03
7/5/2021 12:30:00 AM 21.23 70.214 0.118 7.27 6.46 8.05
7/5/2021 12:45:00 AM 21.12 70.016 0.118 7.27 6.31 8.07
7/5/2021 1:00:00 AM 21.01 69.818 0.119 7.26 8.18 8.07
7/5/2021 1:15:00 AM 20.91 69.638 0.119 7.26 7.39 8.05
7/5/2021 1:30:00 AM 20.8 69.44 0.12 7.24 6.28 8.06
7/5/2021 1:45:00 AM 20.7 69.26 0.12 7.23 6.56 8.06
7/5/2021 2:00:00 AM 20.61 69.098 0.12 7.22 13.79 8.08
7/5/2021 2:15:00 AM 20.51 68.918 0.12 7.22 6.62 8.12
7/5/2021 2:30:00 AM 20.43 68.774 0.12 7.21 18.93 8.15
7/5/2021 2:45:00 AM 20.34 68.612 0.12 7.2 10.41 8.16
7/5/2021 3:00:00 AM 20.26 68.468 0.12 7.2 1.81 8.19
7/5/2021 3:15:00 AM 20.18 68.324 0.119 7.19 4.3 8.21
7/5/2021 3:30:00 AM 20.1 68.18 0.119 7.19 6.9 8.22
7/5/2021 3:45:00 AM 20.01 68.018 0.119 7.18 16.99 8.25
7/5/2021 4:00:00 AM 19.93 67.874 0.119 7.17 6.82 8.29
7/5/2021 4:15:00 AM 19.86 67.748 0.119 7.17 16.63 8.29
7/5/2021 4:30:00 AM 19.78 67.604 0.119 7.17 16.65 8.33
7/5/2021 4:45:00 AM 19.71 67.478 0.07 7.17 6.19 8.36
7/5/2021 5:00:00 AM 19.64 67.352 0.078 7.16 6.04 8.38
7/5/2021 5:15:00 AM 19.58 67.244 0.118 7.16 6.59 8.39
7/5/2021 5:30:00 AM 19.51 67.118 0.118 7.16 5.48 8.4
7/5/2021 5:45:00 AM 19.44 66.992 0.062 7.16 5.32 8.43
7/5/2021 6:00:00 AM 19.37 66.866 0.118 7.17 22.91 8.46
7/5/2021 6:15:00 AM 19.31 66.758 0.117 7.16 6.43 8.49
7/5/2021 6:30:00 AM 19.25 66.65 0.114 7.17 5.72 8.52
7/5/2021 6:45:00 AM 19.19 66.542 0.117 7.17 6.07 8.56
7/5/2021 7:00:00 AM 19.13 66.434 0.117 7.18 5.95 8.61
7/5/2021 7:15:00 AM 19.08 66.344 0.112 7.18 6.8 8.65
7/5/2021 7:30:00 AM 19.03 66.254 0.116 7.19 155.55 8.71
7/5/2021 7:45:00 AM 18.99 66.182 0.116 7.2 5.3 8.77
7/5/2021 8:00:00 AM 18.96 66.128 0.111 7.21 5.06 8.84
7/5/2021 8:15:00 AM 18.94 66.092 0.116 7.23 14.87 8.92
7/5/2021 8:30:00 AM 18.92 66.056 0.116 7.24 1.69 8.98
7/5/2021 8:45:00 AM 18.9 66.02 0.115 7.26 2.08 9.03
7/5/2021 9:00:00 AM 18.9 66.02 0.115 7.28 18.23 9.13
7/5/2021 9:15:00 AM 18.92 66.056 0.115 7.3 9.75 9.23
7/5/2021 9:30:00 AM 18.99 66.182 0.115 7.33 5.02 9.34
7/5/2021 9:45:00 AM 19.06 66.308 0.054 7.37 4.87 9.42
7/5/2021 10:00:00 AM 19.12 66.416 0.115 7.39 15.85 9.47
7/5/2021 10:15:00 AM 19.19 66.542 0.114 7.42 19.1 9.54
7/5/2021 10:30:00 AM 19.28 66.704 0.112 7.45 4.72 9.6
7/5/2021 10:45:00 AM 19.4 66.92 0.113 7.49 14.92 9.68
7/5/2021 11:00:00 AM 19.53 67.154 0.113 7.53 5.14 9.75
7/5/2021 11:15:00 AM 19.68 67.424 0.113 7.56 4.41 9.8
7/5/2021 11:30:00 AM 19.82 67.676 0.113 7.61 27.75 9.85
7/5/2021 11:45:00 AM 20 68 0.113 7.66 4.47 9.91
7/5/2021 12:00:00 PM 20.18 68.324 0.113 7.68 16.31 9.92
7/5/2021 12:15:00 PM 20.36 68.648 0.112 7.73 5.94 9.96
7/5/2021 12:30:00 PM 20.55 68.99 0.112 7.77 9.2 9.99
7/5/2021 12:45:00 PM 20.75 69.35 0.06 7.79 7.77 9.99
7/5/2021 1:00:00 PM 20.95 69.71 0.101 7.83 15.46 10
7/5/2021 1:15:00 PM 21.17 70.106 0.112 7.87 6.54 10.03
7/5/2021 1:30:00 PM 21.37 70.466 0.112 7.91 5.06 10.03
7/5/2021 1:45:00 PM 21.57 70.826 0.109 7.96 27.29 10.02
7/5/2021 2:00:00 PM 21.78 71.204 0.111 7.98 16.1 10
7/5/2021 2:15:00 PM 21.99 71.582 0.111 8.01 17.9 9.97
7/5/2021 2:30:00 PM 22.23 72.014 0.06 8.08 4.84 9.94
7/5/2021 2:45:00 PM 22.46 72.42799 0.111 8.11 15.18 9.89
7/5/2021 3:00:00 PM 22.7 72.86 0.106 8.15 4.7 9.86
7/5/2021 3:15:00 PM 22.94 73.292 0.11 8.19 4.59 9.8
7/5/2021 3:30:00 PM 23.16 73.688 0.11 8.21 4.89 9.74
7/5/2021 3:45:00 PM 23.38 74.084 0.109 8.26 12.67 9.67
7/5/2021 4:00:00 PM 23.55 74.39 0.11 8.27 5.79 9.59
7/5/2021 4:15:00 PM 23.74 74.732 0.109 8.3 15.03 9.52
7/5/2021 4:30:00 PM 23.91 75.038 0.11 8.32 5.65 9.45
7/5/2021 4:45:00 PM 24.04 75.272 0.11 8.31 5.57 9.37
7/5/2021 5:00:00 PM 24.1 75.38 0.11 8.32 5.36 9.27
7/5/2021 5:15:00 PM 24.19 75.542 0.11 8.3 5.62 9.16
7/5/2021 5:30:00 PM 24.27 75.686 0.11 8.29 16.14 9.08
7/5/2021 5:45:00 PM 24.3 75.74 0.11 8.25 5.63 8.97
7/5/2021 6:00:00 PM 24.35 75.83 0.11 8.22 19.27 8.89
7/5/2021 6:15:00 PM 24.36 75.848 0.11 8.16 5.56 8.77
7/5/2021 6:30:00 PM 24.37 75.866 0.11 8.12 364.25 8.69
7/5/2021 6:45:00 PM 24.35 75.83 0.11 8.07 15.74 8.6
7/5/2021 7:00:00 PM 24.33 75.794 0.11 8 6.01 8.51
7/5/2021 7:15:00 PM 24.31 75.758 0.11 7.94 10.86 8.43
7/5/2021 7:30:00 PM 24.27 75.686 0.062 7.88 7.03 8.35
7/5/2021 7:45:00 PM 24.25 75.65 0.11 7.83 15.63 8.29
7/5/2021 8:00:00 PM 24.22 75.596 0.109 7.77 15.41 8.2
7/5/2021 8:15:00 PM 24.17 75.506 0.109 7.71 6.14 8.12
7/5/2021 8:30:00 PM 24.12 75.416 0.109 7.66 3.03 8.05
7/5/2021 8:45:00 PM 24.07 75.326 0.103 7.6 5.81 7.96
7/5/2021 9:00:00 PM 24.01 75.218 0.11 7.55 7.01 7.88
7/5/2021 9:15:00 PM 23.94 75.092 0.11 7.51 2.53 7.82
7/5/2021 9:30:00 PM 23.87 74.966 0.11 7.47 7.21 7.78
7/5/2021 9:45:00 PM 23.8 74.84 0.109 7.45 31.86 7.73
7/5/2021 10:00:00 PM 23.72 74.696 0.108 7.42 7.53 7.72
7/5/2021 10:15:00 PM 23.65 74.57 0.109 7.39 7.27 7.69
7/5/2021 10:30:00 PM 23.57 74.426 0.109 7.36 7.07 7.66
7/5/2021 10:45:00 PM 23.49 74.282 0.109 7.35 6.63 7.65
7/5/2021 11:00:00 PM 23.4 74.12 0.109 7.33 6.61 7.63
7/5/2021 11:15:00 PM 23.31 73.958 0.088 7.31 8.07 7.65
7/5/2021 11:30:00 PM 23.22 73.796 0.109 7.3 6.78 7.64
7/5/2021 11:45:00 PM 23.12 73.616 0.109 7.28 19.88 7.65
7/6/2021 12:00:00 AM 23.02 73.436 0.109 7.27 6.39 7.66
7/6/2021 12:15:00 AM 22.93 73.274 0.109 7.26 6.81 7.67
7/6/2021 12:30:00 AM 22.84 73.112 0.109 7.25 7.2 7.69
7/6/2021 12:45:00 AM 22.75 72.95 0.109 7.24 6.39 7.7
7/6/2021 1:00:00 AM 22.65 72.77 0.107 7.24 6.84 7.72
7/6/2021 1:15:00 AM 22.57 72.626 0.109 7.23 6.6 7.72
7/6/2021 1:30:00 AM 22.48 72.464 0.109 7.22 6.58 7.74
7/6/2021 1:45:00 AM 22.4 72.32 0.109 7.22 6.7 7.75
7/6/2021 2:00:00 AM 22.32 72.176 0.109 7.21 7.24 7.77
7/6/2021 2:15:00 AM 22.25 72.05 0.109 7.2 6.06 7.77
7/6/2021 2:30:00 AM 22.18 71.924 0.109 7.2 6.45 7.8
7/6/2021 2:45:00 AM 22.11 71.798 0.109 7.2 767.25 7.8
7/6/2021 3:00:00 AM 22.05 71.69 0.109 7.19 6.28 7.82
7/6/2021 3:15:00 AM 21.97 71.546 0.06 7.19 6.02 7.85
7/6/2021 3:30:00 AM 21.91 71.438 0.109 7.18 6.24 7.84
7/6/2021 3:45:00 AM 21.85 71.33 0.11 7.18 7.21 7.83
7/6/2021 4:00:00 AM 21.78 71.204 0.106 7.17 7.15 7.81
7/6/2021 4:15:00 AM 21.72 71.096 0.11 7.16 6.4 7.81
7/6/2021 4:30:00 AM 21.66 70.988 0.11 7.15 6.15 7.81
7/6/2021 4:45:00 AM 21.6 70.88 0.111 7.15 12.81 7.83
7/6/2021 5:00:00 AM 21.54 70.772 0.11 7.14 31.3 7.85
7/6/2021 5:15:00 AM 21.48 70.664 0.111 7.14 7.21 7.87
7/6/2021 5:30:00 AM 21.42 70.556 0.071 7.13 8.97 7.91
7/6/2021 5:45:00 AM 21.37 70.466 0.11 7.13 6.93 7.92
7/6/2021 6:00:00 AM 21.3 70.34 0.111 7.13 21.39 7.96
7/6/2021 6:15:00 AM 21.24 70.232 0.062 7.13 6.85 8
7/6/2021 6:30:00 AM 21.19 70.142 0.111 7.13 6.39 8.02
7/6/2021 6:45:00 AM 21.15 70.07 0.111 7.13 6.93 8.07
7/6/2021 7:00:00 AM 21.12 70.016 0.111 7.14 6.23 8.11
7/6/2021 7:15:00 AM 21.09 69.962 0.111 7.15 38.7 8.18
7/6/2021 7:30:00 AM 21.07 69.926 0.058 7.16 17.71 8.24
7/6/2021 7:45:00 AM 21.07 69.926 0.111 7.17 6.21 8.31
7/6/2021 8:00:00 AM 21.06 69.908 0.112 7.18 16.56 8.38
7/6/2021 8:15:00 AM 21.07 69.926 0.06 7.2 7.43 8.46
7/6/2021 8:30:00 AM 21.09 69.962 0.111 7.21 6.67 8.51
7/6/2021 8:45:00 AM 21.12 70.016 0.103 7.24 7.6 8.6
7/6/2021 9:00:00 AM 21.15 70.07 0.112 7.25 5.98 8.68
7/6/2021 9:15:00 AM 21.2 70.16 0.112 7.28 5.81 8.76
7/6/2021 9:30:00 AM 21.25 70.25 0.111 7.3 15.15 8.83
7/6/2021 9:45:00 AM 21.34 70.412 0.112 7.34 5.78 8.92
7/6/2021 10:00:00 AM 21.44 70.592 0.06 7.38 8.75 9
7/6/2021 10:15:00 AM 21.55 70.79 0.106 7.41 4.8 9.09
7/6/2021 10:30:00 AM 21.67 71.006 0.112 7.46 1.86 9.16
7/6/2021 10:45:00 AM 21.83 71.294 0.072 7.5 4.99 9.25
7/6/2021 11:00:00 AM 21.97 71.546 0.111 7.55 5.08 9.32
7/6/2021 11:15:00 AM 22.12 71.816 0.111 7.58 5.66 9.39
7/6/2021 11:30:00 AM 22.3 72.14 0.111 7.64 4.95 9.45
7/6/2021 11:45:00 AM 22.45 72.41 0.111 7.68 5.01 9.5
7/6/2021 12:00:00 PM 22.6 72.68 0.111 7.73 8.95 9.55
7/6/2021 12:15:00 PM 22.77 72.986 0.11 7.77 32.86 9.61
7/6/2021 12:30:00 PM 22.97 73.346 0.11 7.83 15.74 9.65
7/6/2021 12:45:00 PM 23.17 73.706 0.11 7.87 5.25 9.66
7/6/2021 1:00:00 PM 23.29 73.922 0.11 7.91 7.31 9.65
7/6/2021 1:15:00 PM 23.55 74.39 0.11 7.95 4.92 9.68
7/6/2021 1:30:00 PM 23.69 74.642 0.11 7.99 8.33 9.65
7/6/2021 1:45:00 PM 23.89 75.002 0.11 8.02 18.71 9.65
7/6/2021 2:00:00 PM 24.07 75.326 0.109 8.06 5.22 9.61
7/6/2021 2:15:00 PM 24.22 75.596 0.109 8.08 127.09 9.59
7/6/2021 2:30:00 PM 24.47 76.046 0.058 8.15 18.01 9.57
7/6/2021 2:45:00 PM 24.56 76.208 0.109 8.15 4.49 9.49
7/6/2021 3:00:00 PM 24.68 76.424 0.109 8.17 14.82 9.42
7/6/2021 3:15:00 PM 24.77 76.586 0.109 8.19 15.92 9.36
7/6/2021 3:30:00 PM 24.78 76.604 0.108 8.17 15.95 9.2
7/6/2021 3:45:00 PM 24.86 76.748 0.109 8.15 2.71 9.11
7/6/2021 4:00:00 PM 25.01 77.018 0.108 8.15 15.69 9.06
7/6/2021 4:15:00 PM 25.14 77.252 0.111 8.18 76.64 9.03
7/6/2021 4:30:00 PM 25.32 77.576 0.109 8.22 15.73 9.03
7/6/2021 4:45:00 PM 25.38 77.684 0.107 8.24 15.7 8.95
7/6/2021 5:00:00 PM 25.49 77.882 0.108 8.23 5.22 8.89
7/6/2021 5:15:00 PM 25.54 77.972 0.109 8.21 17.96 8.8
7/6/2021 5:30:00 PM 25.59 78.062 0.109 8.21 15.32 8.72
7/6/2021 5:45:00 PM 25.62 78.116 0.109 8.16 4.57 8.63
7/6/2021 6:00:00 PM 25.64 78.152 0.109 8.14 5.61 8.56
7/6/2021 6:15:00 PM 25.64 78.152 0.109 8.12 6.72 8.52
7/6/2021 6:30:00 PM 25.61 78.098 0.107 8.08 6.3 8.46
7/6/2021 6:45:00 PM 25.61 78.098 0.108 8.06 19.91 8.42
7/6/2021 7:00:00 PM 25.56 78.008 0.109 8.01 5.68 8.34
7/6/2021 7:15:00 PM 25.5 77.9 0.107 7.96 27.39 8.26
7/6/2021 7:30:00 PM 25.44 77.792 0.109 7.89 14.61 8.16
7/6/2021 7:45:00 PM 25.38 77.684 0.109 7.82 5.77 8.09
7/6/2021 8:00:00 PM 25.31 77.558 0.108 7.76 22.49 7.99
7/6/2021 8:15:00 PM 25.23 77.414 0.109 7.71 6.45 7.93
7/6/2021 8:30:00 PM 25.16 77.288 0.106 7.66 19.73 7.85
7/6/2021 8:45:00 PM 25.08 77.144 0.109 7.61 5.98 7.79
7/6/2021 9:00:00 PM 25.01 77.018 0.109 7.57 5.75 7.73
7/6/2021 9:15:00 PM 24.95 76.91 0.11 7.52 6.37 7.67
7/6/2021 9:30:00 PM 24.88 76.784 0.11 7.49 5.69 7.62
7/6/2021 9:45:00 PM 24.82 76.676 0.11 7.46 6.42 7.59
7/6/2021 10:00:00 PM 24.77 76.586 0.109 7.43 7.93 7.55
7/6/2021 10:15:00 PM 24.71 76.478 0.11 7.41 6.4 7.53
7/6/2021 10:30:00 PM 24.65 76.37 0.111 7.39 6.03 7.5
7/6/2021 10:45:00 PM 24.6 76.28 0.11 7.37 29.73 7.45
7/6/2021 11:00:00 PM 24.53 76.154 0.064 7.35 10.89 7.44
7/6/2021 11:15:00 PM 24.45 76.01 0.112 7.33 7.33 7.42
7/6/2021 11:30:00 PM 24.37 75.866 0.112 7.31 6.59 7.4
7/6/2021 11:45:00 PM 24.28 75.704 0.114 7.3 6.7 7.39
7/7/2021 12:00:00 AM 24.19 75.542 0.115 7.28 6.43 7.38
7/7/2021 12:15:00 AM 24.1 75.38 0.115 7.27 6.86 7.39
7/7/2021 12:30:00 AM 24 75.2 0.115 7.26 20.04 7.39
7/7/2021 12:45:00 AM 23.9 75.02 0.055 7.25 5.84 7.41
7/7/2021 1:00:00 AM 23.81 74.858 0.115 7.24 7.08 7.42
7/7/2021 1:15:00 AM 23.71 74.67799 0.115 7.23 6.56 7.44
7/7/2021 1:30:00 AM 23.62 74.516 0.116 7.23 7.27 7.46
7/7/2021 1:45:00 AM 23.52 74.336 0.09 7.22 7.76 7.47
7/7/2021 2:00:00 AM 23.44 74.192 0.116 7.21 6.35 7.48
7/7/2021 2:15:00 AM 23.34 74.012 0.116 7.21 111.15 7.5
7/7/2021 2:30:00 AM 23.26 73.868 0.106 7.21 15.45 7.53
7/7/2021 2:45:00 AM 23.17 73.706 0.113 7.2 6.91 7.54
7/7/2021 3:00:00 AM 23.08 73.544 0.116 7.19 6.52 7.56
7/7/2021 3:15:00 AM 23 73.4 0.115 7.19 20.26 7.57
7/7/2021 3:30:00 AM 22.92 73.256 0.116 7.18 14.55 7.57
7/7/2021 3:45:00 AM 22.85 73.13 0.116 7.17 15.48 7.58
7/7/2021 4:00:00 AM 22.77 72.986 0.114 7.17 25.82 7.58
7/7/2021 4:15:00 AM 22.7 72.86 0.115 7.17 6.47 7.6
7/7/2021 4:30:00 AM 22.62 72.716 0.096 7.16 7.35 7.62
7/7/2021 4:45:00 AM 22.55 72.59 0.114 7.15 6.61 7.63
7/7/2021 5:00:00 AM 22.47 72.446 0.113 7.14 16.67 7.64
7/7/2021 5:15:00 AM 22.4 72.32 0.113 7.14 6.49 7.67
7/7/2021 5:30:00 AM 22.33 72.194 0.113 7.14 20.48 7.68
7/7/2021 5:45:00 AM 22.26 72.068 0.113 7.14 11.75 7.7
7/7/2021 6:00:00 AM 22.2 71.96 0.113 7.14 15.76 7.75
7/7/2021 6:15:00 AM 22.14 71.852 0.113 7.14 2.82 7.78
7/7/2021 6:30:00 AM 22.09 71.762 0.113 7.14 6.09 7.84
7/7/2021 6:45:00 AM 22.05 71.69 0.113 7.15 6.37 7.89
7/7/2021 7:00:00 AM 22.01 71.618 0.113 7.16 5.96 7.98
7/7/2021 7:15:00 AM 21.99 71.582 0.082 7.17 17.83 8.06
7/7/2021 7:30:00 AM 21.98 71.564 0.113 7.18 17.01 8.11
7/7/2021 7:45:00 AM 21.96 71.528 0.113 7.19 6.13 8.18
7/7/2021 8:00:00 AM 21.96 71.528 0.113 7.21 11.98 8.25
7/7/2021 8:15:00 AM 21.96 71.528 0.113 7.23 15.49 8.31
7/7/2021 8:30:00 AM 21.97 71.546 0.113 7.25 14.86 8.39
7/7/2021 8:45:00 AM 21.99 71.582 0.059 7.27 15.83 8.47
7/7/2021 9:00:00 AM 22.02 71.636 0.111 7.29 5.53 8.55
7/7/2021 9:15:00 AM 22.06 71.708 0.113 7.32 23.45 8.63
7/7/2021 9:30:00 AM 22.11 71.798 0.113 7.34 15.29 8.69
7/7/2021 9:45:00 AM 22.18 71.924 0.113 7.38 5.35 8.8
7/7/2021 10:00:00 AM 22.26 72.068 0.113 7.41 5.52 8.87
7/7/2021 10:15:00 AM 22.36 72.248 0.113 7.44 5.64 8.93
7/7/2021 10:30:00 AM 22.48 72.464 0.054 7.49 16.48 9.03
7/7/2021 10:45:00 AM 22.63 72.734 0.112 7.53 2.67 9.11
7/7/2021 11:00:00 AM 22.74 72.932 0.112 7.57 4.91 9.17
7/7/2021 11:15:00 AM 22.85 73.13 0.106 7.62 5.31 9.26
7/7/2021 11:30:00 AM 23 73.4 0.099 7.66 5.41 9.29
7/7/2021 11:45:00 AM 23.16 73.688 0.089 7.71 7.15 9.35
7/7/2021 12:00:00 PM 23.21 73.778 0.112 7.73 5.35 9.34
7/7/2021 12:15:00 PM 23.33 73.994 0.112 7.77 14.91 9.37
7/7/2021 12:30:00 PM 23.55 74.39 0.112 7.8 14.27 9.43
7/7/2021 12:45:00 PM 23.77 74.786 0.112 7.86 4.57 9.49
7/7/2021 1:00:00 PM 23.89 75.002 0.111 7.89 6.11 9.48
7/7/2021 1:15:00 PM 24.13 75.434 0.111 7.96 15.96 9.54
7/7/2021 1:30:00 PM 24.35 75.83 0.111 8.02 13.98 9.57
7/7/2021 1:45:00 PM 24.52 76.136 0.11 8.06 17.44 9.56
7/7/2021 2:00:00 PM 24.71 76.478 0.111 8.09 5.05 9.54
7/7/2021 2:15:00 PM 24.9 76.82 0.11 8.13 16.88 9.52
7/7/2021 2:30:00 PM 25.11 77.198 0.11 8.17 14.48 9.51
7/7/2021 2:45:00 PM 25.29 77.522 0.11 8.2 29.48 9.48
7/7/2021 3:00:00 PM 25.51 77.918 0.079 8.25 17.73 9.45
7/7/2021 3:15:00 PM 25.64 78.152 0.11 8.27 5.42 9.38
7/7/2021 3:30:00 PM 25.79 78.422 0.047 8.3 17.13 9.3
7/7/2021 3:45:00 PM 25.95 78.71 0.109 8.31 5.31 9.22
7/7/2021 4:00:00 PM 26.13 79.034 0.109 8.34 5.55 9.15
7/7/2021 4:15:00 PM 26.29 79.32201 0.109 8.36 5.34 9.07
7/7/2021 4:30:00 PM 26.45 79.61 0.06 8.37 8.64 9
7/7/2021 4:45:00 PM 26.59 79.862 0.059 8.39 9.41 8.91
7/7/2021 5:00:00 PM 26.65 79.97 0.109 8.37 246.64 8.79
7/7/2021 5:15:00 PM 26.69 80.042 0.108 8.35 14.63 8.65
7/7/2021 5:30:00 PM 26.81 80.258 0.068 8.33 16.27 8.56
7/7/2021 5:45:00 PM 26.88 80.384 0.109 8.3 1.43 8.46
7/7/2021 6:00:00 PM 26.92 80.456 0.061 8.27 6.48 8.37
7/7/2021 6:15:00 PM 26.95 80.51 0.109 8.24 14.22 8.28
7/7/2021 6:30:00 PM 26.93 80.474 0.053 8.18 16.66 8.16
7/7/2021 6:45:00 PM 26.9 80.42 0.102 8.1 14.99 8
7/7/2021 7:00:00 PM 26.87 80.366 0.109 8.01 14.83 7.89
7/7/2021 7:15:00 PM 26.61 79.898 0.108 7.89 6.53 7.75
7/7/2021 7:30:00 PM 26.33 79.394 0.108 7.78 53.7 7.67
7/7/2021 7:45:00 PM 26.21 79.17799 0.104 7.71 17.42 7.55
7/7/2021 8:00:00 PM 26.16 79.088 0.109 7.66 6.28 7.46
7/7/2021 8:15:00 PM 26.1 78.98 0.108 7.61 15.71 7.39
7/7/2021 8:30:00 PM 26.04 78.872 0.109 7.56 15.56 7.35
7/7/2021 8:45:00 PM 25.95 78.71 0.048 7.52 7.38 7.28
7/7/2021 9:00:00 PM 25.83 78.494 0.109 7.47 4.25 7.22
7/7/2021 9:15:00 PM 25.72 78.296 0.109 7.44 15.3 7.2
7/7/2021 9:30:00 PM 25.6 78.08 0.109 7.41 7.27 7.17
7/7/2021 9:45:00 PM 25.43 77.774 0.057 7.39 9.15 7.22
7/7/2021 10:00:00 PM 25.31 77.558 0.109 7.36 6.52 7.16
7/7/2021 10:15:00 PM 25.16 77.288 0.109 7.33 7.76 7.14
7/7/2021 10:30:00 PM 25.02 77.036 0.109 7.31 6.22 7.12
7/7/2021 10:45:00 PM 24.86 76.748 0.109 7.29 15.74 7.15
7/7/2021 11:00:00 PM 24.73 76.514 0.108 7.27 7 7.16
7/7/2021 11:15:00 PM 24.59 76.262 0.109 7.26 6.04 7.16
7/7/2021 11:30:00 PM 24.46 76.028 0.1 7.24 7.26 7.14
7/7/2021 11:45:00 PM 24.33 75.794 0.057 7.23 10.41 7.16
7/8/2021 12:00:00 AM 24.21 75.578 0.11 7.21 11.61 7.19
7/8/2021 12:15:00 AM 24.09 75.362 0.11 7.21 15.7 7.2
7/8/2021 12:30:00 AM 23.97 75.146 0.11 7.2 6.54 7.23
7/8/2021 12:45:00 AM 23.86 74.948 0.11 7.19 21.79 7.25
7/8/2021 1:00:00 AM 23.76 74.768 0.11 7.19 7.01 7.28
7/8/2021 1:15:00 AM 23.66 74.588 0.11 7.18 5.89 7.28
7/8/2021 1:30:00 AM 23.56 74.408 0.083 7.18 6.06 7.32
7/8/2021 1:45:00 AM 23.48 74.264 0.111 7.17 7.06 7.36
7/8/2021 2:00:00 AM 23.4 74.12 0.111 7.16 6.47 7.36
7/8/2021 2:15:00 AM 23.32 73.976 0.111 7.16 6.56 7.39
7/8/2021 2:30:00 AM 23.24 73.832 0.095 7.16 16.77 7.39
7/8/2021 2:45:00 AM 23.16 73.688 0.11 7.15 27.68 7.43
7/8/2021 3:00:00 AM 23.08 73.544 0.111 7.15 14.39 7.47
7/8/2021 3:15:00 AM 23.01 73.418 0.057 7.14 10.43 7.45
7/8/2021 3:30:00 AM 22.95 73.31 0.111 7.14 15.62 7.48
7/8/2021 3:45:00 AM 22.89 73.202 0.111 7.14 15.26 7.5
7/8/2021 4:00:00 AM 22.83 73.094 0.111 7.13 6.02 7.54
7/8/2021 4:15:00 AM 22.77 72.986 0.111 7.13 17.75 7.54
7/8/2021 4:30:00 AM 22.71 72.878 0.111 7.13 13.54 7.57
7/8/2021 4:45:00 AM 22.65 72.77 0.111 7.13 27.84 7.6
7/8/2021 5:00:00 AM 22.59 72.662 0.111 7.13 14.13 7.6
7/8/2021 5:15:00 AM 22.52 72.536 0.089 7.13 9.05 7.61
7/8/2021 5:30:00 AM 22.46 72.42799 0.111 7.13 6.82 7.64
7/8/2021 5:45:00 AM 22.4 72.32 0.111 7.13 46.79 7.65
7/8/2021 6:00:00 AM 22.35 72.23 0.111 7.13 16.54 7.68
7/8/2021 6:15:00 AM 22.3 72.14 0.111 7.13 16.16 7.69
7/8/2021 6:30:00 AM 22.25 72.05 0.11 7.14 7.32 7.71
7/8/2021 6:45:00 AM 22.2 71.96 0.111 7.14 6.3 7.75
7/8/2021 7:00:00 AM 22.15 71.87 0.065 7.15 6.74 7.77
7/8/2021 7:15:00 AM 22.11 71.798 0.111 7.15 23.31 7.8
7/8/2021 7:30:00 AM 22.07 71.726 0.111 7.16 16.55 7.85
7/8/2021 7:45:00 AM 22.03 71.654 0.112 7.17 14.19 7.87
7/8/2021 8:00:00 AM 21.99 71.582 0.092 7.18 5.37 7.9
7/8/2021 8:15:00 AM 21.95 71.51 0.062 7.19 15.75 7.96
7/8/2021 8:30:00 AM 21.92 71.456 0.111 7.19 5.26 8
7/8/2021 8:45:00 AM 21.9 71.42 0.111 7.21 5.54 8.09
7/8/2021 9:00:00 AM 21.87 71.366 0.111 7.22 14.83 8.1
7/8/2021 9:15:00 AM 21.85 71.33 0.111 7.23 13.39 8.17
7/8/2021 9:30:00 AM 21.85 71.33 0.111 7.24 5.58 8.26
7/8/2021 9:45:00 AM 21.83 71.294 0.111 7.26 13.71 8.33
7/8/2021 10:00:00 AM 21.82 71.276 0.111 7.27 5.21 8.41
7/8/2021 10:15:00 AM 21.81 71.258 0.111 7.3 13.15 8.45
7/8/2021 10:30:00 AM 21.8 71.24 0.111 7.31 5.51 8.51
7/8/2021 10:45:00 AM 21.82 71.276 0.111 7.33 5.97 8.6
7/8/2021 11:00:00 AM 21.81 71.258 0.111 7.35 5.66 8.64
7/8/2021 11:15:00 AM 21.82 71.276 0.11 7.37 13.76 8.73
7/8/2021 11:30:00 AM 21.84 71.312 0.111 7.39 17.98 8.78
7/8/2021 11:45:00 AM 21.88 71.384 0.111 7.42 4.84 8.89
7/8/2021 12:00:00 PM 21.92 71.456 0.109 7.45 17.85 8.99
7/8/2021 12:15:00 PM 21.97 71.546 0.11 7.49 15.64 9.08
7/8/2021 12:30:00 PM 22.03 71.654 0.11 7.53 19.53 9.18
7/8/2021 12:45:00 PM 22.07 71.726 0.11 7.56 13.47 9.24
7/8/2021 1:00:00 PM 22.09 71.762 0.11 7.59 12.93 9.25
7/8/2021 1:15:00 PM 22.11 71.798 0.11 7.59 19.66 9.24
7/8/2021 1:30:00 PM 22.13 71.834 0.11 7.61 5.23 9.22
7/8/2021 1:45:00 PM 22.14 71.852 0.11 7.61 5.23 9.17
7/8/2021 2:00:00 PM 22.2 71.96 0.11 7.62 175.21 9.2
7/8/2021 2:15:00 PM 22.25 72.05 0.11 7.65 4.73 9.24
7/8/2021 2:30:00 PM 22.28 72.104 0.11 7.66 13.01 9.23
7/8/2021 2:45:00 PM 22.32 72.176 0.11 7.68 4.71 9.21
7/8/2021 3:00:00 PM 22.35 72.23 0.11 7.67 17.02 9.17
7/8/2021 3:15:00 PM 22.37 72.266 0.062 7.67 15.72 9.14
7/8/2021 3:30:00 PM 22.45 72.41 0.11 7.69 13.29 9.17
7/8/2021 3:45:00 PM 22.49 72.482 0.11 7.71 4.79 9.2
7/8/2021 4:00:00 PM 22.53 72.554 0.11 7.71 4.73 9.15
7/8/2021 4:15:00 PM 22.54 72.57201 0.11 7.7 5.76 9.08
7/8/2021 4:30:00 PM 22.61 72.698 0.11 7.72 14.83 9.1
7/8/2021 4:45:00 PM 22.65 72.77 0.109 7.72 5.43 9.11
7/8/2021 5:00:00 PM 22.68 72.824 0.11 7.75 13.48 9.11
7/8/2021 5:15:00 PM 22.71 72.878 0.109 7.74 15.07 9.04
7/8/2021 5:30:00 PM 22.72 72.896 0.11 7.71 12.78 8.9
7/8/2021 5:45:00 PM 22.71 72.878 0.11 7.66 12.98 8.74
7/8/2021 6:00:00 PM 22.71 72.878 0.11 7.62 15.55 8.7
7/8/2021 6:15:00 PM 22.72 72.896 0.11 7.6 13.28 8.66
7/8/2021 6:30:00 PM 22.73 72.914 0.099 7.58 14.41 8.61
7/8/2021 6:45:00 PM 22.76 72.968 0.106 7.57 14.81 8.63
7/8/2021 7:00:00 PM 22.79 73.022 0.11 7.59 5.62 8.67
7/8/2021 7:15:00 PM 22.8 73.04 0.096 7.58 14.79 8.66
7/8/2021 7:30:00 PM 22.79 73.022 0.11 7.57 5.15 8.57
7/8/2021 7:45:00 PM 22.77 72.986 0.11 7.53 5.15 8.44
7/8/2021 8:00:00 PM 22.74 72.932 0.11 7.5 7.11 8.34
7/8/2021 8:15:00 PM 22.7 72.86 0.11 7.47 15.36 8.28
7/8/2021 8:30:00 PM 22.67 72.806 0.103 7.45 5.71 8.2
7/8/2021 8:45:00 PM 22.63 72.734 0.062 7.43 16.41 8.18
7/8/2021 9:00:00 PM 22.6 72.68 0.11 7.4 628.13 8.14
7/8/2021 9:15:00 PM 22.57 72.626 0.11 7.39 15.46 8.06
7/8/2021 9:30:00 PM 22.54 72.57201 0.11 7.38 7.27 8.06
7/8/2021 9:45:00 PM 22.51 72.518 0.11 7.37 15.01 8.02
7/8/2021 10:00:00 PM 22.47 72.446 0.11 7.35 15.47 8.01
7/8/2021 10:15:00 PM 22.42 72.356 0.107 7.35 15.95 7.98
7/8/2021 10:30:00 PM 22.35 72.23 0.11 7.34 7.05 7.97
7/8/2021 10:45:00 PM 22.29 72.122 0.11 7.32 17.01 7.96
7/8/2021 11:00:00 PM 22.23 72.014 0.109 7.31 15.53 7.95
7/8/2021 11:15:00 PM 22.17 71.906 0.108 7.29 10.03 7.94
7/8/2021 11:30:00 PM 22.11 71.798 0.047 7.3 14.74 7.89
7/8/2021 11:45:00 PM 22.03 71.654 0.094 7.28 14.54 7.86
7/9/2021 12:00:00 AM 21.96 71.528 0.106 7.27 17.71 7.83
7/9/2021 12:15:00 AM 21.88 71.384 0.095 7.26 15.1 7.89
7/9/2021 12:30:00 AM 21.82 71.276 0.109 7.24 17.29 7.92
7/9/2021 12:45:00 AM 21.76 71.168 0.107 7.26 16.77 7.93
7/9/2021 1:00:00 AM 21.71 71.078 0.108 7.26 19.9 7.92
7/9/2021 1:15:00 AM 21.66 70.988 0.11 7.25 20.4 7.91
7/9/2021 1:30:00 AM 21.6 70.88 0.11 7.25 25.48 7.93
7/9/2021 1:45:00 AM 21.55 70.79 0.109 7.23 26.38 7.96
7/9/2021 2:00:00 AM 21.49 70.682 0.109 7.22 27.1 7.97
7/9/2021 2:15:00 AM 21.43 70.574 0.108 7.23 29.75 8
7/9/2021 2:30:00 AM 21.38 70.484 0.108 7.22 25.32 8.01
7/9/2021 2:45:00 AM 21.33 70.394 0.108 7.22 24.96 8.03
7/9/2021 3:00:00 AM 21.29 70.32201 0.108 7.22 23.16 8.02
7/9/2021 3:15:00 AM 21.21 70.17799 0.113 7.23 597.55 8.09
7/9/2021 3:30:00 AM 21.11 69.998 0.114 7.25 39.34 8.16
7/9/2021 3:45:00 AM 20.99 69.782 0.113 7.27 601.74 8.26
7/9/2021 4:00:00 AM 20.9 69.62 0.115 7.29 39.69 8.34
7/9/2021 4:15:00 AM 20.82 69.476 0.119 7.32 52.63 8.37
7/9/2021 4:30:00 AM 20.76 69.368 0.125 7.36 51.64 8.41
7/9/2021 4:45:00 AM 20.7 69.26 0.126 7.37 49.41 8.43
7/9/2021 5:00:00 AM 20.64 69.152 0.125 7.38 38.9 8.45
7/9/2021 5:15:00 AM 20.59 69.062 0.124 7.37 33.91 8.46
7/9/2021 5:30:00 AM 20.54 68.972 0.122 7.36 65.25 8.47
7/9/2021 5:45:00 AM 20.49 68.882 0.122 7.35 92.74 8.47
7/9/2021 6:00:00 AM 20.44 68.792 0.121 7.34 57.51 8.49
7/9/2021 6:15:00 AM 20.4 68.72 0.12 7.33 22.16 8.49
7/9/2021 6:30:00 AM 20.37 68.666 0.119 7.33 21.22 8.5
7/9/2021 6:45:00 AM 20.34 68.612 0.118 7.32 18.4 8.5
7/9/2021 7:00:00 AM 20.31 68.558 0.11 7.32 16.72 8.52
7/9/2021 7:15:00 AM 20.29 68.522 0.115 7.31 15.74 8.53
7/9/2021 7:30:00 AM 20.27 68.486 0.064 7.31 13.61 8.55
7/9/2021 7:45:00 AM 20.26 68.468 0.113 7.31 9.45 8.57
7/9/2021 8:00:00 AM 20.24 68.432 0.112 7.31 15.42 8.58
7/9/2021 8:15:00 AM 20.25 68.45 0.06 7.32 12.23 8.64
7/9/2021 8:30:00 AM 20.26 68.468 0.112 7.33 12.13 8.7
7/9/2021 8:45:00 AM 20.28 68.504 0.112 7.34 38.13 8.74
7/9/2021 9:00:00 AM 20.34 68.612 0.113 7.36 13.32 8.81
7/9/2021 9:15:00 AM 20.37 68.666 0.112 7.39 35.08 8.91
7/9/2021 9:30:00 AM 20.36 68.648 0.115 7.4 15.24 8.9
7/9/2021 9:45:00 AM 20.38 68.684 0.119 7.42 14.7 8.92
7/9/2021 10:00:00 AM 20.46 68.828 0.121 7.43 17.95 8.99
7/9/2021 10:15:00 AM 20.54 68.972 0.117 7.47 22.46 9.03
7/9/2021 10:30:00 AM 20.57 69.026 0.127 7.49 26.85 9.04
7/9/2021 10:45:00 AM 20.62 69.116 0.13 7.5 33.93 9.01
7/9/2021 11:00:00 AM 20.67 69.206 0.128 7.52 45.66 8.98
7/9/2021 11:15:00 AM 20.72 69.296 0.134 7.51 64.24 8.95
7/9/2021 11:30:00 AM 20.77 69.386 0.137 7.5 52.94 8.89
7/9/2021 11:45:00 AM 20.92 69.656 0.139 7.53 65.25 8.95
7/9/2021 12:00:00 PM 20.98 69.764 0.14 7.54 70.9 8.91
7/9/2021 12:15:00 PM 21.05 69.89 0.141 7.52 695.66 8.86
7/9/2021 12:30:00 PM 21.2 70.16 0.142 7.55 61.85 8.88
7/9/2021 12:45:00 PM 21.44 70.592 0.142 7.58 88.08 8.97
7/9/2021 1:00:00 PM 21.68 71.024 0.143 7.62 15.82 9.1
7/9/2021 1:15:00 PM 21.89 71.402 0.143 7.63 716.94 9.14
7/9/2021 1:30:00 PM 22.09 71.762 0.143 7.68 56.74 9.17
7/9/2021 1:45:00 PM 22.14 71.852 0.143 7.69 17.37 9.12
7/9/2021 2:00:00 PM 22.16 71.888 0.143 7.68 45.15 9.05
7/9/2021 2:15:00 PM 22.21 71.978 0.067 7.67 55.22 8.98
7/9/2021 2:30:00 PM 22.31 72.158 0.072 7.67 46.32 8.97
7/9/2021 2:45:00 PM 22.45 72.41 0.143 7.7 40.9 9.04
7/9/2021 3:00:00 PM 22.72 72.896 0.142 7.74 42.58 9.09
7/9/2021 3:15:00 PM 22.86 73.148 0.142 7.75 1.45 9.11
7/9/2021 3:30:00 PM 22.85 73.13 0.112 7.75 47.08 8.96
7/9/2021 3:45:00 PM 22.85 73.13 0.142 7.73 81.5 8.88
7/9/2021 4:00:00 PM 22.85 73.13 0.14 7.72 44.01 8.82
7/9/2021 4:15:00 PM 22.9 73.22 0.141 7.73 46.01 8.81
7/9/2021 4:30:00 PM 22.97 73.346 0.085 7.73 45.18 8.82
7/9/2021 4:45:00 PM 23.01 73.418 0.073 7.72 45.6 8.79
7/9/2021 5:00:00 PM 23.06 73.508 0.14 7.72 7.87 8.74
7/9/2021 5:15:00 PM 23.06 73.508 0.139 7.71 45.26 8.66
7/9/2021 5:30:00 PM 23.1 73.58 0.139 7.69 44.66 8.6
7/9/2021 5:45:00 PM 23.11 73.598 0.138 7.66 44.31 8.48
7/9/2021 6:00:00 PM 23.15 73.67 0.138 7.64 39.72 8.44
7/9/2021 6:15:00 PM 23.19 73.742 0.069 7.63 40.67 8.44
7/9/2021 6:30:00 PM 23.21 73.778 0.136 7.63 42.06 8.41
7/9/2021 6:45:00 PM 23.24 73.832 0.135 7.61 39.89 8.33
7/9/2021 7:00:00 PM 23.26 73.868 0.13 7.59 34.83 8.32
7/9/2021 7:15:00 PM 23.25 73.85 0.116 7.59 33.28 8.24
7/9/2021 7:30:00 PM 23.26 73.868 0.134 7.57 29.23 8.23
7/9/2021 7:45:00 PM 23.22 73.796 0.128 7.56 32.11 8.18
7/9/2021 8:00:00 PM 23.17 73.706 0.133 7.54 27.43 8.13
7/9/2021 8:15:00 PM 23.12 73.616 0.132 7.53 33.75 8.07
7/9/2021 8:30:00 PM 23.06 73.508 0.129 7.51 75.2 8.05
7/9/2021 8:45:00 PM 23.01 73.418 0.132 7.49 39.95 8.01
7/9/2021 9:00:00 PM 22.95 73.31 0.13 7.48 27.77 7.96
7/9/2021 9:15:00 PM 22.88 73.184 0.131 7.46 23.79 7.93
7/9/2021 9:30:00 PM 22.82 73.076 0.131 7.45 25 7.91
7/9/2021 9:45:00 PM 22.76 72.968 0.13 7.43 25.65 7.86
7/9/2021 10:00:00 PM 22.69 72.842 0.13 7.41 22.82 7.84
7/9/2021 10:15:00 PM 22.61 72.698 0.129 7.4 19.53 7.82
7/9/2021 10:30:00 PM 22.53 72.554 0.129 7.39 22.56 7.82
7/9/2021 10:45:00 PM 22.45 72.41 0.129 7.38 440.61 7.82
7/9/2021 11:00:00 PM 22.35 72.23 0.128 7.38 19.7 7.84
7/9/2021 11:15:00 PM 22.26 72.068 0.128 7.37 20.31 7.84
7/9/2021 11:30:00 PM 22.18 71.924 0.128 7.36 20.42 7.86
7/9/2021 11:45:00 PM 22.09 71.762 0.127 7.36 18.87 7.88
7/10/2021 12:00:00 AM 22 71.6 0.127 7.35 19.02 7.87
7/10/2021 12:15:00 AM 21.89 71.402 0.127 7.34 18.13 7.89
7/10/2021 12:30:00 AM 21.79 71.222 0.127 7.34 19.99 7.9
7/10/2021 12:45:00 AM 21.68 71.024 0.125 7.33 58.51 7.89
7/10/2021 1:00:00 AM 21.57 70.826 0.127 7.31 17.22 7.9
7/10/2021 1:15:00 AM 21.47 70.646 0.127 7.31 16.84 7.89
7/10/2021 1:30:00 AM 21.38 70.484 0.127 7.3 31.64 7.92
7/10/2021 1:45:00 AM 21.3 70.34 0.127 7.3 17.81 7.95
7/10/2021 2:00:00 AM 21.22 70.196 0.124 7.29 68.07 7.98
7/10/2021 2:15:00 AM 21.14 70.052 0.126 7.29 18.01 7.99
7/10/2021 2:30:00 AM 21.06 69.908 0.126 7.29 17.56 8.03
7/10/2021 2:45:00 AM 20.97 69.746 0.126 7.29 17.36 8.06
7/10/2021 3:00:00 AM 20.88 69.584 0.126 7.28 42.97 8.08
7/10/2021 3:15:00 AM 20.79 69.422 0.066 7.27 18.83 8.1
7/10/2021 3:30:00 AM 20.7 69.26 0.126 7.27 18.03 8.12
7/10/2021 3:45:00 AM 20.61 69.098 0.126 7.26 17.22 8.14
7/10/2021 4:00:00 AM 20.53 68.954 0.125 7.26 21.58 8.16
7/10/2021 4:15:00 AM 20.45 68.81 0.125 7.25 58.93 8.19
7/10/2021 4:30:00 AM 20.36 68.648 0.063 7.25 21.09 8.19
7/10/2021 4:45:00 AM 20.29 68.522 0.108 7.25 15.06 8.23
7/10/2021 5:00:00 AM 20.21 68.378 0.125 7.24 17.32 8.24
7/10/2021 5:15:00 AM 20.13 68.234 0.123 7.24 16.6 8.23
7/10/2021 5:30:00 AM 20.06 68.108 0.125 7.24 6.31 8.27
7/10/2021 5:45:00 AM 19.99 67.982 0.125 7.24 16.88 8.28
7/10/2021 6:00:00 AM 19.92 67.856 0.122 7.23 16.33 8.31
7/10/2021 6:15:00 AM 19.85 67.73 0.125 7.23 16.33 8.32
7/10/2021 6:30:00 AM 19.79 67.622 0.125 7.23 15.12 8.35
7/10/2021 6:45:00 AM 19.72 67.496 0.125 7.24 15.4 8.41
7/10/2021 7:00:00 AM 19.67 67.406 0.123 7.24 15.41 8.44
7/10/2021 7:15:00 AM 19.63 67.334 0.125 7.25 4.59 8.48
7/10/2021 7:30:00 AM 19.59 67.262 0.125 7.25 16.25 8.53
7/10/2021 7:45:00 AM 19.56 67.208 0.125 7.27 14.69 8.57
7/10/2021 8:00:00 AM 19.54 67.172 0.125 7.28 14.31 8.64
7/10/2021 8:15:00 AM 19.53 67.154 0.115 7.29 16.24 8.68
7/10/2021 8:30:00 AM 19.52 67.136 0.125 7.3 438.6 8.72
7/10/2021 8:45:00 AM 19.53 67.154 0.125 7.32 13.77 8.79
7/10/2021 9:00:00 AM 19.54 67.172 0.125 7.33 970.62 8.85
7/10/2021 9:15:00 AM 19.56 67.208 0.124 7.35 20.02 8.91
7/10/2021 9:30:00 AM 19.6 67.28 0.125 7.37 12.86 8.97
7/10/2021 9:45:00 AM 19.66 67.388 0.125 7.4 3.68 9.04
7/10/2021 10:00:00 AM 19.71 67.478 0.125 7.42 12.17 9.12
7/10/2021 10:15:00 AM 19.81 67.658 0.123 7.46 63.66 9.21
7/10/2021 10:30:00 AM 19.91 67.838 0.124 7.48 11.53 9.27
7/10/2021 10:45:00 AM 20.05 68.09 0.09 7.52 14.47 9.37
7/10/2021 11:00:00 AM 20.15 68.27 0.068 7.56 11.65 9.45
7/10/2021 11:15:00 AM 20.17 68.306 0.124 7.59 11.08 9.5
7/10/2021 11:30:00 AM 20.21 68.378 0.121 7.61 1.44 9.5
7/10/2021 11:45:00 AM 20.33 68.594 0.088 7.63 11.76 9.55
7/10/2021 12:00:00 PM 20.42 68.756 0.124 7.67 10.49 9.58
7/10/2021 12:15:00 PM 20.42 68.756 0.124 7.68 10.33 9.58
7/10/2021 12:30:00 PM 20.56 69.008 0.124 7.71 876.54 9.66
7/10/2021 12:45:00 PM 20.75 69.35 0.124 7.75 9.84 9.7
7/10/2021 1:00:00 PM 20.9 69.62 0.124 7.77 10.35 9.76
7/10/2021 1:15:00 PM 20.94 69.692 0.124 7.81 76.01 9.76
7/10/2021 1:30:00 PM 21.03 69.854 0.124 7.83 9.4 9.76
7/10/2021 1:45:00 PM 21.12 70.016 0.124 7.85 9.78 9.74
7/10/2021 2:00:00 PM 21.28 70.304 0.066 7.89 10.39 9.78
7/10/2021 2:15:00 PM 21.54 70.772 0.124 7.9 192.86 9.83
7/10/2021 2:30:00 PM 21.64 70.952 0.124 7.96 9.21 9.81
7/10/2021 2:45:00 PM 21.75 71.15 0.124 8.01 1.32 9.78
7/10/2021 3:00:00 PM 21.85 71.33 0.072 8.01 11.02 9.69
7/10/2021 3:15:00 PM 22.08 71.744 0.123 8.03 17.75 9.68
7/10/2021 3:30:00 PM 22.3 72.14 0.124 8.05 9.27 9.66
7/10/2021 3:45:00 PM 22.49 72.482 0.124 8.1 8.57 9.67
7/10/2021 4:00:00 PM 22.61 72.698 0.095 8.14 10.07 9.62
7/10/2021 4:15:00 PM 22.73 72.914 0.124 8.12 24.64 9.54
7/10/2021 4:30:00 PM 22.83 73.094 0.124 8.16 8.71 9.5
7/10/2021 4:45:00 PM 22.88 73.184 0.124 8.17 8.43 9.44
7/10/2021 5:00:00 PM 22.93 73.274 0.124 8.15 9.03 9.39
7/10/2021 5:15:00 PM 22.99 73.382 0.122 8.18 7.9 9.35
7/10/2021 5:30:00 PM 22.93 73.274 0.124 8.17 8.53 9.27
7/10/2021 5:45:00 PM 22.9 73.22 0.124 8.16 16.65 9.2
7/10/2021 6:00:00 PM 22.89 73.202 0.124 8.15 8.63 9.16
7/10/2021 6:15:00 PM 22.86 73.148 0.124 8.12 8.62 9.09
7/10/2021 6:30:00 PM 22.86 73.148 0.124 8.09 8.79 9.01
7/10/2021 6:45:00 PM 22.86 73.148 0.125 8.06 8.02 8.87
7/10/2021 7:00:00 PM 22.84 73.112 0.125 8 7.25 8.83
7/10/2021 7:15:00 PM 22.81 73.058 0.125 7.95 8.43 8.76
7/10/2021 7:30:00 PM 22.77 72.986 0.125 7.91 8.24 8.67
7/10/2021 7:45:00 PM 22.73 72.914 0.125 7.84 9.53 8.6
7/10/2021 8:00:00 PM 22.7 72.86 0.124 7.8 58.56 8.53
7/10/2021 8:15:00 PM 22.66 72.788 0.125 7.75 8.98 8.47
7/10/2021 8:30:00 PM 22.62 72.716 0.125 7.71 8.14 8.4
7/10/2021 8:45:00 PM 22.57 72.626 0.126 7.68 3.07 8.33
7/10/2021 9:00:00 PM 22.5 72.5 0.126 7.63 8.66 8.26
7/10/2021 9:15:00 PM 22.44 72.392 0.125 7.6 8.25 8.19
7/10/2021 9:30:00 PM 22.38 72.284 0.126 7.56 9.31 8.14
7/10/2021 9:45:00 PM 22.31 72.158 0.125 7.53 9.83 8.09
7/10/2021 10:00:00 PM 22.24 72.032 0.077 7.51 9.97 8.05
7/10/2021 10:15:00 PM 22.16 71.888 0.127 7.48 8.66 8
7/10/2021 10:30:00 PM 22.08 71.744 0.127 7.45 8.9 7.99
7/10/2021 10:45:00 PM 22 71.6 0.127 7.44 8.87 7.97
7/10/2021 11:00:00 PM 21.91 71.438 0.127 7.42 8.71 7.98
7/10/2021 11:15:00 PM 21.82 71.276 0.127 7.4 7.59 7.98
7/10/2021 11:30:00 PM 21.73 71.114 0.127 7.39 8.68 7.99
7/10/2021 11:45:00 PM 21.64 70.952 0.128 7.38 318.29 7.99
7/11/2021 12:00:00 AM 21.54 70.772 0.128 7.36 8.55 8
7/11/2021 12:15:00 AM 21.44 70.592 0.128 7.36 7.9 8.01
7/11/2021 12:30:00 AM 21.35 70.43 0.124 7.36 2.27 8.01
7/11/2021 12:45:00 AM 21.25 70.25 0.128 7.35 7.86 8.02
7/11/2021 1:00:00 AM 21.16 70.088 0.128 7.33 8.35 8.04
7/11/2021 1:15:00 AM 21.08 69.944 0.128 7.32 8.05 8.06
7/11/2021 1:30:00 AM 21 69.8 0.128 7.32 7.23 8.07
7/11/2021 1:45:00 AM 20.91 69.638 0.128 7.32 760.15 8.1
7/11/2021 2:00:00 AM 20.84 69.512 0.128 7.31 294.08 8.11
7/11/2021 2:15:00 AM 20.77 69.386 0.126 7.3 7.99 8.12
7/11/2021 2:30:00 AM 20.7 69.26 0.128 7.29 8.04 8.13
7/11/2021 2:45:00 AM 20.63 69.134 0.128 7.29 11.2 8.14
7/11/2021 3:00:00 AM 20.56 69.008 0.066 7.29 8.4 8.15
7/11/2021 3:15:00 AM 20.51 68.918 0.054 7.28 8.28 8.18
7/11/2021 3:30:00 AM 20.45 68.81 0.063 7.28 9.61 8.19
7/11/2021 3:45:00 AM 20.4 68.72 0.129 7.28 8.7 8.2
7/11/2021 4:00:00 AM 20.35 68.63 0.129 7.27 7.7 8.21
7/11/2021 4:15:00 AM 20.29 68.522 0.129 7.27 7.48 8.23
7/11/2021 4:30:00 AM 20.25 68.45 0.095 7.27 7.27 8.25
7/11/2021 4:45:00 AM 20.2 68.36 0.129 7.27 4.39 8.23
7/11/2021 5:00:00 AM 20.16 68.288 0.128 7.27 2.54 8.25
7/11/2021 5:15:00 AM 20.11 68.198 0.111 7.26 57.06 8.23
7/11/2021 5:30:00 AM 20.07 68.126 0.089 7.26 38.19 8.22
7/11/2021 5:45:00 AM 20.03 68.054 0.065 7.26 9.86 8.22
7/11/2021 6:00:00 AM 19.99 67.982 0.056 7.26 7.73 8.21
7/11/2021 6:15:00 AM 19.96 67.92799 0.075 7.26 7.39 8.21
7/11/2021 6:30:00 AM 19.92 67.856 0.13 7.25 6.87 8.25
7/11/2021 6:45:00 AM 19.89 67.802 0.13 7.27 7.63 8.25
7/11/2021 7:00:00 AM 19.86 67.748 0.13 7.27 7.12 8.29
7/11/2021 7:15:00 AM 19.82 67.676 0.129 7.26 7.1 8.37
7/11/2021 7:30:00 AM 19.79 67.622 0.129 7.26 7.37 8.37
7/11/2021 7:45:00 AM 19.76 67.568 0.129 7.27 7.67 8.43
7/11/2021 8:00:00 AM 19.73 67.514 0.129 7.29 28.85 8.46
7/11/2021 8:15:00 AM 19.7 67.46 0.129 7.29 6.79 8.51
7/11/2021 8:30:00 AM 19.68 67.424 0.129 7.3 4.31 8.57
7/11/2021 8:45:00 AM 19.68 67.424 0.102 7.32 67.82 8.65
7/11/2021 9:00:00 AM 19.66 67.388 0.129 7.32 6.2 8.69
7/11/2021 9:15:00 AM 19.66 67.388 0.129 7.34 6.5 8.76
7/11/2021 9:30:00 AM 19.66 67.388 0.129 7.36 6.07 8.84
7/11/2021 9:45:00 AM 19.66 67.388 0.129 7.38 6.37 8.88
7/11/2021 10:00:00 AM 19.66 67.388 0.129 7.4 6.25 8.94
7/11/2021 10:15:00 AM 19.68 67.424 0.129 7.42 6.21 9.02
7/11/2021 10:30:00 AM 19.7 67.46 0.119 7.44 55.27 9.12
7/11/2021 10:45:00 AM 19.72 67.496 0.128 7.45 6.69 9.18
7/11/2021 11:00:00 AM 19.76 67.568 0.129 7.48 6.66 9.26
7/11/2021 11:15:00 AM 19.81 67.658 0.129 7.5 314.2 9.35
7/11/2021 11:30:00 AM 19.82 67.676 0.069 7.53 12.61 9.38
7/11/2021 11:45:00 AM 19.84 67.712 0.128 7.54 5.69 9.39
7/11/2021 12:00:00 PM 19.89 67.802 0.128 7.55 5.83 9.45
7/11/2021 12:15:00 PM 19.92 67.856 0.128 7.58 6.25 9.49
7/11/2021 12:30:00 PM 20.03 68.054 0.128 7.61 6 9.59
7/11/2021 12:45:00 PM 20.12 68.216 0.128 7.66 5.72 9.66
7/11/2021 1:00:00 PM 20.14 68.252 0.128 7.69 5.57 9.67
7/11/2021 1:15:00 PM 20.24 68.432 0.128 7.71 5.63 9.71
7/11/2021 1:30:00 PM 20.35 68.63 0.128 7.76 5.39 9.8
7/11/2021 1:45:00 PM 20.41 68.738 0.128 7.79 5.28 9.81
7/11/2021 2:00:00 PM 20.43 68.774 0.128 7.8 5.1 9.75
7/11/2021 2:15:00 PM 20.49 68.882 0.128 7.81 5.7 9.75
7/11/2021 2:30:00 PM 20.6 69.08 0.128 7.84 5.7 9.79
7/11/2021 2:45:00 PM 20.66 69.188 0.127 7.86 5.38 9.78
7/11/2021 3:00:00 PM 20.69 69.242 0.127 7.85 5.83 9.67
7/11/2021 3:15:00 PM 20.79 69.422 0.127 7.87 20.28 9.69
7/11/2021 3:30:00 PM 20.86 69.548 0.127 7.86 11.06 9.64
7/11/2021 3:45:00 PM 20.95 69.71 0.127 7.87 9.88 9.62
7/11/2021 4:00:00 PM 21.05 69.89 0.127 7.87 8.47 9.64
7/11/2021 4:15:00 PM 21.21 70.17799 0.127 7.93 8.73 9.64
7/11/2021 4:30:00 PM 21.3 70.34 0.126 7.95 5.15 9.66
7/11/2021 4:45:00 PM 21.33 70.394 0.127 7.97 4.12 9.55
7/11/2021 5:00:00 PM 21.38 70.484 0.126 7.95 3.21 9.48
7/11/2021 5:15:00 PM 21.45 70.61 0.126 7.95 3.2 9.44
7/11/2021 5:30:00 PM 21.45 70.61 0.124 7.91 1.7 9.31
7/11/2021 5:45:00 PM 21.46 70.628 0.127 7.82 753.21 9.11
7/11/2021 6:00:00 PM 21.49 70.682 0.127 7.75 1033.12 9.09
7/11/2021 6:15:00 PM 21.49 70.682 0.127 7.71 978.9 9.02
7/11/2021 6:30:00 PM 21.49 70.682 0.127 7.7 442.38 8.89
7/11/2021 6:45:00 PM 21.48 70.664 0.127 7.68 227.36 8.81
7/11/2021 7:00:00 PM 21.48 70.664 0.127 7.66 11.32 8.72
7/11/2021 7:15:00 PM 21.48 70.664 0.124 7.64 1.97 8.65
7/11/2021 7:30:00 PM 21.49 70.682 0.125 7.6 6.47 8.58
7/11/2021 7:45:00 PM 21.49 70.682 0.123 7.58 6.14 8.54
7/11/2021 8:00:00 PM 21.48 70.664 0.084 7.53 9.28 8.49
7/11/2021 8:15:00 PM 21.46 70.628 0.119 7.46 17.36 8.4
7/11/2021 8:30:00 PM 21.44 70.592 0.068 7.41 31.41 8.36
7/11/2021 8:45:00 PM 21.46 70.628 0.077 7.42 138.85 8.34
7/11/2021 9:00:00 PM 21.38 70.484 0.132 7.42 182.11 8.29
7/11/2021 9:15:00 PM 21.25 70.25 0.073 7.52 272.35 8.32
7/11/2021 9:30:00 PM 21.12 70.016 0.136 7.49 299.51 8.29
7/11/2021 9:45:00 PM 21.04 69.872 0.125 7.47 448.18 8.26
7/11/2021 10:00:00 PM 20.85 69.53 0.11 7.36 432.15 8.35
7/11/2021 10:15:00 PM 20.72 69.296 0.105 7.29 435.56 8.41
7/11/2021 10:30:00 PM 20.65 69.17 0.112 7.35 387.57 8.39
7/11/2021 10:45:00 PM 20.6 69.08 0.123 7.56 377.24 8.4
7/11/2021 11:00:00 PM 20.53 68.954 0.124 7.56 401.09 8.46
7/11/2021 11:15:00 PM 20.36 68.648 0.128 7.56 35.09 8.47
7/11/2021 11:30:00 PM 20.26 68.468 0.122 7.46 693.63 8.47
7/11/2021 11:45:00 PM 20.13 68.234 0.116 7.34 691.06 8.51
7/12/2021 12:00:00 AM 19.98 67.964 0.091 7.22 344.62 8.56
7/12/2021 12:15:00 AM 19.82 67.676 0.093 7.16 358.39 8.6
7/12/2021 12:30:00 AM 19.71 67.478 0.087 7.1 337.38 8.64
7/12/2021 12:45:00 AM 19.64 67.352 0.082 7.05 361.85 8.66
7/12/2021 1:00:00 AM 19.58 67.244 0.08 6.99 351.66 8.68
7/12/2021 1:15:00 AM 19.52 67.136 0.079 6.99 391.47 8.7
7/12/2021 1:30:00 AM 19.46 67.028 0.08 6.97 499.27 8.73
7/12/2021 1:45:00 AM 19.41 66.938 0.081 6.96 210.56 8.75
7/12/2021 2:00:00 AM 19.36 66.848 0.078 6.96 229.23 8.77
7/12/2021 2:15:00 AM 19.31 66.758 0.075 6.95 198.04 8.79
7/12/2021 2:30:00 AM 19.27 66.686 0.082 6.96 10.43 8.8
7/12/2021 2:45:00 AM 19.22 66.596 0.078 6.96 170.5 8.82
7/12/2021 3:00:00 AM 19.18 66.524 0.078 6.97 209.94 8.84
7/12/2021 3:15:00 AM 19.13 66.434 0.078 6.97 144.05 8.86
7/12/2021 3:30:00 AM 19.08 66.344 0.085 6.99 31.2 8.87
7/12/2021 3:45:00 AM 19.03 66.254 0.081 7 126.26 8.89
7/12/2021 4:00:00 AM 18.98 66.164 0.081 7 258.51 8.91
7/12/2021 4:15:00 AM 18.93 66.074 0.075 7.02 139.92 8.92
7/12/2021 4:30:00 AM 18.89 66.002 0.084 7.02 120.09 8.92
7/12/2021 4:45:00 AM 18.85 65.93 0.082 7.02 97.22 8.94
7/12/2021 5:00:00 AM 18.8 65.84 0.08 7.03 56.73 8.96
7/12/2021 5:15:00 AM 18.76 65.768 0.083 7.03 160.29 8.97
7/12/2021 5:30:00 AM 18.72 65.696 0.082 7.03 95.35 8.98
7/12/2021 5:45:00 AM 18.68 65.624 0.083 7.04 104.45 8.99
7/12/2021 6:00:00 AM 18.64 65.552 0.083 7.05 93.23 9
7/12/2021 6:15:00 AM 18.6 65.48 0.085 7.05 76.84 9.02
7/12/2021 6:30:00 AM 18.56 65.408 0.085 7.07 84.57 9.02
7/12/2021 6:45:00 AM 18.52 65.336 0.082 7.06 68.48 9.04
7/12/2021 7:00:00 AM 18.49 65.282 0.085 7.07 464.32 9.05
7/12/2021 7:15:00 AM 18.46 65.228 0.084 7.08 244.84 9.07
7/12/2021 7:30:00 AM 18.43 65.174 0.084 7.09 375.6 9.09
7/12/2021 7:45:00 AM 18.41 65.138 0.084 7.09 279.97 9.11
7/12/2021 8:00:00 AM 18.39 65.102 0.079 7.1 58.2 9.13
7/12/2021 8:15:00 AM 18.36 65.048 0.077 7.1 62.42 9.15
7/12/2021 8:30:00 AM 18.34 65.012 0.079 7.11 53.28 9.17
7/12/2021 8:45:00 AM 18.32 64.976 0.078 7.12 49.01 9.19
7/12/2021 9:00:00 AM 18.31 64.958 0.077 7.12 50.37 9.21
7/12/2021 9:15:00 AM 18.3 64.94 0.081 7.13 124.15 9.23
7/12/2021 9:30:00 AM 18.3 64.94 0.08 7.14 44.89 9.26
7/12/2021 9:45:00 AM 18.31 64.958 0.078 7.15 40.63 9.3
7/12/2021 10:00:00 AM 18.33 64.994 0.079 7.16 40.5 9.32
7/12/2021 10:15:00 AM 18.36 65.048 0.08 7.18 48.37 9.36
7/12/2021 10:30:00 AM 18.4 65.12 0.08 7.18 45.95 9.39
7/12/2021 10:45:00 AM 18.47 65.246 0.076 7.2 110.74 9.43
7/12/2021 11:00:00 AM 18.53 65.354 0.078 7.23 33 9.45
7/12/2021 11:15:00 AM 18.58 65.444 0.079 7.24 33.35 9.47
7/12/2021 11:30:00 AM 18.6 65.48 0.079 7.25 67.11 9.49
7/12/2021 11:45:00 AM 18.61 65.498 0.079 7.26 34.35 9.49
7/12/2021 12:00:00 PM 18.74 65.732 0.079 7.27 37.79 9.53
7/12/2021 12:15:00 PM 18.85 65.93 0.078 7.29 27.59 9.54
7/12/2021 12:30:00 PM 18.96 66.128 0.076 7.31 30.88 9.54
7/12/2021 12:45:00 PM 18.96 66.128 0.079 7.32 26.59 9.55
7/12/2021 1:00:00 PM 19.05 66.29 0.081 7.34 12.08 9.58
7/12/2021 1:15:00 PM 19.17 66.506 0.074 7.35 30.5 9.58
7/12/2021 1:30:00 PM 19.3 66.74 0.08 7.38 2.81 9.57
7/12/2021 1:45:00 PM 19.5 67.1 0.075 7.39 37.43 9.61
7/12/2021 2:00:00 PM 19.6 67.28 0.078 7.39 26.17 9.58
7/12/2021 2:15:00 PM 19.6 67.28 0.078 7.39 26.39 9.57
7/12/2021 2:30:00 PM 19.51 67.118 0.074 7.38 67.35 9.51
7/12/2021 2:45:00 PM 19.45 67.01 0.078 7.36 6.72 9.47
7/12/2021 3:00:00 PM 19.41 66.938 0.074 7.35 21.72 9.46
7/12/2021 3:15:00 PM 19.49 67.082 0.074 7.35 24.42 9.47
7/12/2021 3:30:00 PM 19.5 67.1 0.08 7.36 23.37 9.46
7/12/2021 3:45:00 PM 19.48 67.064 0.08 7.36 26.07 9.43
7/12/2021 4:00:00 PM 19.56 67.208 0.08 7.37 22.82 9.46
7/12/2021 4:15:00 PM 19.66 67.388 0.08 7.37 21.33 9.44
7/12/2021 4:30:00 PM 19.74 67.532 0.08 7.37 19.09 9.43
7/12/2021 4:45:00 PM 19.76 67.568 0.08 7.37 29.47 9.42
7/12/2021 5:00:00 PM 19.73 67.514 0.08 7.36 21.51 9.38
7/12/2021 5:15:00 PM 19.76 67.568 0.08 7.37 21.69 9.34
7/12/2021 5:30:00 PM 19.79 67.622 0.08 7.36 22.16 9.34
7/12/2021 5:45:00 PM 19.83 67.694 0.08 7.34 22.4 9.34
7/12/2021 6:00:00 PM 19.84 67.712 0.08 7.34 20.4 9.29
7/12/2021 6:15:00 PM 19.84 67.712 0.08 7.34 21.72 9.29
7/12/2021 6:30:00 PM 19.81 67.658 0.08 7.32 21.25 9.27
7/12/2021 6:45:00 PM 19.76 67.568 0.08 7.31 22.09 9.22
7/12/2021 7:00:00 PM 19.71 67.478 0.08 7.29 22.04 9.17
7/12/2021 7:15:00 PM 19.67 67.406 0.08 7.28 22.07 9.15
7/12/2021 7:30:00 PM 19.63 67.334 0.08 7.26 23.25 9.13
7/12/2021 7:45:00 PM 19.59 67.262 0.08 7.25 22.13 9.12
7/12/2021 8:00:00 PM 19.55 67.19 0.08 7.25 22.96 9.1
7/12/2021 8:15:00 PM 19.5 67.1 0.08 7.24 21.48 9.08
7/12/2021 8:30:00 PM 19.46 67.028 0.079 7.23 21.03 9.1
7/12/2021 8:45:00 PM 19.4 66.92 0.079 7.22 24.86 9.07
7/12/2021 9:00:00 PM 19.34 66.812 0.079 7.2 21.82 9.09
7/12/2021 9:15:00 PM 19.27 66.686 0.079 7.19 23.39 9
7/12/2021 9:30:00 PM 19.2 66.56 0.079 7.18 22.85 9.02
7/12/2021 9:45:00 PM 19.13 66.434 0.079 7.16 22.1 9.06
7/12/2021 10:00:00 PM 19.07 66.326 0.079 7.14 25.35 9.07
7/12/2021 10:15:00 PM 19.01 66.218 0.079 7.13 23.86 9.06
7/12/2021 10:30:00 PM 18.95 66.11 0.079 7.13 24.65 9.07
7/12/2021 10:45:00 PM 18.88 65.984 0.079 7.11 22.81 9.05
7/12/2021 11:00:00 PM 18.82 65.876 0.078 7.11 24.17 9.08
7/12/2021 11:15:00 PM 18.75 65.75 0.078 7.11 27.24 9.12
7/12/2021 11:30:00 PM 18.68 65.624 0.078 7.11 34.91 9.15
7/12/2021 11:45:00 PM 18.61 65.498 0.077 7.1 30.91 9.17
7/13/2021 12:00:00 AM 18.52 65.336 0.076 7.09 35.7 9.2
7/13/2021 12:15:00 AM 18.44 65.192 0.076 7.07 84.5 9.21
7/13/2021 12:30:00 AM 18.36 65.048 0.076 7.07 360.66 9.24
7/13/2021 12:45:00 AM 18.28 64.904 0.075 7.07 618.43 9.26
7/13/2021 1:00:00 AM 18.2 64.76 0.075 7.07 398.12 9.26
7/13/2021 1:15:00 AM 18.12 64.616 0.074 7.06 362.98 9.28
7/13/2021 1:30:00 AM 18.06 64.508 0.073 7.04 238.82 9.29
7/13/2021 1:45:00 AM 17.99 64.382 0.072 7.04 132.33 9.31
7/13/2021 2:00:00 AM 17.93 64.274 0.072 7.03 27.28 9.32
7/13/2021 2:15:00 AM 17.88 64.184 0.071 7.02 11.64 9.33
7/13/2021 2:30:00 AM 17.86 64.148 0.068 7.01 97.8 9.34
7/13/2021 2:45:00 AM 17.84 64.112 0.064 7.02 710.16 9.31
7/13/2021 3:00:00 AM 17.82 64.076 0.055 7.02 466.14 9.34
7/13/2021 3:15:00 AM 17.79 64.022 0.045 7.03 100.56 9.35
7/13/2021 3:30:00 AM 17.78 64.004 0.037 7.03 35.35 9.35
7/13/2021 3:45:00 AM 17.76 63.968 0.038 7.03 31.4 9.35
7/13/2021 4:00:00 AM 17.74 63.932 0.047 7.04 30.26 9.36
7/13/2021 4:15:00 AM 17.71 63.878 0.064 7.04 31.5 9.36
7/13/2021 4:30:00 AM 17.69 63.842 0.076 7.05 31.55 9.36
7/13/2021 4:45:00 AM 17.68 63.824 0.079 7.06 32.49 9.36
7/13/2021 5:00:00 AM 17.66 63.788 0.079 7.06 35.44 9.36
7/13/2021 5:15:00 AM 17.64 63.752 0.08 7.07 33.66 9.35
7/13/2021 5:30:00 AM 17.6 63.68 0.08 7.06 31.54 9.34
7/13/2021 5:45:00 AM 17.57 63.626 0.079 7.06 32.04 9.37
7/13/2021 6:00:00 AM 17.53 63.554 0.079 7.05 30.8 9.38
7/13/2021 6:15:00 AM 17.49 63.482 0.079 7.05 28.42 9.4
7/13/2021 6:30:00 AM 17.45 63.41 0.078 7.05 28.42 9.42
7/13/2021 6:45:00 AM 17.41 63.338 0.078 7.05 28.77 9.43
7/13/2021 7:00:00 AM 17.37 63.266 0.078 7.05 26.53 9.44
7/13/2021 7:15:00 AM 17.33 63.194 0.077 7.04 26.39 9.47
7/13/2021 7:30:00 AM 17.31 63.158 0.075 7.03 29.51 9.47
7/13/2021 7:45:00 AM 17.3 63.14 0.077 7.05 21.19 9.52
7/13/2021 8:00:00 AM 17.29 63.122 0.078 7.06 24.65 9.54
7/13/2021 8:15:00 AM 17.31 63.158 0.078 7.07 19.46 9.58
7/13/2021 8:30:00 AM 17.3 63.14 0.078 7.09 22.63 9.58
7/13/2021 8:45:00 AM 17.33 63.194 0.078 7.1 25.06 9.65
7/13/2021 9:00:00 AM 17.37 63.266 0.078 7.12 21.22 9.67
7/13/2021 9:15:00 AM 17.41 63.338 0.078 7.14 19.84 9.72
7/13/2021 9:30:00 AM 17.47 63.446 0.078 7.16 21.74 9.73
7/13/2021 9:45:00 AM 17.5 63.5 0.078 7.17 226.7 9.78
7/13/2021 10:00:00 AM 17.54 63.572 0.072 7.18 26.9 9.76
7/13/2021 10:15:00 AM 17.58 63.644 0.078 7.21 45.68 9.77
7/13/2021 10:30:00 AM 17.67 63.806 0.077 7.24 4.68 9.8
7/13/2021 10:45:00 AM 17.77 63.986 0.075 7.25 3.44 9.74
7/13/2021 11:00:00 AM 17.87 64.166 0.071 7.28 116.72 9.78
7/13/2021 11:15:00 AM 17.97 64.346 0.065 7.29 206.89 9.82
7/13/2021 11:30:00 AM 18.12 64.616 0.053 7.3 388 9.87
7/13/2021 11:45:00 AM 18.2 64.76 0.041 7.33 79.7 9.85
7/13/2021 12:00:00 PM 18.33 64.994 0.035 7.34 20.37 9.84
7/13/2021 12:15:00 PM 18.4 65.12 0.039 7.34 20.19 9.78
7/13/2021 12:30:00 PM 18.48 65.264 0.051 7.35 16.22 9.78
7/13/2021 12:45:00 PM 18.61 65.498 0.065 7.36 15.32 9.79
7/13/2021 1:00:00 PM 18.68 65.624 0.074 7.37 14.24 9.76
7/13/2021 1:15:00 PM 18.78 65.804 0.076 7.37 15.22 9.78
7/13/2021 1:30:00 PM 18.82 65.876 0.076 7.38 14.23 9.75
7/13/2021 1:45:00 PM 18.99 66.182 0.076 7.39 13.37 9.76
7/13/2021 2:00:00 PM 19.23 66.614 0.076 7.41 13.07 9.74
7/13/2021 2:15:00 PM 19.3 66.74 0.076 7.42 14.08 9.72
7/13/2021 2:30:00 PM 19.43 66.974 0.076 7.43 14.05 9.76
7/13/2021 2:45:00 PM 19.61 67.298 0.076 7.45 13.67 9.74
7/13/2021 3:00:00 PM 19.68 67.424 0.076 7.44 16.45 9.65
7/13/2021 3:15:00 PM 19.74 67.532 0.076 7.43 13.26 9.57
7/13/2021 3:30:00 PM 19.73 67.514 0.076 7.4 13.49 9.5
7/13/2021 3:45:00 PM 19.74 67.532 0.076 7.4 13.33 9.51
7/13/2021 4:00:00 PM 19.7 67.46 0.076 7.38 14.07 9.49
7/13/2021 4:15:00 PM 19.7 67.46 0.076 7.39 11.95 9.49
7/13/2021 4:30:00 PM 19.78 67.604 0.076 7.38 13.72 9.46
7/13/2021 4:45:00 PM 19.87 67.766 0.076 7.38 13.04 9.44
7/13/2021 5:00:00 PM 19.97 67.946 0.076 7.37 14.46 9.38
7/13/2021 5:15:00 PM 20 68 0.076 7.36 13.17 9.31
7/13/2021 5:30:00 PM 20.03 68.054 0.076 7.34 14.24 9.3
7/13/2021 5:45:00 PM 20.07 68.126 0.076 7.34 13.47 9.24
7/13/2021 6:00:00 PM 20.05 68.09 0.076 7.32 13.86 9.2
7/13/2021 6:15:00 PM 20.02 68.036 0.076 7.31 14.61 9.16
7/13/2021 6:30:00 PM 19.99 67.982 0.076 7.29 14.47 9.15
7/13/2021 6:45:00 PM 19.96 67.92799 0.076 7.28 14.81 9.13
7/13/2021 7:00:00 PM 19.96 67.92799 0.076 7.26 16.3 9.11
7/13/2021 7:15:00 PM 19.94 67.892 0.076 7.25 14.83 9.07
7/13/2021 7:30:00 PM 19.95 67.91 0.076 7.24 13.88 9.04
7/13/2021 7:45:00 PM 19.96 67.92799 0.076 7.22 17.31 8.97
7/13/2021 8:00:00 PM 19.92 67.856 0.076 7.21 15.26 8.97
7/13/2021 8:15:00 PM 19.86 67.748 0.076 7.2 15.97 8.96
7/13/2021 8:30:00 PM 19.8 67.64 0.075 7.19 16.27 8.87
7/13/2021 8:45:00 PM 19.74 67.532 0.076 7.17 17.75 8.94
7/13/2021 9:00:00 PM 19.67 67.406 0.075 7.17 17.46 8.91
7/13/2021 9:15:00 PM 19.61 67.298 0.076 7.16 18.17 8.92
7/13/2021 9:30:00 PM 19.55 67.19 0.076 7.15 20.24 8.91
7/13/2021 9:45:00 PM 19.47 67.046 0.076 7.14 22 8.92
7/13/2021 10:00:00 PM 19.39 66.902 0.076 7.13 53.01 8.93
7/13/2021 10:15:00 PM 19.31 66.758 0.077 7.12 25.67 8.94
7/13/2021 10:30:00 PM 19.24 66.632 0.077 7.1 30.96 8.97
7/13/2021 10:45:00 PM 19.18 66.524 0.077 7.08 92.36 8.99
7/13/2021 11:00:00 PM 19.13 66.434 0.079 7.12 233.21 8.98
7/13/2021 11:15:00 PM 19.05 66.29 0.085 7.2 497.92 9.01
7/13/2021 11:30:00 PM 18.97 66.146 0.089 7.29 381.58 9.03
7/13/2021 11:45:00 PM 18.88 65.984 0.09 7.33 402.68 9.06
7/14/2021 12:00:00 AM 18.78 65.804 0.089 7.33 358.14 9.09
7/14/2021 12:15:00 AM 18.67 65.606 0.087 7.27 411.55 9.11
7/14/2021 12:30:00 AM 18.55 65.39 0.085 7.23 407.23 9.15
7/14/2021 12:45:00 AM 18.37 65.066 0.084 7.23 320.82 9.19
7/14/2021 1:00:00 AM 18.2 64.76 0.083 7.2 75.98 9.23
7/14/2021 1:15:00 AM 18.12 64.616 0.085 7.17 13.21 9.25
7/14/2021 1:30:00 AM 18.13 64.634 0.086 7.13 20.93 9.23
7/14/2021 1:45:00 AM 18.17 64.706 0.08 7.14 240.56 9.2
7/14/2021 2:00:00 AM 18.2 64.76 0.073 7.14 460.97 9.18
7/14/2021 2:15:00 AM 18.24 64.832 0.06 7.13 508.7 9.15
7/14/2021 2:30:00 AM 18.28 64.904 0.048 7.12 293.08 9.13
7/14/2021 2:45:00 AM 18.3 64.94 0.042 7.13 291.46 9.14
7/14/2021 3:00:00 AM 18.3 64.94 0.042 7.12 242.55 9.14
7/14/2021 3:15:00 AM 18.3 64.94 0.053 7.12 208.95 9.15
7/14/2021 3:30:00 AM 18.29 64.922 0.068 7.14 194.29 9.14
7/14/2021 3:45:00 AM 18.29 64.922 0.08 7.15 190.72 9.15
7/14/2021 4:00:00 AM 18.27 64.886 0.084 7.14 181.98 9.15
7/14/2021 4:15:00 AM 18.24 64.832 0.085 7.15 188.08 9.16
7/14/2021 4:30:00 AM 18.19 64.742 0.085 7.15 207.27 9.16
7/14/2021 4:45:00 AM 18.13 64.634 0.083 7.14 167.71 9.19
7/14/2021 5:00:00 AM 18.06 64.508 0.082 7.14 142.95 9.21
7/14/2021 5:15:00 AM 18 64.4 0.081 7.14 141.02 9.22
7/14/2021 5:30:00 AM 17.94 64.292 0.08 7.14 153.96 9.24
7/14/2021 5:45:00 AM 17.87 64.166 0.08 7.13 108.99 9.27
7/14/2021 6:00:00 AM 17.81 64.058 0.079 7.14 101.4 9.3
7/14/2021 6:15:00 AM 17.75 63.95 0.079 7.13 85.87 9.31
7/14/2021 6:30:00 AM 17.69 63.842 0.079 7.13 95.91 9.33
7/14/2021 6:45:00 AM 17.62 63.716 0.079 7.13 77.12 9.35
7/14/2021 7:00:00 AM 17.56 63.608 0.079 7.12 66.48 9.38
7/14/2021 7:15:00 AM 17.51 63.518 0.079 7.13 63.12 9.39
7/14/2021 7:30:00 AM 17.45 63.41 0.079 7.13 55.09 9.41
7/14/2021 7:45:00 AM 17.41 63.338 0.079 7.13 64.27 9.44
7/14/2021 8:00:00 AM 17.36 63.248 0.079 7.14 50.87 9.47
7/14/2021 8:15:00 AM 17.31 63.158 0.079 7.14 63.36 9.49
7/14/2021 8:30:00 AM 17.26 63.068 0.079 7.13 44.57 9.5
7/14/2021 8:45:00 AM 17.21 62.978 0.078 7.13 42.43 9.55
7/14/2021 9:00:00 AM 17.17 62.906 0.078 7.14 41 9.55
7/14/2021 9:15:00 AM 17.14 62.852 0.078 7.14 37.49 9.58
7/14/2021 9:30:00 AM 17.14 62.852 0.078 7.15 36.05 9.63
7/14/2021 9:45:00 AM 17.13 62.834 0.078 7.16 37.63 9.64
7/14/2021 10:00:00 AM 17.12 62.816 0.078 7.16 30.16 9.69
7/14/2021 10:15:00 AM 17.12 62.816 0.078 7.18 31.32 9.73
7/14/2021 10:30:00 AM 17.17 62.906 0.078 7.19 37.01 9.77
7/14/2021 10:45:00 AM 17.19 62.942 0.078 7.2 29.51 9.8
7/14/2021 11:00:00 AM 17.18 62.924 0.078 7.22 29.3 9.82
7/14/2021 11:15:00 AM 17.19 62.942 0.078 7.22 27.87 9.84
7/14/2021 11:30:00 AM 17.21 62.978 0.078 7.24 28.17 9.85
7/14/2021 11:45:00 AM 17.19 62.942 0.078 7.24 26.15 9.85
7/14/2021 12:00:00 PM 17.22 62.996 0.078 7.25 25.39 9.88
7/14/2021 12:15:00 PM 17.27 63.086 0.078 7.26 23.46 9.91
7/14/2021 12:30:00 PM 17.33 63.194 0.078 7.27 23.79 9.94
7/14/2021 12:45:00 PM 17.45 63.41 0.078 7.29 22.5 9.97
7/14/2021 1:00:00 PM 17.59 63.662 0.078 7.3 24.01 9.99
7/14/2021 1:15:00 PM 17.65 63.77 0.078 7.3 22.46 9.98
7/14/2021 1:30:00 PM 17.73 63.914 0.078 7.29 19.98 9.99
7/14/2021 1:45:00 PM 17.9 64.22 0.077 7.26 338.89 10.01
7/14/2021 2:00:00 PM 18.09 64.562 0.077 7.3 591.78 9.99
7/14/2021 2:15:00 PM 18.2 64.76 0.077 7.36 775.74 9.99
7/14/2021 2:30:00 PM 18.26 64.868 0.077 7.42 575.17 9.96
7/14/2021 2:45:00 PM 18.32 64.976 0.077 7.44 547.62 9.95
7/14/2021 3:00:00 PM 18.38 65.084 0.077 7.45 183.33 9.93
7/14/2021 3:15:00 PM 18.33 64.994 0.077 7.45 111.59 9.89
7/14/2021 3:30:00 PM 18.31 64.958 0.076 7.45 21.66 9.86
7/14/2021 3:45:00 PM 18.37 65.066 0.074 7.45 28.68 9.85
7/14/2021 4:00:00 PM 18.46 65.228 0.071 7.45 255.55 9.86
7/14/2021 4:15:00 PM 18.53 65.354 0.066 7.46 838.97 9.84
7/14/2021 4:30:00 PM 18.54 65.372 0.056 7.46 349.05 9.81
7/14/2021 4:45:00 PM 18.52 65.336 0.047 7.43 36.41 9.76
7/14/2021 5:00:00 PM 18.56 65.408 0.041 7.43 23.64 9.73
7/14/2021 5:15:00 PM 18.58 65.444 0.039 7.41 20.36 9.68
7/14/2021 5:30:00 PM 18.52 65.336 0.046 7.39 21.8 9.64
7/14/2021 5:45:00 PM 18.47 65.246 0.06 7.37 20.08 9.61
7/14/2021 6:00:00 PM 18.44 65.192 0.071 7.35 19.57 9.61
7/14/2021 6:15:00 PM 18.4 65.12 0.074 7.35 19.68 9.58
7/14/2021 6:30:00 PM 18.37 65.066 0.075 7.33 19.97 9.58
7/14/2021 6:45:00 PM 18.33 64.994 0.075 7.31 19.95 9.56
7/14/2021 7:00:00 PM 18.3 64.94 0.075 7.31 20.2 9.52
7/14/2021 7:15:00 PM 18.27 64.886 0.075 7.3 20.3 9.51
7/14/2021 7:30:00 PM 18.25 64.85 0.075 7.27 20.36 9.5
7/14/2021 7:45:00 PM 18.21 64.778 0.075 7.26 21.27 9.49
7/14/2021 8:00:00 PM 18.17 64.706 0.075 7.25 20.66 9.47
7/14/2021 8:15:00 PM 18.11 64.598 0.075 7.23 18.69 9.45
7/14/2021 8:30:00 PM 18.06 64.508 0.075 7.22 20.39 9.4
7/14/2021 8:45:00 PM 18 64.4 0.075 7.21 21.74 9.42
7/14/2021 9:00:00 PM 17.94 64.292 0.075 7.19 20.28 9.4
7/14/2021 9:15:00 PM 17.89 64.202 0.075 7.18 18.76 9.39
7/14/2021 9:30:00 PM 17.84 64.112 0.075 7.16 20.79 9.39
7/14/2021 9:45:00 PM 17.79 64.022 0.075 7.15 20.34 9.39
7/14/2021 10:00:00 PM 17.74 63.932 0.075 7.15 22.19 9.36
7/14/2021 10:15:00 PM 17.69 63.842 0.075 7.15 18.87 9.38
7/14/2021 10:30:00 PM 17.63 63.734 0.075 7.13 20.56 9.42
7/14/2021 10:45:00 PM 17.57 63.626 0.075 7.12 20.29 9.43
7/14/2021 11:00:00 PM 17.51 63.518 0.075 7.12 22.05 9.44
7/14/2021 11:15:00 PM 17.46 63.428 0.075 7.11 19.82 9.45
7/14/2021 11:30:00 PM 17.41 63.338 0.075 7.11 19.72 9.45
7/14/2021 11:45:00 PM 17.35 63.23 0.075 7.11 19.36 9.48
7/15/2021 12:00:00 AM 17.3 63.14 0.075 7.1 24.37 9.48
7/15/2021 12:15:00 AM 17.25 63.05 0.075 7.09 19.23 9.48
7/15/2021 12:30:00 AM 17.2 62.96 0.075 7.09 19.84 9.5
7/15/2021 12:45:00 AM 17.14 62.852 0.075 7.09 19.44 9.52
7/15/2021 1:00:00 AM 17.07 62.726 0.075 7.08 20.21 9.54
7/15/2021 1:15:00 AM 17.01 62.618 0.075 7.07 19.39 9.55
7/15/2021 1:30:00 AM 16.95 62.51 0.075 7.07 19.49 9.55
7/15/2021 1:45:00 AM 16.89 62.402 0.075 7.06 20.05 9.58
7/15/2021 2:00:00 AM 16.83 62.294 0.075 7.06 18.75 9.57
7/15/2021 2:15:00 AM 16.77 62.186 0.074 7.06 18.35 9.61
7/15/2021 2:30:00 AM 16.71 62.078 0.075 7.05 18.3 9.6
7/15/2021 2:45:00 AM 16.66 61.988 0.074 7.03 18.62 9.62
7/15/2021 3:00:00 AM 16.61 61.898 0.07 7.02 24.3 9.64
7/15/2021 3:15:00 AM 16.56 61.808 0.074 7.04 8.37 9.66
7/15/2021 3:30:00 AM 16.52 61.736 0.073 7.04 4.17 9.65
7/15/2021 3:45:00 AM 16.47 61.646 0.072 7.04 5.7 9.66
7/15/2021 4:00:00 AM 16.42 61.556 0.071 7.04 41 9.69
7/15/2021 4:15:00 AM 16.36 61.448 0.069 7.04 97.56 9.7
7/15/2021 4:30:00 AM 16.31 61.358 0.064 7.04 272.89 9.71
7/15/2021 4:45:00 AM 16.26 61.268 0.055 7.05 369.04 9.73
7/15/2021 5:00:00 AM 16.21 61.178 0.044 7.04 92.45 9.76
7/15/2021 5:15:00 AM 16.17 61.106 0.038 7.04 21.22 9.76
7/15/2021 5:30:00 AM 16.12 61.016 0.038 7.04 19.5 9.78
7/15/2021 5:45:00 AM 16.07 60.926 0.041 7.04 17.54 9.78
7/15/2021 6:00:00 AM 16.03 60.854 0.045 7.04 17.53 9.78
7/15/2021 6:15:00 AM 15.98 60.764 0.05 7.04 17.06 9.8
7/15/2021 6:30:00 AM 15.93 60.674 0.056 7.04 16.01 9.83
7/15/2021 6:45:00 AM 15.89 60.602 0.068 7.05 16.65 9.84
7/15/2021 7:00:00 AM 15.85 60.53 0.073 7.05 16.36 9.86
7/15/2021 7:15:00 AM 15.82 60.476 0.074 7.05 16.9 9.88
7/15/2021 7:30:00 AM 15.79 60.422 0.074 7.06 16.4 9.89
7/15/2021 7:45:00 AM 15.75 60.35 0.074 7.06 19.34 9.92
7/15/2021 8:00:00 AM 15.73 60.314 0.074 7.07 15.64 9.93
7/15/2021 8:15:00 AM 15.71 60.278 0.074 7.07 15.42 9.95
7/15/2021 8:30:00 AM 15.7 60.26 0.074 7.08 14.79 10
7/15/2021 8:45:00 AM 15.68 60.224 0.074 7.1 15.04 10.03
7/15/2021 9:00:00 AM 15.69 60.242 0.074 7.11 14.61 10.07
7/15/2021 9:15:00 AM 15.68 60.224 0.074 7.13 14.26 10.1
7/15/2021 9:30:00 AM 15.67 60.206 0.074 7.12 14.68 10.12
7/15/2021 9:45:00 AM 15.69 60.242 0.074 7.15 13.69 10.15
7/15/2021 10:00:00 AM 15.74 60.332 0.074 7.16 13.8 10.21
7/15/2021 10:15:00 AM 15.79 60.422 0.074 7.16 13.39 10.25
7/15/2021 10:30:00 AM 15.88 60.584 0.074 7.21 12.9 10.27
7/15/2021 10:45:00 AM 15.97 60.746 0.074 7.23 13.25 10.31
7/15/2021 11:00:00 AM 16.09 60.962 0.074 7.26 13.58 10.33
7/15/2021 11:15:00 AM 16.19 61.142 0.074 7.29 12.2 10.33
7/15/2021 11:30:00 AM 16.32 61.376 0.074 7.31 11.59 10.35
7/15/2021 11:45:00 AM 16.47 61.646 0.074 7.34 11.81 10.34
7/15/2021 12:00:00 PM 16.63 61.934 0.074 7.36 11.25 10.37
7/15/2021 12:15:00 PM 16.66 61.988 0.074 7.37 12.04 10.32
7/15/2021 12:30:00 PM 16.71 62.078 0.074 7.38 11.4 10.29
7/15/2021 12:45:00 PM 16.78 62.204 0.074 7.39 10.95 10.29
7/15/2021 1:00:00 PM 16.8 62.24 0.074 7.38 11.8 10.24
7/15/2021 1:15:00 PM 16.83 62.294 0.068 7.36 13.46 10.25
7/15/2021 1:30:00 PM 16.85 62.33 0.072 7.39 180.02 10.27
7/15/2021 1:45:00 PM 17.01 62.618 0.073 7.4 10.56 10.25
7/15/2021 2:00:00 PM 17.17 62.906 0.073 7.42 10.44 10.26
7/15/2021 2:15:00 PM 17.35 63.23 0.073 7.44 10.21 10.24
7/15/2021 2:30:00 PM 17.5 63.5 0.073 7.46 10.59 10.22
7/15/2021 2:45:00 PM 17.52 63.536 0.073 7.47 10.73 10.18
7/15/2021 3:00:00 PM 17.52 63.536 0.073 7.46 10.97 10.17
7/15/2021 3:15:00 PM 17.55 63.59 0.073 7.46 10.73 10.15
7/15/2021 3:30:00 PM 17.57 63.626 0.073 7.46 11 10.11
7/15/2021 3:45:00 PM 17.62 63.716 0.073 7.45 10.16 10.11
7/15/2021 4:00:00 PM 17.72 63.896 0.073 7.46 10.86 10.08
7/15/2021 4:15:00 PM 17.82 64.076 0.073 7.47 10.71 10.06
7/15/2021 4:30:00 PM 17.9 64.22 0.073 7.47 11.19 10.03
7/15/2021 4:45:00 PM 17.94 64.292 0.073 7.46 10.79 10.02
7/15/2021 5:00:00 PM 17.99 64.382 0.073 7.46 11.94 9.97
7/15/2021 5:15:00 PM 18.04 64.472 0.073 7.45 11.41 9.94
7/15/2021 5:30:00 PM 18.06 64.508 0.073 7.43 11.28 9.88
7/15/2021 5:45:00 PM 18.06 64.508 0.073 7.41 11.56 9.85
7/15/2021 6:00:00 PM 18.07 64.526 0.071 7.39 14.03 9.82
7/15/2021 6:15:00 PM 18.08 64.544 0.071 7.38 12.96 9.8
7/15/2021 6:30:00 PM 18.07 64.526 0.071 7.37 12.86 9.75
7/15/2021 6:45:00 PM 18.05 64.49 0.035 7.36 12.15 9.7
7/15/2021 7:00:00 PM 18.05 64.49 0.04 7.34 12.01 9.69
7/15/2021 7:15:00 PM 18.04 64.472 0.055 7.32 11.99 9.66
7/15/2021 7:30:00 PM 18.02 64.436 0.069 7.3 11.89 9.63
7/15/2021 7:45:00 PM 18 64.4 0.072 7.28 13.19 9.59
7/15/2021 8:00:00 PM 17.97 64.346 0.073 7.27 11.87 9.56
7/15/2021 8:15:00 PM 17.94 64.292 0.074 7.25 12.24 9.5
7/15/2021 8:30:00 PM 17.89 64.202 0.074 7.22 11.93 9.47
7/15/2021 8:45:00 PM 17.83 64.094 0.074 7.21 11.97 9.45
7/15/2021 9:00:00 PM 17.78 64.004 0.074 7.18 13.68 9.43
7/15/2021 9:15:00 PM 17.74 63.932 0.075 7.17 12.92 9.41
7/15/2021 9:30:00 PM 17.69 63.842 0.075 7.16 13.17 9.39
7/15/2021 9:45:00 PM 17.65 63.77 0.075 7.14 13.15 9.4
7/15/2021 10:00:00 PM 17.6 63.68 0.075 7.13 13.56 9.39
7/15/2021 10:15:00 PM 17.57 63.626 0.075 7.12 12.28 9.38
7/15/2021 10:30:00 PM 17.53 63.554 0.075 7.12 12.61 9.37
7/15/2021 10:45:00 PM 17.49 63.482 0.075 7.11 12.35 9.39
7/15/2021 11:00:00 PM 17.45 63.41 0.075 7.1 13.39 9.4
7/15/2021 11:15:00 PM 17.41 63.338 0.075 7.1 13.53 9.4
7/15/2021 11:30:00 PM 17.36 63.248 0.075 7.09 12.75 9.42
7/15/2021 11:45:00 PM 17.32 63.176 0.075 7.08 12.69 9.38
7/16/2021 12:00:00 AM 17.28 63.104 0.075 7.03 13.15 9.42
7/16/2021 12:15:00 AM 17.23 63.014 0.075 7.04 12.61 9.42
7/16/2021 12:30:00 AM 17.2 62.96 0.075 7.05 12.04 9.42
7/16/2021 12:45:00 AM 17.15 62.87 0.075 7.05 13.21 9.4
7/16/2021 1:00:00 AM 17.11 62.798 0.075 7.03 13.35 9.45
7/16/2021 1:15:00 AM 17.06 62.708 0.075 7.03 11.89 9.46
7/16/2021 1:30:00 AM 17.01 62.618 0.076 6.85 11.53 9.46
7/16/2021 1:45:00 AM 16.97 62.546 0.076 6.65 12.08 9.41
7/16/2021 2:00:00 AM 16.92 62.456 0.076 6.62 11.32 9.48
7/16/2021 2:15:00 AM 16.87 62.366 0.076 6.75 12.11 9.48
7/16/2021 2:30:00 AM 16.82 62.276 0.076 6.67 12.41 9.51
7/16/2021 2:45:00 AM 16.78 62.204 0.076 6.65 12.9 9.53
7/16/2021 3:00:00 AM 16.72 62.096 0.076 6.67 12.71 9.54
7/16/2021 3:15:00 AM 16.68 62.024 0.076 6.93 13.55 9.55
7/16/2021 3:30:00 AM 16.63 61.934 0.076 6.94 12.42 9.53
7/16/2021 3:45:00 AM 16.58 61.844 0.076 6.94 11.73 9.58
7/16/2021 4:00:00 AM 16.53 61.754 0.076 6.95 12.04 9.58
7/16/2021 4:15:00 AM 16.48 61.664 0.076 6.92 11.94 9.59
7/16/2021 4:30:00 AM 16.43 61.574 0.076 6.56 12.13 9.6
7/16/2021 4:45:00 AM 16.39 61.502 0.076 6.38 12.36 9.6
7/16/2021 5:00:00 AM 16.34 61.412 0.076 6.34 119.53 9.62
7/16/2021 5:15:00 AM 16.3 61.34 0.076 6.25 523.72 9.63
7/16/2021 5:30:00 AM 16.25 61.25 0.076 6.88 658.29 9.64
7/16/2021 5:45:00 AM 16.21 61.178 0.076 6.88 572.94 9.66
7/16/2021 6:00:00 AM 16.17 61.106 0.076 6.3 393.15 9.68
7/16/2021 6:15:00 AM 16.13 61.034 0.076 6.44 112.39 9.65
7/16/2021 6:30:00 AM 16.09 60.962 0.076 6.47 46.95 9.69
7/16/2021 6:45:00 AM 16.06 60.908 0.076 6.54 12.5 9.72
7/16/2021 7:00:00 AM 16.03 60.854 0.074 6.55 22.49 9.73
7/16/2021 7:15:00 AM 16 60.8 0.07 6.59 335.71 9.73
7/16/2021 7:30:00 AM 15.97 60.746 0.064 6.53 1091.18 9.8
7/16/2021 7:45:00 AM 15.96 60.728 0.053 6.54 929.89 9.82
7/16/2021 8:00:00 AM 15.94 60.692 0.048 6.53 510.46 9.84
7/16/2021 8:15:00 AM 15.94 60.692 0.039 6.56 20.55 9.87
7/16/2021 8:30:00 AM 15.94 60.692 0.039 6.61 16.59 9.93
7/16/2021 8:45:00 AM 15.96 60.728 0.04 6.63 12.81 9.98
7/16/2021 9:00:00 AM 15.99 60.782 0.044 6.64 10.3 10
7/16/2021 9:15:00 AM 16.04 60.872 0.049 6.66 10.39 10.04
7/16/2021 9:30:00 AM 16.09 60.962 0.049 7.06 10.25 10.07
7/16/2021 9:45:00 AM 16.18 61.124 0.061 6.67 9.9 10.11
7/16/2021 10:00:00 AM 16.27 61.286 0.072 6.74 8.9 10.12
7/16/2021 10:15:00 AM 16.38 61.484 0.075 6.75 9.51 10.16
7/16/2021 10:30:00 AM 16.5 61.7 0.075 6.82 9.85 10.17
7/16/2021 10:45:00 AM 16.66 61.988 0.076 6.73 8.49 10.18
7/16/2021 11:00:00 AM 16.81 62.258 0.076 6.59 8.75 10.18
7/16/2021 11:15:00 AM 16.93 62.474 0.076 6.72 9.2 10.2
7/16/2021 11:30:00 AM 17.07 62.726 0.076 6.66 9.13 10.23
7/16/2021 11:45:00 AM 17.25 63.05 0.076 6.59 9.15 10.23
7/16/2021 12:00:00 PM 17.38 63.284 0.076 6.64 8.28 10.21
7/16/2021 12:15:00 PM 17.52 63.536 0.076 6.71 8.22 10.25
7/16/2021 12:30:00 PM 17.49 63.482 0.076 6.69 8.9 10.15
7/16/2021 12:45:00 PM 17.55 63.59 0.076 6.78 8.36 10.2
7/16/2021 1:00:00 PM 17.66 63.788 0.076 6.73 8.34 10.19
7/16/2021 1:15:00 PM 17.66 63.788 0.076 6.75 8.71 10.18
7/16/2021 1:30:00 PM 17.78 64.004 0.076 6.79 7.9 10.18
7/16/2021 1:45:00 PM 17.88 64.184 0.076 7.39 8.59 10.15
7/16/2021 2:00:00 PM 18.02 64.436 0.076 7.42 8.02 10.13
7/16/2021 2:15:00 PM 18.17 64.706 0.076 6.89 7.35 10.12
7/16/2021 2:30:00 PM 18.32 64.976 0.075 7.44 8.18 10.15
7/16/2021 2:45:00 PM 18.41 65.138 0.075 7.46 7.75 10.09
7/16/2021 3:00:00 PM 18.55 65.39 0.075 7.47 8.64 10.06
7/16/2021 3:15:00 PM 18.69 65.642 0.075 7.48 8.55 10.04
7/16/2021 3:30:00 PM 18.77 65.786 0.075 7.48 8.07 9.95
7/16/2021 3:45:00 PM 18.78 65.804 0.076 7.46 7.84 9.91
7/16/2021 4:00:00 PM 18.78 65.804 0.076 6.96 7.91 9.86
7/16/2021 4:15:00 PM 18.81 65.858 0.076 6.96 8.14 9.85
7/16/2021 4:30:00 PM 18.83 65.894 0.076 6.92 8.54 9.81
7/16/2021 4:45:00 PM 18.83 65.894 0.076 6.92 7.73 9.76
7/16/2021 5:00:00 PM 18.84 65.912 0.076 6.91 8.12 9.73
7/16/2021 5:15:00 PM 18.86 65.948 0.076 7.36 8.34 9.69
7/16/2021 5:30:00 PM 18.91 66.038 0.076 7.36 7.85 9.67
7/16/2021 5:45:00 PM 18.95 66.11 0.076 7.32 8.89 9.62
7/16/2021 6:00:00 PM 18.97 66.146 0.076 7.37 9.61 9.5
7/16/2021 6:15:00 PM 18.96 66.128 0.074 7.26 16.96 9.4
7/16/2021 6:30:00 PM 18.87 65.966 0.075 7.23 12.92 9.36
7/16/2021 6:45:00 PM 18.8 65.84 0.076 7.19 11.8 9.31
7/16/2021 7:00:00 PM 18.75 65.75 0.076 7.17 14.46 9.21
7/16/2021 7:15:00 PM 18.75 65.75 0.077 7.15 25.52 9.16
7/16/2021 7:30:00 PM 18.81 65.858 0.08 5.65 48.52 9.15
7/16/2021 7:45:00 PM 18.79 65.82201 0.081 5.58 41.29 9.14
7/16/2021 8:00:00 PM 18.8 65.84 0.084 5.6 42.84 9.09
7/16/2021 8:15:00 PM 18.79 65.82201 0.085 5.66 96.8 9.09
7/16/2021 8:30:00 PM 18.75 65.75 0.084 5.56 421.92 9.09
7/16/2021 8:45:00 PM 18.71 65.67799 0.085 5.75 743.15 9.05
7/16/2021 9:00:00 PM 18.67 65.606 0.085 5.78 579.67 9.06
7/16/2021 9:15:00 PM 18.66 65.588 0.089 5.82 649.7 9.07
7/16/2021 9:30:00 PM 18.64 65.552 0.093 6.36 134.24 9.04
7/16/2021 9:45:00 PM 18.6 65.48 0.093 6.09 66.27 9.03
7/16/2021 10:00:00 PM 18.57 65.426 0.093 6.18 10.24 9.04
7/16/2021 10:15:00 PM 18.53 65.354 0.089 6.22 11.74 9.06
7/16/2021 10:30:00 PM 18.5 65.3 0.085 6.25 233.85 9.09
7/16/2021 10:45:00 PM 18.49 65.282 0.08 6.29 684.32 9.08
7/16/2021 11:00:00 PM 18.47 65.246 0.066 6.34 271.91 9.09
7/16/2021 11:15:00 PM 18.42 65.156 0.052 6.33 117.77 9.1
7/16/2021 11:30:00 PM 18.35 65.03 0.044 6.33 87.71 9.13
7/16/2021 11:45:00 PM 18.29 64.922 0.046 6.3 88.23 9.14
7/17/2021 12:00:00 AM 18.23 64.814 0.056 6.3 50.56 9.14
7/17/2021 12:15:00 AM 18.16 64.688 0.071 6.33 52.89 9.16
7/17/2021 12:30:00 AM 18.11 64.598 0.081 6.35 43.98 9.15
7/17/2021 12:45:00 AM 18.06 64.508 0.084 6.33 36.7 9.15
7/17/2021 1:00:00 AM 18.02 64.436 0.084 6.24 36.44 9.14
7/17/2021 1:15:00 AM 17.98 64.364 0.085 6.34 31.7 9.14
7/17/2021 1:30:00 AM 17.95 64.31 0.085 6.28 32.59 9.1
7/17/2021 1:45:00 AM 17.93 64.274 0.086 6.26 31.92 9.11
7/17/2021 2:00:00 AM 17.91 64.238 0.086 6.35 33.21 9.15
7/17/2021 2:15:00 AM 17.89 64.202 0.086 6.3 26.05 9.18
7/17/2021 2:30:00 AM 17.87 64.166 0.085 6.29 36.19 9.17
7/17/2021 2:45:00 AM 17.84 64.112 0.084 6.29 45.09 9.2
7/17/2021 3:00:00 AM 17.81 64.058 0.084 6.3 37.14 9.22
7/17/2021 3:15:00 AM 17.77 63.986 0.084 6.32 39.77 9.24
7/17/2021 3:30:00 AM 17.73 63.914 0.083 6.43 34.23 9.25
7/17/2021 3:45:00 AM 17.7 63.86 0.083 6.37 38.94 9.25
7/17/2021 4:00:00 AM 17.67 63.806 0.083 6.33 27.59 9.25
7/17/2021 4:15:00 AM 17.63 63.734 0.084 6.3 24.13 9.26
7/17/2021 4:30:00 AM 17.6 63.68 0.084 6.29 22.22 9.27
7/17/2021 4:45:00 AM 17.56 63.608 0.085 6.45 21.59 9.29
7/17/2021 5:00:00 AM 17.53 63.554 0.085 7.05 21.35 9.3
7/17/2021 5:15:00 AM 17.5 63.5 0.086 6.5 20.93 9.3
7/17/2021 5:30:00 AM 17.47 63.446 0.087 6.44 19 9.33
7/17/2021 5:45:00 AM 17.45 63.41 0.087 6.36 21.48 9.31
7/17/2021 6:00:00 AM 17.42 63.356 0.087 6.38 20.07 9.33
7/17/2021 6:15:00 AM 17.39 63.302 0.087 6.31 19.62 9.34
7/17/2021 6:30:00 AM 17.36 63.248 0.087 6.27 18.35 9.34
7/17/2021 6:45:00 AM 17.34 63.212 0.087 6.28 19.28 9.38
7/17/2021 7:00:00 AM 17.31 63.158 0.087 6.19 17.88 9.39
7/17/2021 7:15:00 AM 17.28 63.104 0.086 6.26 15.88 9.42
7/17/2021 7:30:00 AM 17.27 63.086 0.086 7 14.96 9.46
7/17/2021 7:45:00 AM 17.25 63.05 0.086 7.07 15.75 9.52
7/17/2021 8:00:00 AM 17.22 62.996 0.086 6.03 14.44 9.53
7/17/2021 8:15:00 AM 17.2 62.96 0.086 5.91 13.25 9.57
7/17/2021 8:30:00 AM 17.18 62.924 0.085 5.71 13.88 9.6
7/17/2021 8:45:00 AM 17.19 62.942 0.085 5.68 14.14 9.67
7/17/2021 9:00:00 AM 17.21 62.978 0.085 5.56 13.04 9.69
7/17/2021 9:15:00 AM 17.23 63.014 0.085 5.61 11.97 9.76
7/17/2021 9:30:00 AM 17.25 63.05 0.085 5.75 11.81 9.82
7/17/2021 9:45:00 AM 17.3 63.14 0.085 5.46 11.23 9.87
7/17/2021 10:00:00 AM 17.3 63.14 0.085 5.39 11.58 9.89
7/17/2021 10:15:00 AM 17.32 63.176 0.085 5.35 16.58 9.94
7/17/2021 10:30:00 AM 17.38 63.284 0.085 6.97 262.37 9.97
7/17/2021 10:45:00 AM 17.41 63.338 0.085 6.99 728.57 9.98
7/17/2021 11:00:00 AM 17.46 63.428 0.085 7.08 1086.6 10
7/17/2021 11:15:00 AM 17.55 63.59 0.085 5.93 882.69 10.03
7/17/2021 11:30:00 AM 17.61 63.698 0.084 5.87 873.91 10.05
7/17/2021 11:45:00 AM 17.62 63.716 0.084 6.14 160.5 10.09
7/17/2021 12:00:00 PM 17.73 63.914 0.084 6.09 59.76 10.11
7/17/2021 12:15:00 PM 17.85 64.13 0.083 6.19 10.51 10.16
7/17/2021 12:30:00 PM 17.96 64.328 0.081 6.32 53.18 10.18
7/17/2021 12:45:00 PM 18.14 64.652 0.076 6.48 457.57 10.18
7/17/2021 1:00:00 PM 18.34 65.012 0.07 6.43 1507.05 10.16
7/17/2021 1:15:00 PM 18.53 65.354 0.058 6.5 604.8 10.13
7/17/2021 1:30:00 PM 18.74 65.732 0.048 6.52 39.59 10.17
7/17/2021 1:45:00 PM 18.91 66.038 0.044 6.59 19.24 10.18
7/17/2021 2:00:00 PM 19.03 66.254 0.046 6.64 11.85 10.11
7/17/2021 2:15:00 PM 19.16 66.488 0.058 6.63 10.22 10.09
7/17/2021 2:30:00 PM 19.32 66.776 0.07 6.67 9.1 10.05
7/17/2021 2:45:00 PM 19.52 67.136 0.079 6.73 8.59 10.01
7/17/2021 3:00:00 PM 19.69 67.442 0.081 6.78 9.18 9.97
7/17/2021 3:15:00 PM 19.77 67.586 0.082 6.84 8.66 9.85
7/17/2021 3:30:00 PM 19.79 67.622 0.083 7.54 10.11 9.69
7/17/2021 3:45:00 PM 19.76 67.568 0.084 7.51 7.99 9.47
7/17/2021 4:00:00 PM 19.75 67.55 0.084 7.49 8.49 9.46
7/17/2021 4:15:00 PM 19.78 67.604 0.084 6.84 10.06 9.54
7/17/2021 4:30:00 PM 19.8 67.64 0.084 7.07 8.99 9.56
7/17/2021 4:45:00 PM 19.79 67.622 0.084 6.64 8.89 9.49
7/17/2021 5:00:00 PM 19.74 67.532 0.083 6.45 9.66 9.46
7/17/2021 5:15:00 PM 19.69 67.442 0.082 6.41 10.44 9.37
7/17/2021 5:30:00 PM 19.65 67.37 0.084 6.42 11.28 9.29
7/17/2021 5:45:00 PM 19.65 67.37 0.086 6.33 17.06 9.18
7/17/2021 6:00:00 PM 19.67 67.406 0.087 6.51 14.88 9.1
7/17/2021 6:15:00 PM 19.68 67.424 0.088 6.39 16.17 9.08
7/17/2021 6:30:00 PM 19.67 67.406 0.088 6.48 23.27 9.01
7/17/2021 6:45:00 PM 19.63 67.334 0.088 6.34 28.89 9.01
7/17/2021 7:00:00 PM 19.61 67.298 0.089 6.34 25.93 8.98
7/17/2021 7:15:00 PM 19.63 67.334 0.091 6.67 33.85 8.91
7/17/2021 7:30:00 PM 19.67 67.406 0.092 6.6 55.35 8.84
7/17/2021 7:45:00 PM 19.7 67.46 0.092 6.6 63.53 8.8
7/17/2021 8:00:00 PM 19.7 67.46 0.092 6.57 99.74 8.79
7/17/2021 8:15:00 PM 19.7 67.46 0.093 7.22 117.63 8.77
7/17/2021 8:30:00 PM 19.67 67.406 0.095 7.23 124.3 8.75
7/17/2021 8:45:00 PM 19.61 67.298 0.099 7.28 91.31 8.78
7/17/2021 9:00:00 PM 19.54 67.172 0.101 7.3 85.65 8.77
7/17/2021 9:15:00 PM 19.47 67.046 0.1 7.28 56.81 8.8
7/17/2021 9:30:00 PM 19.39 66.902 0.098 7.27 49.26 8.84
7/17/2021 9:45:00 PM 19.32 66.776 0.096 7.25 50.09 8.86
7/17/2021 10:00:00 PM 19.23 66.614 0.095 7.23 40.34 8.87
7/17/2021 10:15:00 PM 19.15 66.47 0.094 7.21 47.65 8.89
7/17/2021 10:30:00 PM 19.07 66.326 0.093 7.18 65.46 8.86
7/17/2021 10:45:00 PM 19 66.2 0.093 7.15 68.48 8.92
7/17/2021 11:00:00 PM 18.94 66.092 0.092 7.15 55.63 8.87
7/17/2021 11:15:00 PM 18.88 65.984 0.092 7.13 44.54 8.88
7/17/2021 11:30:00 PM 18.83 65.894 0.092 7.12 44.25 8.87
7/17/2021 11:45:00 PM 18.77 65.786 0.091 7.09 29.31 8.93
7/18/2021 12:00:00 AM 18.7 65.66 0.091 7.07 28.85 8.97
7/18/2021 12:15:00 AM 18.63 65.534 0.09 7.03 28.49 8.95
7/18/2021 12:30:00 AM 18.57 65.426 0.089 7.02 166.25 9.01
7/18/2021 12:45:00 AM 18.51 65.318 0.088 7 211.52 9.02
7/18/2021 1:00:00 AM 18.45 65.21 0.088 7.01 1341.53 8.97
7/18/2021 1:15:00 AM 18.41 65.138 0.088 7.03 1770.72 9.03
7/18/2021 1:30:00 AM 18.36 65.048 0.088 7.05 1966.21 9.04
7/18/2021 1:45:00 AM 18.32 64.976 0.088 7.08 409.5 9.01
7/18/2021 2:00:00 AM 18.29 64.922 0.088 7.06 118.67 9.07
7/18/2021 2:15:00 AM 18.26 64.868 0.088 7.07 28.49 9.05
7/18/2021 2:30:00 AM 18.23 64.814 0.087 7.07 20.87 9.09
7/18/2021 2:45:00 AM 18.2 64.76 0.083 7.08 224.71 9.09
7/18/2021 3:00:00 AM 18.17 64.706 0.079 7.08 976.79 9.07
7/18/2021 3:15:00 AM 18.15 64.67 0.069 7.08 1240 9.14
7/18/2021 3:30:00 AM 18.12 64.616 0.058 7.1 227.87 9.13
7/18/2021 3:45:00 AM 18.09 64.562 0.049 7.09 34.45 9.12
7/18/2021 4:00:00 AM 18.06 64.508 0.049 7.11 22.95 9.14
7/18/2021 4:15:00 AM 18.02 64.436 0.056 7.11 19.41 9.14
7/18/2021 4:30:00 AM 17.98 64.364 0.072 7.12 19.14 9.16
7/18/2021 4:45:00 AM 17.93 64.274 0.085 7.12 18.06 9.15
7/18/2021 5:00:00 AM 17.88 64.184 0.09 7.12 17.16 9.15
7/18/2021 5:15:00 AM 17.83 64.094 0.09 7.12 17.67 9.13
7/18/2021 5:30:00 AM 17.79 64.022 0.091 7.12 17.11 9.1
7/18/2021 5:45:00 AM 17.73 63.914 0.091 7.12 17.48 9.04
7/18/2021 6:00:00 AM 17.68 63.824 0.091 7.12 18.22 9.07
7/18/2021 6:15:00 AM 17.63 63.734 0.09 7.11 17.01 9.17
7/18/2021 6:30:00 AM 17.58 63.644 0.09 7.11 16.3 9.26
7/18/2021 6:45:00 AM 17.54 63.572 0.089 7.12 15.19 9.25
7/18/2021 7:00:00 AM 17.5 63.5 0.089 7.12 14.99 9.29
7/18/2021 7:15:00 AM 17.46 63.428 0.089 7.12 14.39 9.32
7/18/2021 7:30:00 AM 17.42 63.356 0.089 7.12 15.46 9.34
7/18/2021 7:45:00 AM 17.4 63.32 0.089 6.51 14.34 9.38
7/18/2021 8:00:00 AM 17.36 63.248 0.089 6.48 13.95 9.41
7/18/2021 8:15:00 AM 17.34 63.212 0.088 6.45 14.07 9.44
7/18/2021 8:30:00 AM 17.32 63.176 0.089 6.49 13.48 9.49
7/18/2021 8:45:00 AM 17.3 63.14 0.088 6.5 13.83 9.54
7/18/2021 9:00:00 AM 17.29 63.122 0.088 6.56 13.32 9.61
7/18/2021 9:15:00 AM 17.29 63.122 0.088 6.61 12.15 9.62
7/18/2021 9:30:00 AM 17.29 63.122 0.088 6.61 12.91 9.66
7/18/2021 9:45:00 AM 17.3 63.14 0.087 7.18 12.92 9.73
7/18/2021 10:00:00 AM 17.32 63.176 0.087 7.2 12.56 9.77
7/18/2021 10:15:00 AM 17.34 63.212 0.087 7.21 12.41 9.85
7/18/2021 10:30:00 AM 17.36 63.248 0.086 7.23 11.66 9.88
7/18/2021 10:45:00 AM 17.37 63.266 0.086 7.24 11.9 9.91
7/18/2021 11:00:00 AM 17.38 63.284 0.086 7.26 11.7 9.89
7/18/2021 11:15:00 AM 17.37 63.266 0.086 7.26 12.61 9.87
7/18/2021 11:30:00 AM 17.37 63.266 0.087 7.27 11.52 9.85
7/18/2021 11:45:00 AM 17.35 63.23 0.087 7.27 10.87 9.85
7/18/2021 12:00:00 PM 17.33 63.194 0.087 7.27 11.09 9.83
7/18/2021 12:15:00 PM 17.32 63.176 0.087 7.26 11.05 9.84
7/18/2021 12:30:00 PM 17.34 63.212 0.087 7.26 10.73 9.86
7/18/2021 12:45:00 PM 17.36 63.248 0.087 7.27 11.23 9.87
7/18/2021 1:00:00 PM 17.39 63.302 0.086 7.27 10.94 9.95
7/18/2021 1:15:00 PM 17.43 63.374 0.086 7.29 9.93 9.98
7/18/2021 1:30:00 PM 17.48 63.464 0.086 7.29 9.95 10.04
7/18/2021 1:45:00 PM 17.52 63.536 0.086 7.3 10.02 10.07
7/18/2021 2:00:00 PM 17.57 63.626 0.085 7.29 10.19 10.08
7/18/2021 2:15:00 PM 17.63 63.734 0.085 7.25 10.1 10.13
7/18/2021 2:30:00 PM 17.67 63.806 0.085 7.19 9.88 10.13
7/18/2021 2:45:00 PM 17.73 63.914 0.084 7.13 244.22 10.14
7/18/2021 3:00:00 PM 17.8 64.04 0.084 7.11 285.27 10.18
7/18/2021 3:15:00 PM 17.89 64.202 0.084 7.18 1559.68 10.16
7/18/2021 3:30:00 PM 17.92 64.256 0.084 7.28 1533.49 10.12
7/18/2021 3:45:00 PM 17.95 64.31 0.084 7.32 1515.17 9.99
7/18/2021 4:00:00 PM 17.99 64.382 0.083 7.36 271.6 10.05
7/18/2021 4:15:00 PM 18.04 64.472 0.083 7.41 125.67 10.06
7/18/2021 4:30:00 PM 18.06 64.508 0.083 7.43 20.41 10.01
7/18/2021 4:45:00 PM 18.09 64.562 0.082 7.44 10.03 10.02
7/18/2021 5:00:00 PM 18.12 64.616 0.078 7.45 283.1 10.04
7/18/2021 5:15:00 PM 18.15 64.67 0.074 7.45 1012.68 9.98
7/18/2021 5:30:00 PM 18.21 64.778 0.071 7.46 1472.91 10.04
7/18/2021 5:45:00 PM 18.25 64.85 0.067 7.46 2308.04 9.99
7/18/2021 6:00:00 PM 18.28 64.904 0.056 6.76 946.81 9.96
7/18/2021 6:15:00 PM 18.29 64.922 0.052 6.76 230.96 9.91
7/18/2021 6:30:00 PM 18.32 64.976 0.046 6.82 28.55 9.86
7/18/2021 6:45:00 PM 18.34 65.012 0.045 6.75 21.41 9.81
7/18/2021 7:00:00 PM 18.35 65.03 0.046 6.74 15.33 9.73
7/18/2021 7:15:00 PM 18.33 64.994 0.048 6.73 13.79 9.68
7/18/2021 7:30:00 PM 18.3 64.94 0.058 6.74 10.44 9.63
7/18/2021 7:45:00 PM 18.26 64.868 0.071 6.74 9.42 9.58
7/18/2021 8:00:00 PM 18.22 64.796 0.079 6.74 9.88 9.52
7/18/2021 8:15:00 PM 18.17 64.706 0.081 6.77 9.18 9.47
7/18/2021 8:30:00 PM 18.12 64.616 0.082 6.74 9.06 9.37
7/18/2021 8:45:00 PM 18.06 64.508 0.082 6.74 9.58 9.27
7/18/2021 9:00:00 PM 18 64.4 0.083 6.75 9.89 9.15
7/18/2021 9:15:00 PM 17.93 64.274 0.083 6.73 10.33 9.16
7/18/2021 9:30:00 PM 17.87 64.166 0.083 6.8 12.15 9.13
7/18/2021 9:45:00 PM 17.81 64.058 0.083 6.73 10.8 9.2
7/18/2021 10:00:00 PM 17.76 63.968 0.083 6.74 9.65 9.27
7/18/2021 10:15:00 PM 17.71 63.878 0.083 6.75 10.61 9.27
7/18/2021 10:30:00 PM 17.67 63.806 0.083 6.71 9.55 9.27
7/18/2021 10:45:00 PM 17.62 63.716 0.083 6.8 9.56 9.28
7/18/2021 11:00:00 PM 17.58 63.644 0.083 6.72 9.52 9.3
7/18/2021 11:15:00 PM 17.54 63.572 0.083 6.7 10.16 9.29
7/18/2021 11:30:00 PM 17.51 63.518 0.083 6.75 9.98 9.27
7/18/2021 11:45:00 PM 17.47 63.446 0.083 6.71 9.65 9.3
7/19/2021 12:00:00 AM 17.43 63.374 0.083 6.74 9.47 9.3
7/19/2021 12:15:00 AM 17.39 63.302 0.083 6.8 11.41 9.34
7/19/2021 12:30:00 AM 17.35 63.23 0.083 6.8 9.52 9.34
7/19/2021 12:45:00 AM 17.3 63.14 0.083 6.73 9 9.34
7/19/2021 1:00:00 AM 17.24 63.032 0.082 6.78 8.93 9.36
7/19/2021 1:15:00 AM 17.19 62.942 0.082 6.74 9.42 9.36
7/19/2021 1:30:00 AM 17.14 62.852 0.082 7.07 10.58 9.36
7/19/2021 1:45:00 AM 17.08 62.744 0.082 7.06 9.19 9.39
7/19/2021 2:00:00 AM 17.02 62.636 0.082 7.06 9.5 9.4
7/19/2021 2:15:00 AM 16.98 62.564 0.082 7.06 8.4 9.41
7/19/2021 2:30:00 AM 16.92 62.456 0.082 7.06 9.21 9.42
7/19/2021 2:45:00 AM 16.87 62.366 0.082 7.06 9.16 9.44
7/19/2021 3:00:00 AM 16.81 62.258 0.082 7.05 9.04 9.45
7/19/2021 3:15:00 AM 16.75 62.15 0.082 7.07 8.86 9.46
7/19/2021 3:30:00 AM 16.69 62.042 0.082 7.04 8.57 9.48
7/19/2021 3:45:00 AM 16.64 61.952 0.082 7.04 9.08 9.5
7/19/2021 4:00:00 AM 16.58 61.844 0.082 7.04 8.28 9.5
7/19/2021 4:15:00 AM 16.52 61.736 0.082 7.04 8.59 9.51
7/19/2021 4:30:00 AM 16.47 61.646 0.082 7.03 9.23 9.53
7/19/2021 4:45:00 AM 16.42 61.556 0.082 7.02 8.62 9.54
7/19/2021 5:00:00 AM 16.36 61.448 0.082 7.02 8.69 9.56
7/19/2021 5:15:00 AM 16.31 61.358 0.082 7.02 8.5 9.58
7/19/2021 5:30:00 AM 16.26 61.268 0.082 7.01 9.44 9.59
7/19/2021 5:45:00 AM 16.2 61.16 0.081 7.01 9.16 9.6
7/19/2021 6:00:00 AM 16.15 61.07 0.082 7.02 9.59 9.6
7/19/2021 6:15:00 AM 16.1 60.98 0.081 7.02 8.79 9.62
7/19/2021 6:30:00 AM 16.05 60.89 0.082 6.99 8.61 9.66
7/19/2021 6:45:00 AM 16 60.8 0.081 6.97 8.4 9.66
7/19/2021 7:00:00 AM 15.96 60.728 0.081 6.96 9.03 9.72
7/19/2021 7:15:00 AM 15.93 60.674 0.081 6.94 9.18 9.75
7/19/2021 7:30:00 AM 15.9 60.62 0.081 6.92 11 9.74
7/19/2021 7:45:00 AM 15.88 60.584 0.081 6.91 556.4 9.82
7/19/2021 8:00:00 AM 15.86 60.548 0.081 6.92 817.59 9.86
7/19/2021 8:15:00 AM 15.85 60.53 0.081 6.98 1424.53 9.93
7/19/2021 8:30:00 AM 15.86 60.548 0.081 7.01 920.96 9.97
7/19/2021 8:45:00 AM 15.87 60.566 0.081 7.05 865.49 10.04
7/19/2021 9:00:00 AM 15.9 60.62 0.08 7.07 1071.91 10.1
7/19/2021 9:15:00 AM 15.93 60.674 0.08 7.1 964.54 10.14
7/19/2021 9:30:00 AM 15.97 60.746 0.08 7.13 498.17 10.23
7/19/2021 9:45:00 AM 16.02 60.836 0.08 7.16 131.52 10.21
7/19/2021 10:00:00 AM 16.09 60.962 0.08 7.2 54.63 10.28
7/19/2021 10:15:00 AM 16.17 61.106 0.078 7.23 14.58 10.38
7/19/2021 10:30:00 AM 16.26 61.268 0.078 7.26 15.43 10.41
7/19/2021 10:45:00 AM 16.37 61.466 0.074 7.3 552.72 10.43
7/19/2021 11:00:00 AM 16.49 61.682 0.069 7.32 1729.79 10.48
7/19/2021 11:15:00 AM 16.62 61.916 0.06 7.36 1789.65 10.46
7/19/2021 11:30:00 AM 16.78 62.204 0.05 7.39 244.4 10.51
7/19/2021 11:45:00 AM 16.94 62.492 0.043 7.44 34 10.53
7/19/2021 12:00:00 PM 17.1 62.78 0.042 7.47 13.95 10.51
7/19/2021 12:15:00 PM 17.27 63.086 0.048 7.5 8.9 10.54
7/19/2021 12:30:00 PM 17.41 63.338 0.062 7.53 7.17 10.53
7/19/2021 12:45:00 PM 17.53 63.554 0.073 7.55 7.2 10.49
7/19/2021 1:00:00 PM 17.68 63.824 0.077 7.56 7.27 10.48
7/19/2021 1:15:00 PM 17.83 64.094 0.077 7.59 6.83 10.41
7/19/2021 1:30:00 PM 17.98 64.364 0.077 7.61 6.93 10.38
7/19/2021 1:45:00 PM 18.15 64.67 0.078 7.63 6.89 10.31
7/19/2021 2:00:00 PM 18.29 64.922 0.078 7.66 6.42 10.2
7/19/2021 2:15:00 PM 18.36 65.048 0.078 7.67 7.52 10.28
7/19/2021 2:30:00 PM 18.42 65.156 0.078 7.68 7.74 10.32
7/19/2021 2:45:00 PM 18.54 65.372 0.077 7.69 6.7 10.28
7/19/2021 3:00:00 PM 18.6 65.48 0.077 7.7 7.05 10.26
7/19/2021 3:15:00 PM 18.68 65.624 0.077 7.7 7.31 10.24
7/19/2021 3:30:00 PM 18.79 65.82201 0.077 7.71 6.99 10.2
7/19/2021 3:45:00 PM 18.89 66.002 0.077 7.72 7.75 10.16
7/19/2021 4:00:00 PM 18.95 66.11 0.077 7.71 9.86 10.11
7/19/2021 4:15:00 PM 19.02 66.236 0.077 7.69 8.49 10.07
7/19/2021 4:30:00 PM 19.1 66.38 0.077 7.67 7.88 10.02
7/19/2021 4:45:00 PM 19.22 66.596 0.077 7.65 7.71 9.98
7/19/2021 5:00:00 PM 19.33 66.794 0.077 7.65 7.8 9.95
7/19/2021 5:15:00 PM 19.4 66.92 0.077 7.65 7.35 9.91
7/19/2021 5:30:00 PM 19.47 67.046 0.077 7.65 7.77 9.89
7/19/2021 5:45:00 PM 19.51 67.118 0.077 7.64 7.38 9.87
7/19/2021 6:00:00 PM 19.54 67.172 0.077 7.63 7.59 9.79
7/19/2021 6:15:00 PM 19.56 67.208 0.076 7.61 7.6 9.77
7/19/2021 6:30:00 PM 19.56 67.208 0.076 7.48 7.46 9.69
7/19/2021 6:45:00 PM 19.54 67.172 0.077 7.06 8.24 9.62
7/19/2021 7:00:00 PM 19.51 67.118 0.077 7.12 8.03 9.55
7/19/2021 7:15:00 PM 19.5 67.1 0.077 7.01 7.95 9.46
7/19/2021 7:30:00 PM 19.48 67.064 0.077 6.85 7.57 9.42
7/19/2021 7:45:00 PM 19.47 67.046 0.077 6.68 7.91 9.35
7/19/2021 8:00:00 PM 19.44 66.992 0.077 6.6 8.13 9.31
7/19/2021 8:15:00 PM 19.39 66.902 0.077 7.32 7.03 9.22
7/19/2021 8:30:00 PM 19.34 66.812 0.078 6.54 8.57 9.15
7/19/2021 8:45:00 PM 19.27 66.686 0.078 6.3 8.2 9.11
7/19/2021 9:00:00 PM 19.2 66.56 0.078 6.2 7.81 9.09
7/19/2021 9:15:00 PM 19.14 66.452 0.078 6.01 7.81 9.04
7/19/2021 9:30:00 PM 19.06 66.308 0.078 6.95 8.61 9.04
7/19/2021 9:45:00 PM 18.99 66.182 0.078 5.83 8.44 8.98
7/19/2021 10:00:00 PM 18.93 66.074 0.078 5.97 8 8.99
7/19/2021 10:15:00 PM 18.87 65.966 0.078 5.86 10.19 8.99
7/19/2021 10:30:00 PM 18.81 65.858 0.078 6 8.18 8.95
7/19/2021 10:45:00 PM 18.76 65.768 0.078 6.89 8.55 8.95
7/19/2021 11:00:00 PM 18.7 65.66 0.078 5.54 448.92 8.95
7/19/2021 11:15:00 PM 18.65 65.57 0.078 5.45 593.02 8.95
7/19/2021 11:30:00 PM 18.59 65.462 0.078 5.7 1646.12 8.98
7/19/2021 11:45:00 PM 18.52 65.336 0.078 5.6 951.26 8.98
7/20/2021 12:00:00 AM 18.45 65.21 0.078 6.98 893.62 8.98
7/20/2021 12:15:00 AM 18.39 65.102 0.079 6.98 759.57 8.98
7/20/2021 12:30:00 AM 18.32 64.976 0.078 7 181.03 8.99
7/20/2021 12:45:00 AM 18.25 64.85 0.078 6.98 61.8 9.04
7/20/2021 1:00:00 AM 18.19 64.742 0.078 6.91 29.05 9.05
7/20/2021 1:15:00 AM 18.13 64.634 0.077 6.88 33.61 9.05
7/20/2021 1:30:00 AM 18.07 64.526 0.073 6.84 845.87 9.06
7/20/2021 1:45:00 AM 18 64.4 0.069 6.81 1211.71 9.13
7/20/2021 2:00:00 AM 17.94 64.292 0.059 6.79 1386.18 9.1
7/20/2021 2:15:00 AM 17.87 64.166 0.048 6.77 319.86 9.13
7/20/2021 2:30:00 AM 17.81 64.058 0.041 6.75 52.5 9.13
7/20/2021 2:45:00 AM 17.74 63.932 0.043 6.75 15.15 9.15
7/20/2021 3:00:00 AM 17.68 63.824 0.05 6.76 10.76 9.18
7/20/2021 3:15:00 AM 17.62 63.716 0.064 6.37 8.71 9.2
7/20/2021 3:30:00 AM 17.57 63.626 0.076 6.34 7.98 9.16
7/20/2021 3:45:00 AM 17.52 63.536 0.079 6.35 7.21 9.19
7/20/2021 4:00:00 AM 17.46 63.428 0.081 6.37 8.45 9.19
7/20/2021 4:15:00 AM 17.4 63.32 0.081 6.36 7.69 9.11
7/20/2021 4:30:00 AM 17.34 63.212 0.079 6.5 9.08 8.99
7/20/2021 4:45:00 AM 17.28 63.104 0.078 6.57 7.41 9.06
7/20/2021 5:00:00 AM 17.21 62.978 0.078 6.45 8.76 9.16
7/20/2021 5:15:00 AM 17.16 62.888 0.078 6.44 7.95 9.27
7/20/2021 5:30:00 AM 17.11 62.798 0.078 6.4 8.37 9.34
7/20/2021 5:45:00 AM 17.06 62.708 0.078 6.41 7.3 9.36
7/20/2021 6:00:00 AM 17 62.6 0.078 6.44 7.7 9.36
7/20/2021 6:15:00 AM 16.93 62.474 0.078 7 7.37 9.38
7/20/2021 6:30:00 AM 16.88 62.384 0.078 7.02 7.54 9.4
7/20/2021 6:45:00 AM 16.82 62.276 0.078 7.01 6.8 9.42
7/20/2021 7:00:00 AM 16.78 62.204 0.078 7 7.3 9.43
7/20/2021 7:15:00 AM 16.72 62.096 0.078 7 7.64 9.42
7/20/2021 7:30:00 AM 16.68 62.024 0.078 7 8.43 9.49
7/20/2021 7:45:00 AM 16.64 61.952 0.078 7 7.16 9.54
7/20/2021 8:00:00 AM 16.61 61.898 0.078 7.01 6.9 9.61
7/20/2021 8:15:00 AM 16.58 61.844 0.078 7.02 6.88 9.65
7/20/2021 8:30:00 AM 16.57 61.826 0.078 7.03 7.01 9.72
7/20/2021 8:45:00 AM 16.56 61.808 0.078 7.04 7 9.78
7/20/2021 9:00:00 AM 16.56 61.808 0.078 7.06 7.31 9.86
7/20/2021 9:15:00 AM 16.57 61.826 0.078 7.09 6.59 9.92
7/20/2021 9:30:00 AM 16.59 61.862 0.077 7.1 6.4 10
7/20/2021 9:45:00 AM 16.62 61.916 0.077 7.13 5.74 10.09
7/20/2021 10:00:00 AM 16.67 62.006 0.077 7.15 6.64 10.19
7/20/2021 10:15:00 AM 16.72 62.096 0.077 7.18 6.43 10.26
7/20/2021 10:30:00 AM 16.79 62.222 0.077 7.21 6.22 10.32
7/20/2021 10:45:00 AM 16.87 62.366 0.077 7.24 5.6 10.36
7/20/2021 11:00:00 AM 16.98 62.564 0.077 7.28 6.35 10.42
7/20/2021 11:15:00 AM 17.1 62.78 0.077 7.32 6.07 10.46
7/20/2021 11:30:00 AM 17.22 62.996 0.077 7.35 5.92 10.46
7/20/2021 11:45:00 AM 17.36 63.248 0.076 7.37 6.65 10.49
7/20/2021 12:00:00 PM 17.5 63.5 0.076 7.39 5.42 10.5
7/20/2021 12:15:00 PM 17.67 63.806 0.076 7.41 5.98 10.51
7/20/2021 12:30:00 PM 17.83 64.094 0.076 7.4 6.29 10.5
7/20/2021 12:45:00 PM 17.98 64.364 0.076 7.34 6.27 10.52
7/20/2021 1:00:00 PM 18.13 64.634 0.076 7.27 7 10.52
7/20/2021 1:15:00 PM 18.25 64.85 0.076 7.19 579.7 10.5
7/20/2021 1:30:00 PM 18.41 65.138 0.076 7.15 843.82 10.48
7/20/2021 1:45:00 PM 18.49 65.282 0.076 7.22 1662.5 10.41
7/20/2021 2:00:00 PM 18.58 65.444 0.076 7.39 701.62 10.39
7/20/2021 2:15:00 PM 18.69 65.642 0.076 7.53 886.8 10.36
7/20/2021 2:30:00 PM 18.75 65.75 0.075 7.62 338.15 10.34
7/20/2021 2:45:00 PM 18.82 65.876 0.075 7.69 99.55 10.34
7/20/2021 3:00:00 PM 18.9 66.02 0.075 7.77 73.08 10.36
7/20/2021 3:15:00 PM 18.97 66.146 0.074 7.78 18.72 10.31
7/20/2021 3:30:00 PM 19.03 66.254 0.071 7.81 508.78 10.25
7/20/2021 3:45:00 PM 19.07 66.326 0.067 7.83 1368.53 10.21
7/20/2021 4:00:00 PM 19.09 66.362 0.059 7.82 2400.8 10.18
7/20/2021 4:15:00 PM 19.08 66.344 0.049 7.82 291.69 10.09
7/20/2021 4:30:00 PM 19.08 66.344 0.041 7.79 148.1 10.04
7/20/2021 4:45:00 PM 19.07 66.326 0.039 7.77 16.43 9.93
7/20/2021 5:00:00 PM 19.06 66.308 0.046 7.73 9.36 9.8
7/20/2021 5:15:00 PM 18.99 66.182 0.061 7.67 9.29 9.66
7/20/2021 5:30:00 PM 18.94 66.092 0.07 7.52 20.42 9.41
7/20/2021 5:45:00 PM 19.91 67.838 0.104 7.18 1891.98 9.06
7/20/2021 6:00:00 PM 20.04 68.07201 0.091 7.16 992.21 8.5
7/20/2021 6:15:00 PM 19.87 67.766 0.091 7.13 530.05 8.25
7/20/2021 6:30:00 PM 19.65 67.37 0.094 7.12 221.08 8.14
7/20/2021 6:45:00 PM 19.48 67.064 0.098 7.11 153.25 8.2
7/20/2021 7:00:00 PM 19.52 67.136 0.108 7.11 127.72 8.31
7/20/2021 7:15:00 PM 19.46 67.028 0.103 7.12 95.75 8.24
7/20/2021 7:30:00 PM 19.45 67.01 0.102 7.11 116.16 8.33
7/20/2021 7:45:00 PM 19.44 66.992 0.102 7.08 112.37 8.39
7/20/2021 8:00:00 PM 19.36 66.848 0.098 7.08 89.05 8.44
7/20/2021 8:15:00 PM 19.28 66.704 0.097 7.07 93 8.46
7/20/2021 8:30:00 PM 19.2 66.56 0.098 7.06 72.38 8.51
7/20/2021 8:45:00 PM 19.08 66.344 0.095 7.06 69.05 8.57
7/20/2021 9:00:00 PM 19.06 66.308 0.099 7.05 55.03 8.58
7/20/2021 9:15:00 PM 18.98 66.164 0.101 7.06 58.92 8.59
7/20/2021 9:30:00 PM 18.92 66.056 0.106 7.08 56.88 8.59
7/20/2021 9:45:00 PM 18.85 65.93 0.107 7.1 55.36 8.59
7/20/2021 10:00:00 PM 18.76 65.768 0.104 7.11 51.16 8.63
7/20/2021 10:15:00 PM 18.72 65.696 0.104 7.1 47.9 8.68
7/20/2021 10:30:00 PM 18.65 65.57 0.101 7.09 46.3 8.69
7/20/2021 10:45:00 PM 18.59 65.462 0.099 7.08 33.64 8.73
7/20/2021 11:00:00 PM 18.54 65.372 0.099 7.06 33.28 8.8
7/20/2021 11:15:00 PM 18.48 65.264 0.096 7.06 25.63 8.74
7/20/2021 11:30:00 PM 18.43 65.174 0.095 7.05 23.38 8.78
7/20/2021 11:45:00 PM 18.39 65.102 0.096 7.04 19.71 8.82
7/21/2021 12:00:00 AM 18.34 65.012 0.094 7.04 17.6 8.8
7/21/2021 12:15:00 AM 18.29 64.922 0.093 7.03 15.93 8.85
7/21/2021 12:30:00 AM 18.25 64.85 0.094 7.03 15.52 8.78
7/21/2021 12:45:00 AM 18.22 64.796 0.094 7.02 14.23 8.84
7/21/2021 1:00:00 AM 18.17 64.706 0.093 7.01 14.06 8.85
7/21/2021 1:15:00 AM 18.14 64.652 0.092 7.01 11.31 8.83
7/21/2021 1:30:00 AM 18.1 64.58 0.092 7.01 11.7 8.86
7/21/2021 1:45:00 AM 18.06 64.508 0.091 7.01 11.09 8.9
7/21/2021 2:00:00 AM 18.02 64.436 0.092 6.99 10.91 8.94
7/21/2021 2:15:00 AM 17.98 64.364 0.091 6.99 10.52 8.88
7/21/2021 2:30:00 AM 17.93 64.274 0.091 6.97 10.74 8.94
7/21/2021 2:45:00 AM 17.89 64.202 0.09 6.94 11.97 8.97
7/21/2021 3:00:00 AM 17.85 64.13 0.089 6.91 11.32 9.01
7/21/2021 3:15:00 AM 17.8 64.04 0.089 6.87 422.15 8.99
7/21/2021 3:30:00 AM 17.77 63.986 0.09 6.85 1056.26 8.98
7/21/2021 3:45:00 AM 17.72 63.896 0.089 6.88 2257.58 8.95
7/21/2021 4:00:00 AM 17.69 63.842 0.09 6.91 1071.67 9.02
7/21/2021 4:15:00 AM 17.65 63.77 0.089 6.93 773.56 9.05
7/21/2021 4:30:00 AM 17.62 63.716 0.089 6.95 339.88 9.05
7/21/2021 4:45:00 AM 17.59 63.662 0.089 6.96 131.6 9.05
7/21/2021 5:00:00 AM 17.55 63.59 0.088 6.97 79.8 9.08
7/21/2021 5:15:00 AM 17.51 63.518 0.086 6.97 22.36 9.09
7/21/2021 5:30:00 AM 17.48 63.464 0.084 6.97 574.07 9.1
7/21/2021 5:45:00 AM 17.45 63.41 0.08 6.97 1222.87 9.13
7/21/2021 6:00:00 AM 17.41 63.338 0.071 6.97 2853.19 9.12
7/21/2021 6:15:00 AM 17.37 63.266 0.059 6.98 582.76 9.17
7/21/2021 6:30:00 AM 17.34 63.212 0.048 6.98 237.95 9.16
7/21/2021 6:45:00 AM 17.3 63.14 0.043 6.98 36.41 9.19
7/21/2021 7:00:00 AM 17.27 63.086 0.048 6.98 15.63 9.21
7/21/2021 7:15:00 AM 17.24 63.032 0.063 6.98 11.09 9.22
7/21/2021 7:30:00 AM 17.21 62.978 0.078 6.99 9.01 9.17
7/21/2021 7:45:00 AM 17.18 62.924 0.085 6.99 8.39 9.21
7/21/2021 8:00:00 AM 17.16 62.888 0.085 6.99 8.18 9.22
7/21/2021 8:15:00 AM 17.14 62.852 0.084 7.01 8.08 9.16
7/21/2021 8:30:00 AM 17.14 62.852 0.085 7.02 7.39 9.06
7/21/2021 8:45:00 AM 17.14 62.852 0.085 7.03 7.92 9.07
7/21/2021 9:00:00 AM 17.17 62.906 0.085 7.04 7.46 9.26
7/21/2021 9:15:00 AM 17.19 62.942 0.085 7.07 7.29 9.52
7/21/2021 9:30:00 AM 17.22 62.996 0.085 7.09 7.21 9.74
7/21/2021 9:45:00 AM 17.26 63.068 0.085 7.11 7.62 9.9
7/21/2021 10:00:00 AM 17.29 63.122 0.084 7.13 6.88 9.95
7/21/2021 10:15:00 AM 17.39 63.302 0.084 7.15 7.7 10.05
7/21/2021 10:30:00 AM 17.4 63.32 0.084 7.17 6.84 10.05
7/21/2021 10:45:00 AM 17.45 63.41 0.084 7.21 6.93 10.12
7/21/2021 11:00:00 AM 17.51 63.518 0.083 7.22 6.62 10.13
7/21/2021 11:15:00 AM 17.54 63.572 0.083 7.24 6.65 10.12
7/21/2021 11:30:00 AM 17.6 63.68 0.084 7.25 6.18 10.07
7/21/2021 11:45:00 AM 17.69 63.842 0.083 7.26 6.71 10.12
7/21/2021 12:00:00 PM 17.75 63.95 0.082 7.29 6.11 10.15
7/21/2021 12:15:00 PM 17.8 64.04 0.083 7.3 6.8 10.17
7/21/2021 12:30:00 PM 17.85 64.13 0.082 7.32 6.02 10.17
7/21/2021 12:45:00 PM 17.92 64.256 0.083 7.34 6.1 10.22
7/21/2021 1:00:00 PM 18.04 64.472 0.083 7.37 6.24 10.32
7/21/2021 1:15:00 PM 18.2 64.76 0.082 7.39 6.07 10.32
7/21/2021 1:30:00 PM 18.34 65.012 0.082 7.42 6.73 10.34
7/21/2021 1:45:00 PM 18.51 65.318 0.082 7.46 6.47 10.32
7/21/2021 2:00:00 PM 18.68 65.624 0.082 7.48 6.48 10.31
7/21/2021 2:15:00 PM 18.8 65.84 0.081 7.52 6.89 10.29
7/21/2021 2:30:00 PM 18.85 65.93 0.081 7.53 6.53 10.24
7/21/2021 2:45:00 PM 18.94 66.092 0.081 7.54 6.29 10.21
7/21/2021 3:00:00 PM 18.99 66.182 0.081 7.55 6.7 10.17
7/21/2021 3:15:00 PM 19.1 66.38 0.081 7.55 6.68 10.18
7/21/2021 3:30:00 PM 19.09 66.362 0.081 7.54 6.24 10.07
7/21/2021 3:45:00 PM 19.09 66.362 0.081 7.54 6.49 10.09
7/21/2021 4:00:00 PM 19.11 66.398 0.079 7.52 7.01 10.09
7/21/2021 4:15:00 PM 19.11 66.398 0.081 7.49 6.03 9.98
7/21/2021 4:30:00 PM 19.15 66.47 0.081 7.47 6.45 9.96
7/21/2021 4:45:00 PM 19.18 66.524 0.08 7.42 6.94 9.92
7/21/2021 5:00:00 PM 19.27 66.686 0.08 7.35 6.8 9.91
7/21/2021 5:15:00 PM 19.33 66.794 0.08 7.3 88.74 9.85
7/21/2021 5:30:00 PM 19.36 66.848 0.08 7.22 1291.95 9.84
7/21/2021 5:45:00 PM 19.36 66.848 0.08 7.24 2310.05 9.8
7/21/2021 6:00:00 PM 19.33 66.794 0.08 7.31 1593 9.79
7/21/2021 6:15:00 PM 19.31 66.758 0.08 7.36 991.47 9.75
7/21/2021 6:30:00 PM 19.3 66.74 0.08 7.41 1016.24 9.72
7/21/2021 6:45:00 PM 19.31 66.758 0.08 7.41 192.46 9.68
7/21/2021 7:00:00 PM 19.31 66.758 0.08 7.4 94.05 9.59
7/21/2021 7:15:00 PM 19.29 66.722 0.08 7.39 25.4 9.51
7/21/2021 7:30:00 PM 19.25 66.65 0.078 7.36 133.01 9.47
7/21/2021 7:45:00 PM 19.2 66.56 0.074 7.35 875.35 9.4
7/21/2021 8:00:00 PM 19.15 66.47 0.069 7.33 2383.64 9.36
7/21/2021 8:15:00 PM 19.09 66.362 0.058 7.3 855.74 9.25
7/21/2021 8:30:00 PM 19.03 66.254 0.047 7.27 167.04 9.21
7/21/2021 8:45:00 PM 18.96 66.128 0.041 7.24 45.39 9.16
7/21/2021 9:00:00 PM 18.9 66.02 0.044 7.22 18.51 9.11
7/21/2021 9:15:00 PM 18.83 65.894 0.056 7.19 12.79 9.09
7/21/2021 9:30:00 PM 18.76 65.768 0.071 7.17 9.04 9.02
7/21/2021 9:45:00 PM 18.68 65.624 0.079 7.15 8.14 8.99
7/21/2021 10:00:00 PM 18.61 65.498 0.081 7.12 7.35 8.97
7/21/2021 10:15:00 PM 18.54 65.372 0.081 7.11 7.38 8.89
7/21/2021 10:30:00 PM 18.47 65.246 0.081 7.09 6.67 8.88
7/21/2021 10:45:00 PM 18.39 65.102 0.082 7.08 7.08 8.77
7/21/2021 11:00:00 PM 18.32 64.976 0.082 7.07 7.13 8.78
7/21/2021 11:15:00 PM 18.24 64.832 0.082 7.06 6.75 8.89
7/21/2021 11:30:00 PM 18.17 64.706 0.082 7.05 6.86 8.97
7/21/2021 11:45:00 PM 18.09 64.562 0.082 7.04 7.23 8.99
7/22/2021 12:00:00 AM 18.02 64.436 0.082 7.03 6.7 9.02
7/22/2021 12:15:00 AM 17.95 64.31 0.082 7.03 7.34 9.03
7/22/2021 12:30:00 AM 17.87 64.166 0.082 7.02 6.87 9.06
7/22/2021 12:45:00 AM 17.79 64.022 0.082 7.02 6.92 9.05
7/22/2021 1:00:00 AM 17.72 63.896 0.082 7.02 6.77 9.06
7/22/2021 1:15:00 AM 17.64 63.752 0.082 7.02 6.71 9.11
7/22/2021 1:30:00 AM 17.56 63.608 0.082 7.01 7.38 9.11
7/22/2021 1:45:00 AM 17.49 63.482 0.083 7.01 6.43 9.14
7/22/2021 2:00:00 AM 17.41 63.338 0.083 7 6.96 9.18
7/22/2021 2:15:00 AM 17.33 63.194 0.082 7 6.63 9.16
7/22/2021 2:30:00 AM 17.24 63.032 0.083 7 6.63 9.22
7/22/2021 2:45:00 AM 17.16 62.888 0.083 7 6.99 9.22
7/22/2021 3:00:00 AM 17.08 62.744 0.082 6.99 6.64 9.27
7/22/2021 3:15:00 AM 17 62.6 0.083 7 6.8 9.28
7/22/2021 3:30:00 AM 16.91 62.438 0.083 6.99 6.19 9.31
7/22/2021 3:45:00 AM 16.83 62.294 0.083 6.99 6.76 9.31
7/22/2021 4:00:00 AM 16.74 62.132 0.083 6.99 6.55 9.35
7/22/2021 4:15:00 AM 16.66 61.988 0.083 6.99 6.95 9.34
7/22/2021 4:30:00 AM 16.58 61.844 0.083 6.98 6.67 9.39
7/22/2021 4:45:00 AM 16.49 61.682 0.083 6.98 6.63 9.39
7/22/2021 5:00:00 AM 16.41 61.538 0.083 6.98 6.22 9.44
7/22/2021 5:15:00 AM 16.32 61.376 0.083 6.98 6.36 9.45
7/22/2021 5:30:00 AM 16.24 61.232 0.083 6.98 7.1 9.46
7/22/2021 5:45:00 AM 16.16 61.088 0.083 6.97 6.44 9.49
7/22/2021 6:00:00 AM 16.08 60.944 0.083 6.98 7.29 9.52
7/22/2021 6:15:00 AM 16 60.8 0.083 6.97 6.69 9.55
7/22/2021 6:30:00 AM 15.93 60.674 0.083 6.97 6.78 9.58
7/22/2021 6:45:00 AM 15.85 60.53 0.082 6.97 6.63 9.63
7/22/2021 7:00:00 AM 15.79 60.422 0.083 6.95 6.45 9.65
7/22/2021 7:15:00 AM 15.72 60.296 0.082 6.92 7.41 9.72
7/22/2021 7:30:00 AM 15.67 60.206 0.082 6.89 640.17 9.78
7/22/2021 7:45:00 AM 15.64 60.152 0.083 6.88 1299.77 9.85
7/22/2021 8:00:00 AM 15.61 60.098 0.082 6.92 2902.59 9.94
7/22/2021 8:15:00 AM 15.57 60.026 0.082 6.97 1107.58 9.99
7/22/2021 8:30:00 AM 15.55 59.99 0.082 7 703.72 10.05
7/22/2021 8:45:00 AM 15.55 59.99 0.082 7.05 415.69 10.13
7/22/2021 9:00:00 AM 15.55 59.99 0.082 7.09 83.38 10.21
7/22/2021 9:15:00 AM 15.58 60.044 0.082 7.12 46.1 10.29
7/22/2021 9:30:00 AM 15.62 60.116 0.081 7.16 21.19 10.39
7/22/2021 9:45:00 AM 15.68 60.224 0.078 7.18 415.99 10.43
7/22/2021 10:00:00 AM 15.76 60.368 0.074 7.21 921.36 10.53
7/22/2021 10:15:00 AM 15.77 60.386 0.066 7.26 2570.08 10.52
7/22/2021 10:30:00 AM 15.81 60.458 0.055 7.28 414.8 10.58
7/22/2021 10:45:00 AM 15.91 60.638 0.044 7.3 57.05 10.67
7/22/2021 11:00:00 AM 16.01 60.818 0.042 7.34 19.42 10.72
7/22/2021 11:15:00 AM 16.1 60.98 0.046 7.37 9.41 10.77
7/22/2021 11:30:00 AM 16.23 61.214 0.06 7.42 6.95 10.83
7/22/2021 11:45:00 AM 16.36 61.448 0.073 7.46 6.6 10.84
7/22/2021 12:00:00 PM 16.5 61.7 0.078 7.49 5.37 10.85
7/22/2021 12:15:00 PM 16.66 61.988 0.08 7.52 5.22 10.84
7/22/2021 12:30:00 PM 16.85 62.33 0.08 7.57 5.24 10.84
7/22/2021 12:45:00 PM 16.93 62.474 0.08 7.6 5 10.8
7/22/2021 1:00:00 PM 16.99 62.582 0.08 7.63 5.2 10.73
7/22/2021 1:15:00 PM 17.12 62.816 0.08 7.66 5.81 10.72
7/22/2021 1:30:00 PM 17.18 62.924 0.08 7.69 5.22 10.7
7/22/2021 1:45:00 PM 17.34 63.212 0.08 7.71 5.18 10.71
7/22/2021 2:00:00 PM 17.46 63.428 0.08 7.73 4.79 10.75
7/22/2021 2:15:00 PM 17.6 63.68 0.079 7.77 5 10.75
7/22/2021 2:30:00 PM 17.76 63.968 0.079 7.81 5.42 10.74
7/22/2021 2:45:00 PM 17.81 64.058 0.079 7.82 5.3 10.69
7/22/2021 3:00:00 PM 17.95 64.31 0.079 7.81 5.39 10.67
7/22/2021 3:15:00 PM 18.03 64.454 0.079 7.87 5.16 10.62
7/22/2021 3:30:00 PM 18.11 64.598 0.079 7.88 5.33 10.57
7/22/2021 3:45:00 PM 18.24 64.832 0.079 7.88 5.27 10.56
7/22/2021 4:00:00 PM 18.34 65.012 0.079 7.9 5.34 10.5
7/22/2021 4:15:00 PM 18.43 65.174 0.079 7.88 5.26 10.44
7/22/2021 4:30:00 PM 18.53 65.354 0.079 7.9 5.29 10.41
7/22/2021 4:45:00 PM 18.61 65.498 0.079 7.88 5.14 10.34
7/22/2021 5:00:00 PM 18.67 65.606 0.079 7.88 7.89 10.32
7/22/2021 5:15:00 PM 18.7 65.66 0.079 7.86 5.35 10.24
7/22/2021 5:30:00 PM 18.72 65.696 0.079 7.85 5.27 10.19
7/22/2021 5:45:00 PM 18.74 65.732 0.079 7.84 5.04 10.1
7/22/2021 6:00:00 PM 18.77 65.786 0.079 7.81 5.34 10.05
7/22/2021 6:15:00 PM 18.77 65.786 0.079 7.78 5.96 10.01
7/22/2021 6:30:00 PM 18.74 65.732 0.079 7.74 5.51 9.9
7/22/2021 6:45:00 PM 18.74 65.732 0.079 7.7 5.85 9.85
7/22/2021 7:00:00 PM 18.74 65.732 0.079 7.65 5.41 9.79
7/22/2021 7:15:00 PM 18.73 65.714 0.079 7.6 5.44 9.71
7/22/2021 7:30:00 PM 18.7 65.66 0.079 7.55 5.46 9.64
7/22/2021 7:45:00 PM 18.68 65.624 0.08 7.5 5.73 9.59
7/22/2021 8:00:00 PM 18.66 65.588 0.08 7.46 5.72 9.5
7/22/2021 8:15:00 PM 18.63 65.534 0.08 7.42 5.56 9.43
7/22/2021 8:30:00 PM 18.58 65.444 0.08 7.39 5.44 9.37
7/22/2021 8:45:00 PM 18.53 65.354 0.08 7.35 5.77 9.31
7/22/2021 9:00:00 PM 18.47 65.246 0.08 7.31 5.88 9.27
7/22/2021 9:15:00 PM 18.41 65.138 0.081 7.27 5.93 9.18
7/22/2021 9:30:00 PM 18.34 65.012 0.081 7.22 8.32 9.18
7/22/2021 9:45:00 PM 18.27 64.886 0.081 7.18 536.98 9.13
7/22/2021 10:00:00 PM 18.2 64.76 0.081 7.16 1507.47 9.1
7/22/2021 10:15:00 PM 18.12 64.616 0.081 7.15 2274.77 9.07
7/22/2021 10:30:00 PM 18.06 64.508 0.082 7.15 930.49 9.05
7/22/2021 10:45:00 PM 18 64.4 0.082 7.14 556.42 9.04
7/22/2021 11:00:00 PM 17.93 64.274 0.082 7.13 588.27 9.06
7/22/2021 11:15:00 PM 17.86 64.148 0.082 7.12 130.72 9.08
7/22/2021 11:30:00 PM 17.79 64.022 0.082 7.11 67.88 9.07
7/22/2021 11:45:00 PM 17.72 63.896 0.082 7.11 32.74 9.09
7/23/2021 12:00:00 AM 17.65 63.77 0.08 7.1 428.54 9.1
7/23/2021 12:15:00 AM 17.57 63.626 0.076 7.09 684.59 9.09
7/23/2021 12:30:00 AM 17.5 63.5 0.069 7.08 3795.25 9.14
7/23/2021 12:45:00 AM 17.42 63.356 0.058 7.07 627.87 9.15
7/23/2021 1:00:00 AM 17.35 63.23 0.048 7.07 94.03 9.16
7/23/2021 1:15:00 AM 17.27 63.086 0.043 7.06 34.61 9.19
7/23/2021 1:30:00 AM 17.2 62.96 0.046 7.05 14.26 9.21
7/23/2021 1:45:00 AM 17.13 62.834 0.059 7.04 8.79 9.24
7/23/2021 2:00:00 AM 17.06 62.708 0.073 7.03 6.43 9.25
7/23/2021 2:15:00 AM 16.99 62.582 0.081 7.02 5.74 9.25
7/23/2021 2:30:00 AM 16.93 62.474 0.083 7.01 5.5 9.25
7/23/2021 2:45:00 AM 16.86 62.348 0.083 7.01 5.3 9.25
7/23/2021 3:00:00 AM 16.79 62.222 0.084 7 5.48 9.24
7/23/2021 3:15:00 AM 16.72 62.096 0.084 7 5.49 9.21
7/23/2021 3:30:00 AM 16.65 61.97 0.084 7 5.56 9.18
7/23/2021 3:45:00 AM 16.58 61.844 0.084 7 5.3 9.29
7/23/2021 4:00:00 AM 16.51 61.718 0.084 7.01 5.48 9.34
7/23/2021 4:15:00 AM 16.45 61.61 0.084 7.01 5.22 9.4
7/23/2021 4:30:00 AM 16.39 61.502 0.084 7.01 5.42 9.42
7/23/2021 4:45:00 AM 16.33 61.394 0.084 7.01 6.08 9.43
7/23/2021 5:00:00 AM 16.27 61.286 0.084 7.01 5.37 9.45
7/23/2021 5:15:00 AM 16.21 61.178 0.084 7.02 5.81 9.45
7/23/2021 5:30:00 AM 16.15 61.07 0.084 7.01 6.06 9.44
7/23/2021 5:45:00 AM 16.09 60.962 0.084 7.02 5.41 9.5
7/23/2021 6:00:00 AM 16.03 60.854 0.084 7.02 5.64 9.51
7/23/2021 6:15:00 AM 15.97 60.746 0.084 7.02 5.38 9.54
7/23/2021 6:30:00 AM 15.92 60.656 0.084 7.02 5.32 9.58
7/23/2021 6:45:00 AM 15.87 60.566 0.084 7.03 5.4 9.59
7/23/2021 7:00:00 AM 15.82 60.476 0.084 7.03 5.17 9.65
7/23/2021 7:15:00 AM 15.78 60.404 0.084 7.04 5.23 9.7
7/23/2021 7:30:00 AM 15.74 60.332 0.084 7.05 5.22 9.77
7/23/2021 7:45:00 AM 15.71 60.278 0.084 7.06 5.15 9.8
7/23/2021 8:00:00 AM 15.69 60.242 0.083 7.08 5.08 9.91
7/23/2021 8:15:00 AM 15.68 60.224 0.084 7.09 4.9 9.96
7/23/2021 8:30:00 AM 15.66 60.188 0.084 7.11 4.84 10.04
7/23/2021 8:45:00 AM 15.67 60.206 0.083 7.13 4.96 10.1
7/23/2021 9:00:00 AM 15.68 60.224 0.083 7.15 5.06 10.15
7/23/2021 9:15:00 AM 15.7 60.26 0.083 7.18 4.94 10.23
7/23/2021 9:30:00 AM 15.74 60.332 0.083 7.2 4.86 10.33
7/23/2021 9:45:00 AM 15.79 60.422 0.083 7.23 4.67 10.36
7/23/2021 10:00:00 AM